<?xml version="1.0" encoding="UTF-8" standalone="no" ?>
<gpx xmlns="http://www.topografix.com/GPX/1/1" xmlns:xsi="http://www.w3.org/2001/XMLSchema-instance" xsi:schemaLocation="http://www.topografix.com/GPX/1/1 http://www.topografix.com/GPX/1/1/gpx.xsd" version="1.1" creator="VisuGPX - https://www.visugpx.com">
  <metadata>
    <name>Grand fontaine, les hautes chaumes</name>
    <desc><![CDATA[Petit circuit entre foret et chaumes...]]></desc>
  </metadata>
  <wpt lat="48.47843" lon="7.11701">
    <ele>783</ele>
  </wpt>
  <wpt lat="48.47841" lon="7.11701">
    <ele>789</ele>
    <name><![CDATA[WP 02]]></name>
  </wpt>
  <wpt lat="48.47841" lon="7.11701">
    <ele>789</ele>
  </wpt>
  <trk>
    <name><![CDATA[Grand fontaine, les hautes chaumes_1]]></name>
    <trkseg>
      <trkpt lat="48.47843" lon="7.11701">
        <ele>783</ele>
        <time>2009-05-24T09:10:26Z</time>
      </trkpt>
      <trkpt lat="48.47841" lon="7.11715">
        <ele>795</ele>
        <time>2009-05-24T09:16:37Z</time>
      </trkpt>
      <trkpt lat="48.47846" lon="7.11729">
        <ele>785</ele>
        <time>2009-05-24T09:17:51Z</time>
      </trkpt>
      <trkpt lat="48.4784" lon="7.11742">
        <ele>785</ele>
        <time>2009-05-24T09:18:02Z</time>
      </trkpt>
      <trkpt lat="48.4784" lon="7.11756">
        <ele>785</ele>
        <time>2009-05-24T09:18:11Z</time>
      </trkpt>
      <trkpt lat="48.47837" lon="7.11769">
        <ele>785</ele>
        <time>2009-05-24T09:18:22Z</time>
      </trkpt>
      <trkpt lat="48.47837" lon="7.11785">
        <ele>790</ele>
        <time>2009-05-24T09:18:35Z</time>
      </trkpt>
      <trkpt lat="48.47838" lon="7.118">
        <ele>790</ele>
        <time>2009-05-24T09:18:45Z</time>
      </trkpt>
      <trkpt lat="48.47841" lon="7.11814">
        <ele>790</ele>
        <time>2009-05-24T09:18:52Z</time>
      </trkpt>
      <trkpt lat="48.47841" lon="7.11829">
        <ele>790</ele>
        <time>2009-05-24T09:19:02Z</time>
      </trkpt>
      <trkpt lat="48.47843" lon="7.11844">
        <ele>790</ele>
        <time>2009-05-24T09:19:10Z</time>
      </trkpt>
      <trkpt lat="48.47844" lon="7.11858">
        <ele>796</ele>
        <time>2009-05-24T09:19:19Z</time>
      </trkpt>
      <trkpt lat="48.47846" lon="7.11873">
        <ele>796</ele>
        <time>2009-05-24T09:19:29Z</time>
      </trkpt>
      <trkpt lat="48.4785" lon="7.11885">
        <ele>796</ele>
        <time>2009-05-24T09:19:36Z</time>
      </trkpt>
      <trkpt lat="48.47853" lon="7.119">
        <ele>796</ele>
        <time>2009-05-24T09:19:44Z</time>
      </trkpt>
      <trkpt lat="48.47859" lon="7.11912">
        <ele>796</ele>
        <time>2009-05-24T09:19:53Z</time>
      </trkpt>
      <trkpt lat="48.47864" lon="7.11924">
        <ele>796</ele>
        <time>2009-05-24T09:20:00Z</time>
      </trkpt>
      <trkpt lat="48.47869" lon="7.11937">
        <ele>790</ele>
        <time>2009-05-24T09:20:08Z</time>
      </trkpt>
      <trkpt lat="48.47875" lon="7.1195">
        <ele>790</ele>
        <time>2009-05-24T09:20:15Z</time>
      </trkpt>
      <trkpt lat="48.47881" lon="7.11962">
        <ele>790</ele>
        <time>2009-05-24T09:20:24Z</time>
      </trkpt>
      <trkpt lat="48.47886" lon="7.11974">
        <ele>783</ele>
        <time>2009-05-24T09:20:34Z</time>
      </trkpt>
      <trkpt lat="48.4789" lon="7.11989">
        <ele>783</ele>
        <time>2009-05-24T09:20:43Z</time>
      </trkpt>
      <trkpt lat="48.47894" lon="7.12001">
        <ele>783</ele>
        <time>2009-05-24T09:20:53Z</time>
      </trkpt>
      <trkpt lat="48.47899" lon="7.12015">
        <ele>783</ele>
        <time>2009-05-24T09:21:01Z</time>
      </trkpt>
      <trkpt lat="48.47902" lon="7.12029">
        <ele>783</ele>
        <time>2009-05-24T09:21:10Z</time>
      </trkpt>
      <trkpt lat="48.47904" lon="7.12044">
        <ele>783</ele>
        <time>2009-05-24T09:21:19Z</time>
      </trkpt>
      <trkpt lat="48.47904" lon="7.1206">
        <ele>783</ele>
        <time>2009-05-24T09:21:30Z</time>
      </trkpt>
      <trkpt lat="48.47907" lon="7.12074">
        <ele>793</ele>
        <time>2009-05-24T09:21:38Z</time>
      </trkpt>
      <trkpt lat="48.47903" lon="7.12087">
        <ele>793</ele>
        <time>2009-05-24T09:21:48Z</time>
      </trkpt>
      <trkpt lat="48.47905" lon="7.12101">
        <ele>785</ele>
        <time>2009-05-24T09:21:59Z</time>
      </trkpt>
      <trkpt lat="48.47911" lon="7.12113">
        <ele>785</ele>
        <time>2009-05-24T09:22:06Z</time>
      </trkpt>
      <trkpt lat="48.47917" lon="7.12123">
        <ele>785</ele>
        <time>2009-05-24T09:22:12Z</time>
      </trkpt>
      <trkpt lat="48.47923" lon="7.12137">
        <ele>776</ele>
        <time>2009-05-24T09:22:23Z</time>
      </trkpt>
      <trkpt lat="48.47927" lon="7.1215">
        <ele>776</ele>
        <time>2009-05-24T09:22:33Z</time>
      </trkpt>
      <trkpt lat="48.47933" lon="7.12162">
        <ele>776</ele>
        <time>2009-05-24T09:22:42Z</time>
      </trkpt>
      <trkpt lat="48.47938" lon="7.12176">
        <ele>776</ele>
        <time>2009-05-24T09:22:51Z</time>
      </trkpt>
      <trkpt lat="48.47942" lon="7.1219">
        <ele>776</ele>
        <time>2009-05-24T09:22:58Z</time>
      </trkpt>
      <trkpt lat="48.47944" lon="7.12205">
        <ele>776</ele>
        <time>2009-05-24T09:23:06Z</time>
      </trkpt>
      <trkpt lat="48.47943" lon="7.1222">
        <ele>776</ele>
        <time>2009-05-24T09:23:18Z</time>
      </trkpt>
      <trkpt lat="48.47947" lon="7.12234">
        <ele>776</ele>
        <time>2009-05-24T09:23:26Z</time>
      </trkpt>
      <trkpt lat="48.47951" lon="7.12246">
        <ele>776</ele>
        <time>2009-05-24T09:23:38Z</time>
      </trkpt>
      <trkpt lat="48.47951" lon="7.12263">
        <ele>776</ele>
        <time>2009-05-24T09:23:48Z</time>
      </trkpt>
      <trkpt lat="48.47951" lon="7.12278">
        <ele>776</ele>
        <time>2009-05-24T09:23:57Z</time>
      </trkpt>
      <trkpt lat="48.47954" lon="7.12292">
        <ele>782</ele>
        <time>2009-05-24T09:24:04Z</time>
      </trkpt>
      <trkpt lat="48.47955" lon="7.12307">
        <ele>782</ele>
        <time>2009-05-24T09:24:13Z</time>
      </trkpt>
      <trkpt lat="48.4795" lon="7.1232">
        <ele>782</ele>
        <time>2009-05-24T09:24:22Z</time>
      </trkpt>
      <trkpt lat="48.47945" lon="7.12332">
        <ele>782</ele>
        <time>2009-05-24T09:24:30Z</time>
      </trkpt>
      <trkpt lat="48.47936" lon="7.12339">
        <ele>776</ele>
        <time>2009-05-24T09:24:40Z</time>
      </trkpt>
      <trkpt lat="48.47929" lon="7.12349">
        <ele>782</ele>
        <time>2009-05-24T09:24:52Z</time>
      </trkpt>
      <trkpt lat="48.47921" lon="7.12356">
        <ele>782</ele>
        <time>2009-05-24T09:25:02Z</time>
      </trkpt>
      <trkpt lat="48.47915" lon="7.12368">
        <ele>782</ele>
        <time>2009-05-24T09:25:09Z</time>
      </trkpt>
      <trkpt lat="48.47914" lon="7.12382">
        <ele>782</ele>
        <time>2009-05-24T09:25:16Z</time>
      </trkpt>
      <trkpt lat="48.47905" lon="7.12391">
        <ele>782</ele>
        <time>2009-05-24T09:25:23Z</time>
      </trkpt>
      <trkpt lat="48.47899" lon="7.12403">
        <ele>782</ele>
        <time>2009-05-24T09:25:30Z</time>
      </trkpt>
      <trkpt lat="48.47892" lon="7.12413">
        <ele>782</ele>
        <time>2009-05-24T09:25:38Z</time>
      </trkpt>
      <trkpt lat="48.47888" lon="7.12426">
        <ele>782</ele>
        <time>2009-05-24T09:25:46Z</time>
      </trkpt>
      <trkpt lat="48.47884" lon="7.12439">
        <ele>782</ele>
        <time>2009-05-24T09:25:54Z</time>
      </trkpt>
      <trkpt lat="48.47878" lon="7.1245">
        <ele>782</ele>
        <time>2009-05-24T09:26:03Z</time>
      </trkpt>
      <trkpt lat="48.47871" lon="7.12461">
        <ele>775</ele>
        <time>2009-05-24T09:26:12Z</time>
      </trkpt>
      <trkpt lat="48.47865" lon="7.12473">
        <ele>775</ele>
        <time>2009-05-24T09:26:19Z</time>
      </trkpt>
      <trkpt lat="48.47863" lon="7.12487">
        <ele>775</ele>
        <time>2009-05-24T09:26:28Z</time>
      </trkpt>
      <trkpt lat="48.47858" lon="7.125">
        <ele>775</ele>
        <time>2009-05-24T09:26:39Z</time>
      </trkpt>
      <trkpt lat="48.47858" lon="7.12514">
        <ele>775</ele>
        <time>2009-05-24T09:26:51Z</time>
      </trkpt>
      <trkpt lat="48.47853" lon="7.12527">
        <ele>775</ele>
        <time>2009-05-24T09:27:05Z</time>
      </trkpt>
      <trkpt lat="48.4785" lon="7.1254">
        <ele>775</ele>
        <time>2009-05-24T09:27:23Z</time>
      </trkpt>
      <trkpt lat="48.47852" lon="7.12555">
        <ele>775</ele>
        <time>2009-05-24T09:27:34Z</time>
      </trkpt>
      <trkpt lat="48.47848" lon="7.12568">
        <ele>775</ele>
        <time>2009-05-24T09:27:48Z</time>
      </trkpt>
      <trkpt lat="48.47843" lon="7.12581">
        <ele>775</ele>
        <time>2009-05-24T09:27:58Z</time>
      </trkpt>
      <trkpt lat="48.47842" lon="7.12597">
        <ele>775</ele>
        <time>2009-05-24T09:28:05Z</time>
      </trkpt>
      <trkpt lat="48.47843" lon="7.12611">
        <ele>775</ele>
        <time>2009-05-24T09:28:14Z</time>
      </trkpt>
      <trkpt lat="48.47838" lon="7.12624">
        <ele>763</ele>
        <time>2009-05-24T09:28:35Z</time>
      </trkpt>
      <trkpt lat="48.47838" lon="7.12638">
        <ele>763</ele>
        <time>2009-05-24T09:29:10Z</time>
      </trkpt>
      <trkpt lat="48.47836" lon="7.12652">
        <ele>763</ele>
        <time>2009-05-24T09:29:23Z</time>
      </trkpt>
      <trkpt lat="48.47832" lon="7.12667">
        <ele>772</ele>
        <time>2009-05-24T09:29:40Z</time>
      </trkpt>
      <trkpt lat="48.47826" lon="7.12679">
        <ele>772</ele>
        <time>2009-05-24T09:29:50Z</time>
      </trkpt>
      <trkpt lat="48.47822" lon="7.12693">
        <ele>763</ele>
        <time>2009-05-24T09:30:03Z</time>
      </trkpt>
      <trkpt lat="48.47819" lon="7.12707">
        <ele>769</ele>
        <time>2009-05-24T09:30:13Z</time>
      </trkpt>
      <trkpt lat="48.47818" lon="7.12722">
        <ele>769</ele>
        <time>2009-05-24T09:30:23Z</time>
      </trkpt>
      <trkpt lat="48.47821" lon="7.12736">
        <ele>776</ele>
        <time>2009-05-24T09:30:30Z</time>
      </trkpt>
      <trkpt lat="48.47819" lon="7.12749">
        <ele>776</ele>
        <time>2009-05-24T09:30:37Z</time>
      </trkpt>
      <trkpt lat="48.47818" lon="7.12765">
        <ele>776</ele>
        <time>2009-05-24T09:30:44Z</time>
      </trkpt>
      <trkpt lat="48.4782" lon="7.1278">
        <ele>776</ele>
        <time>2009-05-24T09:30:50Z</time>
      </trkpt>
      <trkpt lat="48.47818" lon="7.12794">
        <ele>776</ele>
        <time>2009-05-24T09:30:59Z</time>
      </trkpt>
      <trkpt lat="48.47816" lon="7.1281">
        <ele>776</ele>
        <time>2009-05-24T09:31:08Z</time>
      </trkpt>
      <trkpt lat="48.47812" lon="7.12823">
        <ele>776</ele>
        <time>2009-05-24T09:31:17Z</time>
      </trkpt>
      <trkpt lat="48.47811" lon="7.12837">
        <ele>769</ele>
        <time>2009-05-24T09:31:23Z</time>
      </trkpt>
      <trkpt lat="48.47805" lon="7.1285">
        <ele>769</ele>
        <time>2009-05-24T09:31:30Z</time>
      </trkpt>
      <trkpt lat="48.478" lon="7.12863">
        <ele>769</ele>
        <time>2009-05-24T09:31:36Z</time>
      </trkpt>
      <trkpt lat="48.47803" lon="7.12878">
        <ele>769</ele>
        <time>2009-05-24T09:31:43Z</time>
      </trkpt>
      <trkpt lat="48.47799" lon="7.12892">
        <ele>775</ele>
        <time>2009-05-24T09:31:52Z</time>
      </trkpt>
      <trkpt lat="48.47789" lon="7.12896">
        <ele>775</ele>
        <time>2009-05-24T09:31:58Z</time>
      </trkpt>
      <trkpt lat="48.47783" lon="7.12908">
        <ele>775</ele>
        <time>2009-05-24T09:32:08Z</time>
      </trkpt>
      <trkpt lat="48.47775" lon="7.12914">
        <ele>782</ele>
        <time>2009-05-24T09:32:15Z</time>
      </trkpt>
      <trkpt lat="48.47766" lon="7.12921">
        <ele>782</ele>
        <time>2009-05-24T09:32:22Z</time>
      </trkpt>
      <trkpt lat="48.47763" lon="7.12935">
        <ele>782</ele>
        <time>2009-05-24T09:32:29Z</time>
      </trkpt>
      <trkpt lat="48.47757" lon="7.12948">
        <ele>782</ele>
        <time>2009-05-24T09:32:37Z</time>
      </trkpt>
      <trkpt lat="48.47749" lon="7.12957">
        <ele>782</ele>
        <time>2009-05-24T09:32:44Z</time>
      </trkpt>
      <trkpt lat="48.4774" lon="7.12962">
        <ele>782</ele>
        <time>2009-05-24T09:32:53Z</time>
      </trkpt>
      <trkpt lat="48.47732" lon="7.12971">
        <ele>782</ele>
        <time>2009-05-24T09:33:03Z</time>
      </trkpt>
      <trkpt lat="48.47722" lon="7.12973">
        <ele>776</ele>
        <time>2009-05-24T09:33:09Z</time>
      </trkpt>
      <trkpt lat="48.47713" lon="7.12977">
        <ele>767</ele>
        <time>2009-05-24T09:33:15Z</time>
      </trkpt>
      <trkpt lat="48.47705" lon="7.12984">
        <ele>767</ele>
        <time>2009-05-24T09:33:22Z</time>
      </trkpt>
      <trkpt lat="48.47698" lon="7.12994">
        <ele>767</ele>
        <time>2009-05-24T09:33:31Z</time>
      </trkpt>
      <trkpt lat="48.47691" lon="7.13005">
        <ele>767</ele>
        <time>2009-05-24T09:33:42Z</time>
      </trkpt>
      <trkpt lat="48.47686" lon="7.13017">
        <ele>767</ele>
        <time>2009-05-24T09:33:50Z</time>
      </trkpt>
      <trkpt lat="48.47687" lon="7.13032">
        <ele>767</ele>
        <time>2009-05-24T09:33:58Z</time>
      </trkpt>
      <trkpt lat="48.47682" lon="7.13046">
        <ele>767</ele>
        <time>2009-05-24T09:34:05Z</time>
      </trkpt>
      <trkpt lat="48.47675" lon="7.13057">
        <ele>762</ele>
        <time>2009-05-24T09:34:13Z</time>
      </trkpt>
      <trkpt lat="48.47671" lon="7.1307">
        <ele>762</ele>
        <time>2009-05-24T09:34:20Z</time>
      </trkpt>
      <trkpt lat="48.47667" lon="7.13084">
        <ele>762</ele>
        <time>2009-05-24T09:34:28Z</time>
      </trkpt>
      <trkpt lat="48.4766" lon="7.13094">
        <ele>762</ele>
        <time>2009-05-24T09:34:39Z</time>
      </trkpt>
      <trkpt lat="48.47654" lon="7.13105">
        <ele>762</ele>
        <time>2009-05-24T09:34:47Z</time>
      </trkpt>
      <trkpt lat="48.4765" lon="7.13119">
        <ele>762</ele>
        <time>2009-05-24T09:34:57Z</time>
      </trkpt>
      <trkpt lat="48.47647" lon="7.13132">
        <ele>762</ele>
        <time>2009-05-24T09:35:06Z</time>
      </trkpt>
      <trkpt lat="48.47643" lon="7.13146">
        <ele>762</ele>
        <time>2009-05-24T09:35:15Z</time>
      </trkpt>
      <trkpt lat="48.47635" lon="7.13155">
        <ele>762</ele>
        <time>2009-05-24T09:35:23Z</time>
      </trkpt>
      <trkpt lat="48.47634" lon="7.1317">
        <ele>762</ele>
        <time>2009-05-24T09:35:32Z</time>
      </trkpt>
      <trkpt lat="48.47628" lon="7.13182">
        <ele>756</ele>
        <time>2009-05-24T09:35:42Z</time>
      </trkpt>
      <trkpt lat="48.47619" lon="7.13189">
        <ele>756</ele>
        <time>2009-05-24T09:35:50Z</time>
      </trkpt>
      <trkpt lat="48.47614" lon="7.13202">
        <ele>756</ele>
        <time>2009-05-24T09:36:00Z</time>
      </trkpt>
      <trkpt lat="48.47606" lon="7.13211">
        <ele>750</ele>
        <time>2009-05-24T09:36:08Z</time>
      </trkpt>
      <trkpt lat="48.47597" lon="7.13217">
        <ele>750</ele>
        <time>2009-05-24T09:36:13Z</time>
      </trkpt>
      <trkpt lat="48.4759" lon="7.13228">
        <ele>739</ele>
        <time>2009-05-24T09:36:23Z</time>
      </trkpt>
      <trkpt lat="48.4758" lon="7.13236">
        <ele>739</ele>
        <time>2009-05-24T09:36:33Z</time>
      </trkpt>
      <trkpt lat="48.47571" lon="7.1324">
        <ele>739</ele>
        <time>2009-05-24T09:36:41Z</time>
      </trkpt>
      <trkpt lat="48.47561" lon="7.13245">
        <ele>731</ele>
        <time>2009-05-24T09:36:51Z</time>
      </trkpt>
      <trkpt lat="48.47552" lon="7.13249">
        <ele>731</ele>
        <time>2009-05-24T09:37:00Z</time>
      </trkpt>
      <trkpt lat="48.47546" lon="7.13259">
        <ele>719</ele>
        <time>2009-05-24T09:38:07Z</time>
      </trkpt>
      <trkpt lat="48.47546" lon="7.13273">
        <ele>719</ele>
        <time>2009-05-24T09:38:18Z</time>
      </trkpt>
      <trkpt lat="48.47545" lon="7.13288">
        <ele>719</ele>
        <time>2009-05-24T09:38:27Z</time>
      </trkpt>
      <trkpt lat="48.47546" lon="7.13302">
        <ele>725</ele>
        <time>2009-05-24T09:38:39Z</time>
      </trkpt>
      <trkpt lat="48.4755" lon="7.13316">
        <ele>725</ele>
        <time>2009-05-24T09:38:49Z</time>
      </trkpt>
      <trkpt lat="48.47554" lon="7.1333">
        <ele>725</ele>
        <time>2009-05-24T09:38:58Z</time>
      </trkpt>
      <trkpt lat="48.47557" lon="7.13344">
        <ele>725</ele>
        <time>2009-05-24T09:39:08Z</time>
      </trkpt>
      <trkpt lat="48.47562" lon="7.13357">
        <ele>725</ele>
        <time>2009-05-24T09:39:16Z</time>
      </trkpt>
      <trkpt lat="48.47568" lon="7.13368">
        <ele>725</ele>
        <time>2009-05-24T09:39:23Z</time>
      </trkpt>
      <trkpt lat="48.47573" lon="7.1338">
        <ele>725</ele>
        <time>2009-05-24T09:39:30Z</time>
      </trkpt>
      <trkpt lat="48.47576" lon="7.13395">
        <ele>725</ele>
        <time>2009-05-24T09:39:38Z</time>
      </trkpt>
      <trkpt lat="48.47579" lon="7.13411">
        <ele>719</ele>
        <time>2009-05-24T09:39:46Z</time>
      </trkpt>
      <trkpt lat="48.47581" lon="7.13425">
        <ele>719</ele>
        <time>2009-05-24T09:39:53Z</time>
      </trkpt>
      <trkpt lat="48.47583" lon="7.1344">
        <ele>719</ele>
        <time>2009-05-24T09:40:01Z</time>
      </trkpt>
      <trkpt lat="48.47584" lon="7.13455">
        <ele>719</ele>
        <time>2009-05-24T09:40:09Z</time>
      </trkpt>
      <trkpt lat="48.47585" lon="7.13469">
        <ele>719</ele>
        <time>2009-05-24T09:40:18Z</time>
      </trkpt>
      <trkpt lat="48.47584" lon="7.13484">
        <ele>719</ele>
        <time>2009-05-24T09:40:29Z</time>
      </trkpt>
      <trkpt lat="48.47585" lon="7.13499">
        <ele>719</ele>
        <time>2009-05-24T09:40:36Z</time>
      </trkpt>
      <trkpt lat="48.47585" lon="7.13514">
        <ele>719</ele>
        <time>2009-05-24T09:40:44Z</time>
      </trkpt>
      <trkpt lat="48.47582" lon="7.13528">
        <ele>710</ele>
        <time>2009-05-24T09:40:52Z</time>
      </trkpt>
      <trkpt lat="48.47582" lon="7.13544">
        <ele>710</ele>
        <time>2009-05-24T09:40:59Z</time>
      </trkpt>
      <trkpt lat="48.47582" lon="7.13559">
        <ele>710</ele>
        <time>2009-05-24T09:41:07Z</time>
      </trkpt>
      <trkpt lat="48.47583" lon="7.13573">
        <ele>710</ele>
        <time>2009-05-24T09:41:15Z</time>
      </trkpt>
      <trkpt lat="48.47584" lon="7.13588">
        <ele>710</ele>
        <time>2009-05-24T09:41:22Z</time>
      </trkpt>
      <trkpt lat="48.47583" lon="7.13604">
        <ele>702</ele>
        <time>2009-05-24T09:41:30Z</time>
      </trkpt>
      <trkpt lat="48.47584" lon="7.13619">
        <ele>702</ele>
        <time>2009-05-24T09:41:40Z</time>
      </trkpt>
      <trkpt lat="48.47583" lon="7.13633">
        <ele>694</ele>
        <time>2009-05-24T09:41:47Z</time>
      </trkpt>
      <trkpt lat="48.47579" lon="7.13646">
        <ele>694</ele>
        <time>2009-05-24T09:41:57Z</time>
      </trkpt>
      <trkpt lat="48.47577" lon="7.13659">
        <ele>694</ele>
        <time>2009-05-24T09:42:05Z</time>
      </trkpt>
      <trkpt lat="48.47573" lon="7.13672">
        <ele>694</ele>
        <time>2009-05-24T09:42:15Z</time>
      </trkpt>
      <trkpt lat="48.47567" lon="7.13684">
        <ele>694</ele>
        <time>2009-05-24T09:42:24Z</time>
      </trkpt>
      <trkpt lat="48.47559" lon="7.13693">
        <ele>685</ele>
        <time>2009-05-24T09:42:34Z</time>
      </trkpt>
      <trkpt lat="48.47564" lon="7.13705">
        <ele>677</ele>
        <time>2009-05-24T09:45:17Z</time>
      </trkpt>
      <trkpt lat="48.47554" lon="7.13703">
        <ele>677</ele>
        <time>2009-05-24T09:46:43Z</time>
      </trkpt>
      <trkpt lat="48.47545" lon="7.13699">
        <ele>677</ele>
        <time>2009-05-24T09:46:53Z</time>
      </trkpt>
      <trkpt lat="48.47535" lon="7.13695">
        <ele>677</ele>
        <time>2009-05-24T09:47:03Z</time>
      </trkpt>
      <trkpt lat="48.47526" lon="7.1369">
        <ele>677</ele>
        <time>2009-05-24T09:47:14Z</time>
      </trkpt>
      <trkpt lat="48.47517" lon="7.13686">
        <ele>672</ele>
        <time>2009-05-24T09:47:22Z</time>
      </trkpt>
      <trkpt lat="48.47508" lon="7.1368">
        <ele>672</ele>
        <time>2009-05-24T09:47:32Z</time>
      </trkpt>
      <trkpt lat="48.47499" lon="7.13677">
        <ele>672</ele>
        <time>2009-05-24T09:47:41Z</time>
      </trkpt>
      <trkpt lat="48.47489" lon="7.13674">
        <ele>672</ele>
        <time>2009-05-24T09:47:50Z</time>
      </trkpt>
      <trkpt lat="48.47479" lon="7.13675">
        <ele>672</ele>
        <time>2009-05-24T09:47:58Z</time>
      </trkpt>
      <trkpt lat="48.47469" lon="7.13673">
        <ele>672</ele>
        <time>2009-05-24T09:48:08Z</time>
      </trkpt>
      <trkpt lat="48.4746" lon="7.13668">
        <ele>665</ele>
        <time>2009-05-24T09:48:18Z</time>
      </trkpt>
      <trkpt lat="48.4745" lon="7.13668">
        <ele>665</ele>
        <time>2009-05-24T09:48:26Z</time>
      </trkpt>
      <trkpt lat="48.4744" lon="7.13668">
        <ele>665</ele>
        <time>2009-05-24T09:48:35Z</time>
      </trkpt>
      <trkpt lat="48.4743" lon="7.13672">
        <ele>665</ele>
        <time>2009-05-24T09:48:43Z</time>
      </trkpt>
      <trkpt lat="48.47422" lon="7.1368">
        <ele>665</ele>
        <time>2009-05-24T09:48:52Z</time>
      </trkpt>
      <trkpt lat="48.47412" lon="7.13685">
        <ele>665</ele>
        <time>2009-05-24T09:49:00Z</time>
      </trkpt>
      <trkpt lat="48.47403" lon="7.13692">
        <ele>665</ele>
        <time>2009-05-24T09:49:09Z</time>
      </trkpt>
      <trkpt lat="48.47395" lon="7.137">
        <ele>665</ele>
        <time>2009-05-24T09:49:18Z</time>
      </trkpt>
      <trkpt lat="48.47387" lon="7.1371">
        <ele>665</ele>
        <time>2009-05-24T09:49:27Z</time>
      </trkpt>
      <trkpt lat="48.47379" lon="7.13716">
        <ele>665</ele>
        <time>2009-05-24T09:49:36Z</time>
      </trkpt>
      <trkpt lat="48.47371" lon="7.13726">
        <ele>665</ele>
        <time>2009-05-24T09:49:45Z</time>
      </trkpt>
      <trkpt lat="48.47363" lon="7.13734">
        <ele>659</ele>
        <time>2009-05-24T09:49:53Z</time>
      </trkpt>
      <trkpt lat="48.47353" lon="7.13739">
        <ele>659</ele>
        <time>2009-05-24T09:50:03Z</time>
      </trkpt>
      <trkpt lat="48.47353" lon="7.13754">
        <ele>651</ele>
        <time>2009-05-24T09:51:09Z</time>
      </trkpt>
      <trkpt lat="48.47353" lon="7.13739">
        <ele>660</ele>
        <time>2009-05-24T09:51:52Z</time>
      </trkpt>
      <trkpt lat="48.47346" lon="7.1373">
        <ele>660</ele>
        <time>2009-05-24T09:52:04Z</time>
      </trkpt>
      <trkpt lat="48.47338" lon="7.13721">
        <ele>660</ele>
        <time>2009-05-24T09:52:16Z</time>
      </trkpt>
      <trkpt lat="48.4733" lon="7.13712">
        <ele>660</ele>
        <time>2009-05-24T09:52:28Z</time>
      </trkpt>
      <trkpt lat="48.47321" lon="7.13707">
        <ele>666</ele>
        <time>2009-05-24T09:52:39Z</time>
      </trkpt>
      <trkpt lat="48.47313" lon="7.13698">
        <ele>666</ele>
        <time>2009-05-24T09:52:52Z</time>
      </trkpt>
      <trkpt lat="48.47306" lon="7.13688">
        <ele>666</ele>
        <time>2009-05-24T09:53:01Z</time>
      </trkpt>
      <trkpt lat="48.473" lon="7.13678">
        <ele>666</ele>
        <time>2009-05-24T09:53:09Z</time>
      </trkpt>
      <trkpt lat="48.47292" lon="7.13668">
        <ele>666</ele>
        <time>2009-05-24T09:53:15Z</time>
      </trkpt>
      <trkpt lat="48.47286" lon="7.13656">
        <ele>666</ele>
        <time>2009-05-24T09:53:22Z</time>
      </trkpt>
      <trkpt lat="48.4728" lon="7.13645">
        <ele>666</ele>
        <time>2009-05-24T09:53:32Z</time>
      </trkpt>
      <trkpt lat="48.47274" lon="7.13633">
        <ele>666</ele>
        <time>2009-05-24T09:53:39Z</time>
      </trkpt>
      <trkpt lat="48.47266" lon="7.13625">
        <ele>666</ele>
        <time>2009-05-24T09:53:47Z</time>
      </trkpt>
      <trkpt lat="48.47259" lon="7.13615">
        <ele>666</ele>
        <time>2009-05-24T09:53:55Z</time>
      </trkpt>
      <trkpt lat="48.47252" lon="7.13606">
        <ele>673</ele>
        <time>2009-05-24T09:54:05Z</time>
      </trkpt>
      <trkpt lat="48.47246" lon="7.13594">
        <ele>673</ele>
        <time>2009-05-24T09:54:13Z</time>
      </trkpt>
      <trkpt lat="48.47245" lon="7.13578">
        <ele>668</ele>
        <time>2009-05-24T09:54:21Z</time>
      </trkpt>
      <trkpt lat="48.47247" lon="7.13562">
        <ele>668</ele>
        <time>2009-05-24T09:54:27Z</time>
      </trkpt>
      <trkpt lat="48.4724" lon="7.1355">
        <ele>668</ele>
        <time>2009-05-24T09:54:37Z</time>
      </trkpt>
      <trkpt lat="48.47235" lon="7.13537">
        <ele>662</ele>
        <time>2009-05-24T09:54:45Z</time>
      </trkpt>
      <trkpt lat="48.47231" lon="7.13525">
        <ele>662</ele>
        <time>2009-05-24T09:54:55Z</time>
      </trkpt>
      <trkpt lat="48.47227" lon="7.13511">
        <ele>662</ele>
        <time>2009-05-24T09:55:03Z</time>
      </trkpt>
      <trkpt lat="48.47221" lon="7.135">
        <ele>662</ele>
        <time>2009-05-24T09:55:11Z</time>
      </trkpt>
      <trkpt lat="48.47212" lon="7.13493">
        <ele>662</ele>
        <time>2009-05-24T09:55:21Z</time>
      </trkpt>
      <trkpt lat="48.47205" lon="7.13483">
        <ele>671</ele>
        <time>2009-05-24T09:55:31Z</time>
      </trkpt>
      <trkpt lat="48.47201" lon="7.13471">
        <ele>671</ele>
        <time>2009-05-24T09:55:48Z</time>
      </trkpt>
      <trkpt lat="48.47196" lon="7.13457">
        <ele>671</ele>
        <time>2009-05-24T09:56:18Z</time>
      </trkpt>
      <trkpt lat="48.4719" lon="7.13446">
        <ele>661</ele>
        <time>2009-05-24T09:56:33Z</time>
      </trkpt>
      <trkpt lat="48.4718" lon="7.13443">
        <ele>661</ele>
        <time>2009-05-24T09:56:46Z</time>
      </trkpt>
      <trkpt lat="48.47172" lon="7.13437">
        <ele>661</ele>
        <time>2009-05-24T09:56:56Z</time>
      </trkpt>
      <trkpt lat="48.47162" lon="7.13436">
        <ele>667</ele>
        <time>2009-05-24T09:57:55Z</time>
      </trkpt>
      <trkpt lat="48.47154" lon="7.13428">
        <ele>667</ele>
        <time>2009-05-24T09:58:29Z</time>
      </trkpt>
      <trkpt lat="48.47149" lon="7.13415">
        <ele>667</ele>
        <time>2009-05-24T09:58:50Z</time>
      </trkpt>
      <trkpt lat="48.47143" lon="7.13404">
        <ele>656</ele>
        <time>2009-05-24T09:59:09Z</time>
      </trkpt>
      <trkpt lat="48.47134" lon="7.13398">
        <ele>656</ele>
        <time>2009-05-24T09:59:34Z</time>
      </trkpt>
      <trkpt lat="48.47131" lon="7.13385">
        <ele>646</ele>
        <time>2009-05-24T10:00:24Z</time>
      </trkpt>
      <trkpt lat="48.47122" lon="7.13379">
        <ele>646</ele>
        <time>2009-05-24T10:00:47Z</time>
      </trkpt>
      <trkpt lat="48.47112" lon="7.13376">
        <ele>659</ele>
        <time>2009-05-24T10:01:19Z</time>
      </trkpt>
      <trkpt lat="48.47103" lon="7.13381">
        <ele>659</ele>
        <time>2009-05-24T10:01:38Z</time>
      </trkpt>
      <trkpt lat="48.47092" lon="7.13384">
        <ele>659</ele>
        <time>2009-05-24T10:01:53Z</time>
      </trkpt>
      <trkpt lat="48.47083" lon="7.13386">
        <ele>659</ele>
        <time>2009-05-24T10:02:09Z</time>
      </trkpt>
      <trkpt lat="48.47074" lon="7.1339">
        <ele>659</ele>
        <time>2009-05-24T10:02:24Z</time>
      </trkpt>
      <trkpt lat="48.47068" lon="7.13401">
        <ele>659</ele>
        <time>2009-05-24T10:02:36Z</time>
      </trkpt>
      <trkpt lat="48.47066" lon="7.13414">
        <ele>649</ele>
        <time>2009-05-24T10:02:50Z</time>
      </trkpt>
      <trkpt lat="48.47057" lon="7.13407">
        <ele>637</ele>
        <time>2009-05-24T10:03:50Z</time>
      </trkpt>
      <trkpt lat="48.47047" lon="7.13403">
        <ele>637</ele>
        <time>2009-05-24T10:03:58Z</time>
      </trkpt>
      <trkpt lat="48.47038" lon="7.13397">
        <ele>637</ele>
        <time>2009-05-24T10:04:08Z</time>
      </trkpt>
      <trkpt lat="48.47028" lon="7.13394">
        <ele>637</ele>
        <time>2009-05-24T10:04:19Z</time>
      </trkpt>
      <trkpt lat="48.47018" lon="7.13391">
        <ele>629</ele>
        <time>2009-05-24T10:04:29Z</time>
      </trkpt>
      <trkpt lat="48.47009" lon="7.13386">
        <ele>623</ele>
        <time>2009-05-24T10:04:40Z</time>
      </trkpt>
      <trkpt lat="48.47" lon="7.13383">
        <ele>623</ele>
        <time>2009-05-24T10:04:47Z</time>
      </trkpt>
      <trkpt lat="48.4699" lon="7.13377">
        <ele>623</ele>
        <time>2009-05-24T10:04:55Z</time>
      </trkpt>
      <trkpt lat="48.46981" lon="7.13373">
        <ele>623</ele>
        <time>2009-05-24T10:05:02Z</time>
      </trkpt>
      <trkpt lat="48.46972" lon="7.13368">
        <ele>616</ele>
        <time>2009-05-24T10:05:13Z</time>
      </trkpt>
      <trkpt lat="48.46963" lon="7.13367">
        <ele>616</ele>
        <time>2009-05-24T10:05:23Z</time>
      </trkpt>
      <trkpt lat="48.46954" lon="7.13361">
        <ele>608</ele>
        <time>2009-05-24T10:05:40Z</time>
      </trkpt>
      <trkpt lat="48.46945" lon="7.13356">
        <ele>608</ele>
        <time>2009-05-24T10:07:00Z</time>
      </trkpt>
      <trkpt lat="48.46936" lon="7.13352">
        <ele>608</ele>
        <time>2009-05-24T10:07:14Z</time>
      </trkpt>
      <trkpt lat="48.46929" lon="7.13341">
        <ele>608</ele>
        <time>2009-05-24T10:07:24Z</time>
      </trkpt>
      <trkpt lat="48.46921" lon="7.13334">
        <ele>608</ele>
        <time>2009-05-24T10:07:34Z</time>
      </trkpt>
      <trkpt lat="48.46915" lon="7.13323">
        <ele>608</ele>
        <time>2009-05-24T10:07:42Z</time>
      </trkpt>
      <trkpt lat="48.4691" lon="7.1331">
        <ele>608</ele>
        <time>2009-05-24T10:07:51Z</time>
      </trkpt>
      <trkpt lat="48.46903" lon="7.13299">
        <ele>608</ele>
        <time>2009-05-24T10:08:02Z</time>
      </trkpt>
      <trkpt lat="48.46896" lon="7.13289">
        <ele>608</ele>
        <time>2009-05-24T10:08:12Z</time>
      </trkpt>
      <trkpt lat="48.46893" lon="7.13275">
        <ele>599</ele>
        <time>2009-05-24T10:08:22Z</time>
      </trkpt>
      <trkpt lat="48.46885" lon="7.13265">
        <ele>599</ele>
        <time>2009-05-24T10:08:32Z</time>
      </trkpt>
      <trkpt lat="48.4688" lon="7.13253">
        <ele>599</ele>
        <time>2009-05-24T10:08:44Z</time>
      </trkpt>
      <trkpt lat="48.46877" lon="7.13238">
        <ele>591</ele>
        <time>2009-05-24T10:08:53Z</time>
      </trkpt>
      <trkpt lat="48.46868" lon="7.13233">
        <ele>591</ele>
        <time>2009-05-24T10:09:23Z</time>
      </trkpt>
      <trkpt lat="48.46864" lon="7.13219">
        <ele>591</ele>
        <time>2009-05-24T10:10:02Z</time>
      </trkpt>
      <trkpt lat="48.46858" lon="7.13209">
        <ele>591</ele>
        <time>2009-05-24T10:10:21Z</time>
      </trkpt>
      <trkpt lat="48.46852" lon="7.13199">
        <ele>598</ele>
        <time>2009-05-24T10:10:36Z</time>
      </trkpt>
      <trkpt lat="48.46852" lon="7.13183">
        <ele>591</ele>
        <time>2009-05-24T10:10:44Z</time>
      </trkpt>
      <trkpt lat="48.46842" lon="7.13176">
        <ele>591</ele>
        <time>2009-05-24T10:10:52Z</time>
      </trkpt>
      <trkpt lat="48.46835" lon="7.13167">
        <ele>591</ele>
        <time>2009-05-24T10:10:59Z</time>
      </trkpt>
      <trkpt lat="48.46833" lon="7.13154">
        <ele>584</ele>
        <time>2009-05-24T10:11:09Z</time>
      </trkpt>
      <trkpt lat="48.4683" lon="7.1314">
        <ele>584</ele>
        <time>2009-05-24T10:11:25Z</time>
      </trkpt>
      <trkpt lat="48.46828" lon="7.13126">
        <ele>590</ele>
        <time>2009-05-24T10:11:35Z</time>
      </trkpt>
      <trkpt lat="48.46822" lon="7.13114">
        <ele>590</ele>
        <time>2009-05-24T10:11:43Z</time>
      </trkpt>
      <trkpt lat="48.46818" lon="7.13102">
        <ele>581</ele>
        <time>2009-05-24T10:11:51Z</time>
      </trkpt>
      <trkpt lat="48.4681" lon="7.13093">
        <ele>581</ele>
        <time>2009-05-24T10:12:00Z</time>
      </trkpt>
      <trkpt lat="48.46806" lon="7.1308">
        <ele>586</ele>
        <time>2009-05-24T10:12:15Z</time>
      </trkpt>
      <trkpt lat="48.46798" lon="7.1307">
        <ele>586</ele>
        <time>2009-05-24T10:12:26Z</time>
      </trkpt>
      <trkpt lat="48.4679" lon="7.13063">
        <ele>592</ele>
        <time>2009-05-24T10:12:40Z</time>
      </trkpt>
      <trkpt lat="48.4678" lon="7.13058">
        <ele>592</ele>
        <time>2009-05-24T10:12:50Z</time>
      </trkpt>
      <trkpt lat="48.46774" lon="7.13069">
        <ele>605</ele>
        <time>2009-05-24T10:13:41Z</time>
      </trkpt>
      <trkpt lat="48.46767" lon="7.1308">
        <ele>605</ele>
        <time>2009-05-24T10:13:52Z</time>
      </trkpt>
      <trkpt lat="48.46767" lon="7.13094">
        <ele>605</ele>
        <time>2009-05-24T10:14:02Z</time>
      </trkpt>
      <trkpt lat="48.46765" lon="7.13108">
        <ele>605</ele>
        <time>2009-05-24T10:14:15Z</time>
      </trkpt>
      <trkpt lat="48.46763" lon="7.13121">
        <ele>605</ele>
        <time>2009-05-24T10:14:26Z</time>
      </trkpt>
      <trkpt lat="48.4676" lon="7.13137">
        <ele>605</ele>
        <time>2009-05-24T10:14:36Z</time>
      </trkpt>
      <trkpt lat="48.4676" lon="7.13151">
        <ele>605</ele>
        <time>2009-05-24T10:14:46Z</time>
      </trkpt>
      <trkpt lat="48.46757" lon="7.13164">
        <ele>605</ele>
        <time>2009-05-24T10:15:00Z</time>
      </trkpt>
      <trkpt lat="48.46754" lon="7.13179">
        <ele>605</ele>
        <time>2009-05-24T10:15:12Z</time>
      </trkpt>
      <trkpt lat="48.46752" lon="7.13193">
        <ele>605</ele>
        <time>2009-05-24T10:15:23Z</time>
      </trkpt>
      <trkpt lat="48.46747" lon="7.13206">
        <ele>605</ele>
        <time>2009-05-24T10:15:38Z</time>
      </trkpt>
      <trkpt lat="48.46739" lon="7.13216">
        <ele>605</ele>
        <time>2009-05-24T10:15:43Z</time>
      </trkpt>
      <trkpt lat="48.4673" lon="7.13217">
        <ele>605</ele>
        <time>2009-05-24T10:15:54Z</time>
      </trkpt>
      <trkpt lat="48.46721" lon="7.13222">
        <ele>605</ele>
        <time>2009-05-24T10:16:05Z</time>
      </trkpt>
      <trkpt lat="48.46711" lon="7.13225">
        <ele>605</ele>
        <time>2009-05-24T10:16:15Z</time>
      </trkpt>
      <trkpt lat="48.46703" lon="7.13231">
        <ele>616</ele>
        <time>2009-05-24T10:16:25Z</time>
      </trkpt>
      <trkpt lat="48.46696" lon="7.1324">
        <ele>616</ele>
        <time>2009-05-24T10:16:42Z</time>
      </trkpt>
      <trkpt lat="48.46687" lon="7.13244">
        <ele>616</ele>
        <time>2009-05-24T10:16:57Z</time>
      </trkpt>
      <trkpt lat="48.46678" lon="7.13252">
        <ele>602</ele>
        <time>2009-05-24T10:17:06Z</time>
      </trkpt>
      <trkpt lat="48.4667" lon="7.1326">
        <ele>602</ele>
        <time>2009-05-24T10:17:16Z</time>
      </trkpt>
      <trkpt lat="48.46662" lon="7.13269">
        <ele>602</ele>
        <time>2009-05-24T10:17:27Z</time>
      </trkpt>
      <trkpt lat="48.46654" lon="7.13275">
        <ele>602</ele>
        <time>2009-05-24T10:17:40Z</time>
      </trkpt>
      <trkpt lat="48.46645" lon="7.1328">
        <ele>602</ele>
        <time>2009-05-24T10:18:02Z</time>
      </trkpt>
      <trkpt lat="48.46639" lon="7.13291">
        <ele>602</ele>
        <time>2009-05-24T10:18:12Z</time>
      </trkpt>
      <trkpt lat="48.46633" lon="7.13303">
        <ele>602</ele>
        <time>2009-05-24T10:19:03Z</time>
      </trkpt>
      <trkpt lat="48.46629" lon="7.13315">
        <ele>609</ele>
        <time>2009-05-24T10:19:14Z</time>
      </trkpt>
      <trkpt lat="48.46629" lon="7.13331">
        <ele>623</ele>
        <time>2009-05-24T10:19:25Z</time>
      </trkpt>
      <trkpt lat="48.46628" lon="7.13345">
        <ele>623</ele>
        <time>2009-05-24T10:19:33Z</time>
      </trkpt>
      <trkpt lat="48.46631" lon="7.13359">
        <ele>623</ele>
        <time>2009-05-24T10:19:41Z</time>
      </trkpt>
      <trkpt lat="48.4663" lon="7.13374">
        <ele>623</ele>
        <time>2009-05-24T10:19:49Z</time>
      </trkpt>
      <trkpt lat="48.46629" lon="7.13389">
        <ele>623</ele>
        <time>2009-05-24T10:19:57Z</time>
      </trkpt>
      <trkpt lat="48.46631" lon="7.13404">
        <ele>623</ele>
        <time>2009-05-24T10:20:05Z</time>
      </trkpt>
      <trkpt lat="48.4663" lon="7.1342">
        <ele>623</ele>
        <time>2009-05-24T10:20:13Z</time>
      </trkpt>
      <trkpt lat="48.46629" lon="7.13435">
        <ele>616</ele>
        <time>2009-05-24T10:20:21Z</time>
      </trkpt>
      <trkpt lat="48.46631" lon="7.1345">
        <ele>616</ele>
        <time>2009-05-24T10:20:29Z</time>
      </trkpt>
      <trkpt lat="48.46629" lon="7.13466">
        <ele>616</ele>
        <time>2009-05-24T10:20:37Z</time>
      </trkpt>
      <trkpt lat="48.46631" lon="7.13482">
        <ele>616</ele>
        <time>2009-05-24T10:20:44Z</time>
      </trkpt>
      <trkpt lat="48.46628" lon="7.13497">
        <ele>616</ele>
        <time>2009-05-24T10:20:51Z</time>
      </trkpt>
      <trkpt lat="48.4663" lon="7.13511">
        <ele>616</ele>
        <time>2009-05-24T10:21:00Z</time>
      </trkpt>
      <trkpt lat="48.46631" lon="7.13526">
        <ele>616</ele>
        <time>2009-05-24T10:21:07Z</time>
      </trkpt>
      <trkpt lat="48.46631" lon="7.13541">
        <ele>616</ele>
        <time>2009-05-24T10:21:16Z</time>
      </trkpt>
      <trkpt lat="48.46631" lon="7.13556">
        <ele>616</ele>
        <time>2009-05-24T10:21:24Z</time>
      </trkpt>
      <trkpt lat="48.46631" lon="7.13571">
        <ele>609</ele>
        <time>2009-05-24T10:21:31Z</time>
      </trkpt>
      <trkpt lat="48.46627" lon="7.13585">
        <ele>609</ele>
        <time>2009-05-24T10:21:39Z</time>
      </trkpt>
      <trkpt lat="48.46623" lon="7.13599">
        <ele>609</ele>
        <time>2009-05-24T10:21:47Z</time>
      </trkpt>
      <trkpt lat="48.46619" lon="7.13612">
        <ele>600</ele>
        <time>2009-05-24T10:21:54Z</time>
      </trkpt>
      <trkpt lat="48.46615" lon="7.13625">
        <ele>594</ele>
        <time>2009-05-24T10:22:02Z</time>
      </trkpt>
      <trkpt lat="48.46612" lon="7.13639">
        <ele>594</ele>
        <time>2009-05-24T10:22:10Z</time>
      </trkpt>
      <trkpt lat="48.46605" lon="7.1365">
        <ele>588</ele>
        <time>2009-05-24T10:22:17Z</time>
      </trkpt>
      <trkpt lat="48.46603" lon="7.13666">
        <ele>588</ele>
        <time>2009-05-24T10:22:26Z</time>
      </trkpt>
      <trkpt lat="48.466" lon="7.1368">
        <ele>588</ele>
        <time>2009-05-24T10:22:34Z</time>
      </trkpt>
      <trkpt lat="48.46597" lon="7.13694">
        <ele>595</ele>
        <time>2009-05-24T10:22:42Z</time>
      </trkpt>
      <trkpt lat="48.46594" lon="7.13707">
        <ele>595</ele>
        <time>2009-05-24T10:22:49Z</time>
      </trkpt>
      <trkpt lat="48.46594" lon="7.13722">
        <ele>605</ele>
        <time>2009-05-24T10:22:58Z</time>
      </trkpt>
      <trkpt lat="48.46603" lon="7.13727">
        <ele>599</ele>
        <time>2009-05-24T10:23:08Z</time>
      </trkpt>
      <trkpt lat="48.46613" lon="7.13724">
        <ele>606</ele>
        <time>2009-05-24T10:23:22Z</time>
      </trkpt>
      <trkpt lat="48.46607" lon="7.13736">
        <ele>606</ele>
        <time>2009-05-24T10:23:36Z</time>
      </trkpt>
      <trkpt lat="48.466" lon="7.13746">
        <ele>606</ele>
        <time>2009-05-24T10:23:43Z</time>
      </trkpt>
      <trkpt lat="48.46592" lon="7.13755">
        <ele>606</ele>
        <time>2009-05-24T10:23:50Z</time>
      </trkpt>
      <trkpt lat="48.4659" lon="7.13769">
        <ele>606</ele>
        <time>2009-05-24T10:23:59Z</time>
      </trkpt>
      <trkpt lat="48.46588" lon="7.13783">
        <ele>612</ele>
        <time>2009-05-24T10:24:06Z</time>
      </trkpt>
      <trkpt lat="48.46586" lon="7.13797">
        <ele>612</ele>
        <time>2009-05-24T10:24:14Z</time>
      </trkpt>
      <trkpt lat="48.46586" lon="7.13812">
        <ele>600</ele>
        <time>2009-05-24T10:24:23Z</time>
      </trkpt>
      <trkpt lat="48.46582" lon="7.13827">
        <ele>600</ele>
        <time>2009-05-24T10:24:30Z</time>
      </trkpt>
      <trkpt lat="48.46585" lon="7.13842">
        <ele>600</ele>
        <time>2009-05-24T10:24:36Z</time>
      </trkpt>
      <trkpt lat="48.46585" lon="7.13858">
        <ele>600</ele>
        <time>2009-05-24T10:24:44Z</time>
      </trkpt>
      <trkpt lat="48.46585" lon="7.13873">
        <ele>600</ele>
        <time>2009-05-24T10:24:51Z</time>
      </trkpt>
      <trkpt lat="48.46586" lon="7.13889">
        <ele>600</ele>
        <time>2009-05-24T10:24:59Z</time>
      </trkpt>
      <trkpt lat="48.46589" lon="7.13904">
        <ele>600</ele>
        <time>2009-05-24T10:25:07Z</time>
      </trkpt>
      <trkpt lat="48.46595" lon="7.13915">
        <ele>595</ele>
        <time>2009-05-24T10:25:13Z</time>
      </trkpt>
      <trkpt lat="48.46588" lon="7.13926">
        <ele>595</ele>
        <time>2009-05-24T10:25:23Z</time>
      </trkpt>
      <trkpt lat="48.46582" lon="7.13936">
        <ele>583</ele>
        <time>2009-05-24T10:25:36Z</time>
      </trkpt>
      <trkpt lat="48.46574" lon="7.13944">
        <ele>583</ele>
        <time>2009-05-24T10:25:45Z</time>
      </trkpt>
      <trkpt lat="48.46564" lon="7.13948">
        <ele>583</ele>
        <time>2009-05-24T10:25:56Z</time>
      </trkpt>
      <trkpt lat="48.46554" lon="7.13949">
        <ele>575</ele>
        <time>2009-05-24T10:26:04Z</time>
      </trkpt>
      <trkpt lat="48.46544" lon="7.13952">
        <ele>568</ele>
        <time>2009-05-24T10:26:12Z</time>
      </trkpt>
      <trkpt lat="48.46534" lon="7.13951">
        <ele>568</ele>
        <time>2009-05-24T10:26:20Z</time>
      </trkpt>
      <trkpt lat="48.46525" lon="7.13952">
        <ele>575</ele>
        <time>2009-05-24T10:26:28Z</time>
      </trkpt>
      <trkpt lat="48.46514" lon="7.1395">
        <ele>575</ele>
        <time>2009-05-24T10:26:35Z</time>
      </trkpt>
      <trkpt lat="48.46504" lon="7.13952">
        <ele>575</ele>
        <time>2009-05-24T10:26:40Z</time>
      </trkpt>
      <trkpt lat="48.46496" lon="7.13944">
        <ele>575</ele>
        <time>2009-05-24T10:26:49Z</time>
      </trkpt>
      <trkpt lat="48.46487" lon="7.13937">
        <ele>568</ele>
        <time>2009-05-24T10:26:57Z</time>
      </trkpt>
      <trkpt lat="48.46481" lon="7.13924">
        <ele>559</ele>
        <time>2009-05-24T10:27:04Z</time>
      </trkpt>
      <trkpt lat="48.46474" lon="7.13915">
        <ele>559</ele>
        <time>2009-05-24T10:27:13Z</time>
      </trkpt>
      <trkpt lat="48.46465" lon="7.1391">
        <ele>559</ele>
        <time>2009-05-24T10:27:20Z</time>
      </trkpt>
      <trkpt lat="48.46456" lon="7.13906">
        <ele>559</ele>
        <time>2009-05-24T10:27:28Z</time>
      </trkpt>
      <trkpt lat="48.46446" lon="7.13898">
        <ele>559</ele>
        <time>2009-05-24T10:27:35Z</time>
      </trkpt>
      <trkpt lat="48.46438" lon="7.1389">
        <ele>559</ele>
        <time>2009-05-24T10:27:43Z</time>
      </trkpt>
      <trkpt lat="48.46428" lon="7.13886">
        <ele>559</ele>
        <time>2009-05-24T10:27:53Z</time>
      </trkpt>
      <trkpt lat="48.46418" lon="7.13881">
        <ele>565</ele>
        <time>2009-05-24T10:28:01Z</time>
      </trkpt>
      <trkpt lat="48.46408" lon="7.1388">
        <ele>565</ele>
        <time>2009-05-24T10:28:10Z</time>
      </trkpt>
      <trkpt lat="48.46398" lon="7.13881">
        <ele>565</ele>
        <time>2009-05-24T10:28:17Z</time>
      </trkpt>
      <trkpt lat="48.46388" lon="7.13881">
        <ele>565</ele>
        <time>2009-05-24T10:28:24Z</time>
      </trkpt>
      <trkpt lat="48.46379" lon="7.13878">
        <ele>565</ele>
        <time>2009-05-24T10:28:32Z</time>
      </trkpt>
      <trkpt lat="48.46369" lon="7.13879">
        <ele>565</ele>
        <time>2009-05-24T10:28:40Z</time>
      </trkpt>
      <trkpt lat="48.46359" lon="7.13876">
        <ele>565</ele>
        <time>2009-05-24T10:28:48Z</time>
      </trkpt>
      <trkpt lat="48.46349" lon="7.13876">
        <ele>556</ele>
        <time>2009-05-24T10:28:56Z</time>
      </trkpt>
      <trkpt lat="48.46342" lon="7.13867">
        <ele>550</ele>
        <time>2009-05-24T10:29:07Z</time>
      </trkpt>
      <trkpt lat="48.46333" lon="7.13862">
        <ele>550</ele>
        <time>2009-05-24T10:29:15Z</time>
      </trkpt>
      <trkpt lat="48.46324" lon="7.13859">
        <ele>550</ele>
        <time>2009-05-24T10:29:30Z</time>
      </trkpt>
      <trkpt lat="48.46315" lon="7.13854">
        <ele>550</ele>
        <time>2009-05-24T10:29:39Z</time>
      </trkpt>
      <trkpt lat="48.46306" lon="7.13858">
        <ele>550</ele>
        <time>2009-05-24T10:29:45Z</time>
      </trkpt>
      <trkpt lat="48.46296" lon="7.13865">
        <ele>550</ele>
        <time>2009-05-24T10:29:54Z</time>
      </trkpt>
      <trkpt lat="48.46287" lon="7.13871">
        <ele>550</ele>
        <time>2009-05-24T10:30:05Z</time>
      </trkpt>
      <trkpt lat="48.4628" lon="7.1388">
        <ele>550</ele>
        <time>2009-05-24T10:30:16Z</time>
      </trkpt>
      <trkpt lat="48.46272" lon="7.13889">
        <ele>550</ele>
        <time>2009-05-24T10:30:26Z</time>
      </trkpt>
      <trkpt lat="48.46264" lon="7.13895">
        <ele>550</ele>
        <time>2009-05-24T10:30:40Z</time>
      </trkpt>
      <trkpt lat="48.46256" lon="7.13905">
        <ele>550</ele>
        <time>2009-05-24T10:30:50Z</time>
      </trkpt>
      <trkpt lat="48.46246" lon="7.13906">
        <ele>538</ele>
        <time>2009-05-24T10:31:04Z</time>
      </trkpt>
      <trkpt lat="48.46238" lon="7.13911">
        <ele>538</ele>
        <time>2009-05-24T10:31:14Z</time>
      </trkpt>
      <trkpt lat="48.46227" lon="7.13911">
        <ele>538</ele>
        <time>2009-05-24T10:31:29Z</time>
      </trkpt>
      <trkpt lat="48.46219" lon="7.13917">
        <ele>533</ele>
        <time>2009-05-24T10:31:45Z</time>
      </trkpt>
      <trkpt lat="48.46221" lon="7.13931">
        <ele>527</ele>
        <time>2009-05-24T10:32:44Z</time>
      </trkpt>
      <trkpt lat="48.46229" lon="7.13922">
        <ele>527</ele>
        <time>2009-05-24T10:33:04Z</time>
      </trkpt>
      <trkpt lat="48.4622" lon="7.13926">
        <ele>540</ele>
        <time>2009-05-24T10:33:18Z</time>
      </trkpt>
      <trkpt lat="48.46214" lon="7.13938">
        <ele>582</ele>
        <time>2009-05-24T10:33:40Z</time>
      </trkpt>
      <trkpt lat="48.46212" lon="7.13952">
        <ele>570</ele>
        <time>2009-05-24T10:33:54Z</time>
      </trkpt>
      <trkpt lat="48.46212" lon="7.13968">
        <ele>565</ele>
        <time>2009-05-24T10:34:06Z</time>
      </trkpt>
      <trkpt lat="48.46214" lon="7.13981">
        <ele>554</ele>
        <time>2009-05-24T10:34:16Z</time>
      </trkpt>
      <trkpt lat="48.4622" lon="7.13993">
        <ele>548</ele>
        <time>2009-05-24T10:34:28Z</time>
      </trkpt>
      <trkpt lat="48.46215" lon="7.14005">
        <ele>548</ele>
        <time>2009-05-24T10:34:47Z</time>
      </trkpt>
      <trkpt lat="48.46205" lon="7.1401">
        <ele>548</ele>
        <time>2009-05-24T10:35:04Z</time>
      </trkpt>
      <trkpt lat="48.46195" lon="7.14012">
        <ele>548</ele>
        <time>2009-05-24T10:35:16Z</time>
      </trkpt>
      <trkpt lat="48.46186" lon="7.14016">
        <ele>540</ele>
        <time>2009-05-24T10:35:24Z</time>
      </trkpt>
      <trkpt lat="48.46182" lon="7.14029">
        <ele>545</ele>
        <time>2009-05-24T10:36:51Z</time>
      </trkpt>
      <trkpt lat="48.46189" lon="7.14018">
        <ele>545</ele>
        <time>2009-05-24T10:37:31Z</time>
      </trkpt>
      <trkpt lat="48.46182" lon="7.14029">
        <ele>554</ele>
        <time>2009-05-24T10:37:45Z</time>
      </trkpt>
      <trkpt lat="48.46173" lon="7.14036">
        <ele>554</ele>
        <time>2009-05-24T10:37:55Z</time>
      </trkpt>
      <trkpt lat="48.4618" lon="7.14046">
        <ele>574</ele>
        <time>2009-05-24T10:38:37Z</time>
      </trkpt>
      <trkpt lat="48.46171" lon="7.14052">
        <ele>590</ele>
        <time>2009-05-24T10:38:54Z</time>
      </trkpt>
      <trkpt lat="48.46162" lon="7.14056">
        <ele>590</ele>
        <time>2009-05-24T10:39:03Z</time>
      </trkpt>
      <trkpt lat="48.46152" lon="7.14056">
        <ele>577</ele>
        <time>2009-05-24T10:39:15Z</time>
      </trkpt>
      <trkpt lat="48.46143" lon="7.14059">
        <ele>577</ele>
        <time>2009-05-24T10:39:24Z</time>
      </trkpt>
      <trkpt lat="48.46133" lon="7.14062">
        <ele>577</ele>
        <time>2009-05-24T10:39:34Z</time>
      </trkpt>
      <trkpt lat="48.46124" lon="7.14066">
        <ele>577</ele>
        <time>2009-05-24T10:39:44Z</time>
      </trkpt>
      <trkpt lat="48.46115" lon="7.1407">
        <ele>577</ele>
        <time>2009-05-24T10:39:53Z</time>
      </trkpt>
      <trkpt lat="48.46107" lon="7.14076">
        <ele>577</ele>
        <time>2009-05-24T10:40:03Z</time>
      </trkpt>
      <trkpt lat="48.46098" lon="7.14081">
        <ele>571</ele>
        <time>2009-05-24T10:40:30Z</time>
      </trkpt>
      <trkpt lat="48.46089" lon="7.14087">
        <ele>571</ele>
        <time>2009-05-24T10:40:41Z</time>
      </trkpt>
      <trkpt lat="48.4608" lon="7.14096">
        <ele>571</ele>
        <time>2009-05-24T10:40:52Z</time>
      </trkpt>
      <trkpt lat="48.46071" lon="7.14102">
        <ele>578</ele>
        <time>2009-05-24T10:41:03Z</time>
      </trkpt>
      <trkpt lat="48.46063" lon="7.14109">
        <ele>578</ele>
        <time>2009-05-24T10:41:12Z</time>
      </trkpt>
      <trkpt lat="48.46055" lon="7.14116">
        <ele>578</ele>
        <time>2009-05-24T10:41:22Z</time>
      </trkpt>
      <trkpt lat="48.46046" lon="7.14124">
        <ele>578</ele>
        <time>2009-05-24T10:41:32Z</time>
      </trkpt>
      <trkpt lat="48.46039" lon="7.14133">
        <ele>584</ele>
        <time>2009-05-24T10:41:42Z</time>
      </trkpt>
      <trkpt lat="48.46031" lon="7.14143">
        <ele>584</ele>
        <time>2009-05-24T10:41:56Z</time>
      </trkpt>
      <trkpt lat="48.46022" lon="7.1415">
        <ele>584</ele>
        <time>2009-05-24T10:42:12Z</time>
      </trkpt>
      <trkpt lat="48.46014" lon="7.14157">
        <ele>584</ele>
        <time>2009-05-24T10:42:24Z</time>
      </trkpt>
      <trkpt lat="48.46005" lon="7.14161">
        <ele>584</ele>
        <time>2009-05-24T10:42:38Z</time>
      </trkpt>
      <trkpt lat="48.45999" lon="7.14171">
        <ele>584</ele>
        <time>2009-05-24T10:43:12Z</time>
      </trkpt>
      <trkpt lat="48.45989" lon="7.14172">
        <ele>584</ele>
        <time>2009-05-24T10:43:23Z</time>
      </trkpt>
      <trkpt lat="48.45979" lon="7.14171">
        <ele>584</ele>
        <time>2009-05-24T10:43:39Z</time>
      </trkpt>
      <trkpt lat="48.4597" lon="7.14168">
        <ele>584</ele>
        <time>2009-05-24T10:43:59Z</time>
      </trkpt>
      <trkpt lat="48.45961" lon="7.14171">
        <ele>584</ele>
        <time>2009-05-24T10:44:16Z</time>
      </trkpt>
      <trkpt lat="48.45952" lon="7.14171">
        <ele>576</ele>
        <time>2009-05-24T10:45:20Z</time>
      </trkpt>
      <trkpt lat="48.45942" lon="7.14171">
        <ele>576</ele>
        <time>2009-05-24T10:45:30Z</time>
      </trkpt>
      <trkpt lat="48.45933" lon="7.14171">
        <ele>584</ele>
        <time>2009-05-24T10:45:43Z</time>
      </trkpt>
      <trkpt lat="48.45923" lon="7.14171">
        <ele>594</ele>
        <time>2009-05-24T10:45:54Z</time>
      </trkpt>
      <trkpt lat="48.45913" lon="7.14171">
        <ele>584</ele>
        <time>2009-05-24T10:46:05Z</time>
      </trkpt>
      <trkpt lat="48.45904" lon="7.14175">
        <ele>584</ele>
        <time>2009-05-24T10:46:14Z</time>
      </trkpt>
      <trkpt lat="48.45895" lon="7.1418">
        <ele>584</ele>
        <time>2009-05-24T10:46:23Z</time>
      </trkpt>
      <trkpt lat="48.45886" lon="7.14187">
        <ele>584</ele>
        <time>2009-05-24T10:46:32Z</time>
      </trkpt>
      <trkpt lat="48.45878" lon="7.14195">
        <ele>584</ele>
        <time>2009-05-24T10:46:44Z</time>
      </trkpt>
      <trkpt lat="48.45871" lon="7.14203">
        <ele>584</ele>
        <time>2009-05-24T10:46:53Z</time>
      </trkpt>
      <trkpt lat="48.45863" lon="7.14212">
        <ele>584</ele>
        <time>2009-05-24T10:47:17Z</time>
      </trkpt>
      <trkpt lat="48.45857" lon="7.14222">
        <ele>590</ele>
        <time>2009-05-24T10:47:36Z</time>
      </trkpt>
      <trkpt lat="48.45851" lon="7.14233">
        <ele>595</ele>
        <time>2009-05-24T10:48:03Z</time>
      </trkpt>
      <trkpt lat="48.45843" lon="7.14242">
        <ele>595</ele>
        <time>2009-05-24T10:48:15Z</time>
      </trkpt>
      <trkpt lat="48.45835" lon="7.14251">
        <ele>603</ele>
        <time>2009-05-24T10:48:27Z</time>
      </trkpt>
      <trkpt lat="48.45826" lon="7.14258">
        <ele>603</ele>
        <time>2009-05-24T10:48:38Z</time>
      </trkpt>
      <trkpt lat="48.45817" lon="7.14265">
        <ele>603</ele>
        <time>2009-05-24T10:48:48Z</time>
      </trkpt>
      <trkpt lat="48.45809" lon="7.14272">
        <ele>603</ele>
        <time>2009-05-24T10:49:04Z</time>
      </trkpt>
      <trkpt lat="48.45803" lon="7.14283">
        <ele>613</ele>
        <time>2009-05-24T10:49:17Z</time>
      </trkpt>
      <trkpt lat="48.45794" lon="7.1429">
        <ele>613</ele>
        <time>2009-05-24T10:49:27Z</time>
      </trkpt>
      <trkpt lat="48.45786" lon="7.14299">
        <ele>613</ele>
        <time>2009-05-24T10:49:37Z</time>
      </trkpt>
      <trkpt lat="48.45777" lon="7.14306">
        <ele>613</ele>
        <time>2009-05-24T10:49:45Z</time>
      </trkpt>
      <trkpt lat="48.45768" lon="7.14312">
        <ele>613</ele>
        <time>2009-05-24T10:49:52Z</time>
      </trkpt>
      <trkpt lat="48.45759" lon="7.14319">
        <ele>613</ele>
        <time>2009-05-24T10:49:59Z</time>
      </trkpt>
      <trkpt lat="48.45752" lon="7.1433">
        <ele>613</ele>
        <time>2009-05-24T10:50:08Z</time>
      </trkpt>
      <trkpt lat="48.45746" lon="7.1434">
        <ele>624</ele>
        <time>2009-05-24T10:50:16Z</time>
      </trkpt>
      <trkpt lat="48.45743" lon="7.14354">
        <ele>630</ele>
        <time>2009-05-24T10:50:24Z</time>
      </trkpt>
      <trkpt lat="48.45739" lon="7.14366">
        <ele>635</ele>
        <time>2009-05-24T10:50:33Z</time>
      </trkpt>
      <trkpt lat="48.45737" lon="7.14381">
        <ele>635</ele>
        <time>2009-05-24T10:50:42Z</time>
      </trkpt>
      <trkpt lat="48.4573" lon="7.14392">
        <ele>635</ele>
        <time>2009-05-24T10:50:50Z</time>
      </trkpt>
      <trkpt lat="48.45723" lon="7.14404">
        <ele>630</ele>
        <time>2009-05-24T10:50:59Z</time>
      </trkpt>
      <trkpt lat="48.45717" lon="7.14417">
        <ele>630</ele>
        <time>2009-05-24T10:51:09Z</time>
      </trkpt>
      <trkpt lat="48.4571" lon="7.14428">
        <ele>637</ele>
        <time>2009-05-24T10:51:21Z</time>
      </trkpt>
      <trkpt lat="48.45704" lon="7.1444">
        <ele>637</ele>
        <time>2009-05-24T10:51:30Z</time>
      </trkpt>
      <trkpt lat="48.457" lon="7.14453">
        <ele>630</ele>
        <time>2009-05-24T10:51:41Z</time>
      </trkpt>
      <trkpt lat="48.45694" lon="7.14465">
        <ele>630</ele>
        <time>2009-05-24T10:51:56Z</time>
      </trkpt>
      <trkpt lat="48.45688" lon="7.14476">
        <ele>640</ele>
        <time>2009-05-24T10:52:06Z</time>
      </trkpt>
      <trkpt lat="48.45685" lon="7.14489">
        <ele>646</ele>
        <time>2009-05-24T10:52:16Z</time>
      </trkpt>
      <trkpt lat="48.45683" lon="7.14504">
        <ele>646</ele>
        <time>2009-05-24T10:52:25Z</time>
      </trkpt>
      <trkpt lat="48.45681" lon="7.14518">
        <ele>646</ele>
        <time>2009-05-24T10:52:32Z</time>
      </trkpt>
      <trkpt lat="48.45675" lon="7.1453">
        <ele>653</ele>
        <time>2009-05-24T10:52:41Z</time>
      </trkpt>
      <trkpt lat="48.45669" lon="7.14542">
        <ele>653</ele>
        <time>2009-05-24T10:52:50Z</time>
      </trkpt>
      <trkpt lat="48.45663" lon="7.14553">
        <ele>640</ele>
        <time>2009-05-24T10:53:11Z</time>
      </trkpt>
      <trkpt lat="48.4566" lon="7.14567">
        <ele>640</ele>
        <time>2009-05-24T10:54:19Z</time>
      </trkpt>
      <trkpt lat="48.45657" lon="7.1458">
        <ele>640</ele>
        <time>2009-05-24T10:54:27Z</time>
      </trkpt>
      <trkpt lat="48.45651" lon="7.14592">
        <ele>640</ele>
        <time>2009-05-24T10:54:35Z</time>
      </trkpt>
      <trkpt lat="48.45647" lon="7.14604">
        <ele>640</ele>
        <time>2009-05-24T10:54:42Z</time>
      </trkpt>
      <trkpt lat="48.45645" lon="7.1462">
        <ele>648</ele>
        <time>2009-05-24T10:54:51Z</time>
      </trkpt>
      <trkpt lat="48.45643" lon="7.14634">
        <ele>655</ele>
        <time>2009-05-24T10:55:00Z</time>
      </trkpt>
      <trkpt lat="48.45639" lon="7.14647">
        <ele>655</ele>
        <time>2009-05-24T10:55:08Z</time>
      </trkpt>
      <trkpt lat="48.45636" lon="7.1466">
        <ele>655</ele>
        <time>2009-05-24T10:55:16Z</time>
      </trkpt>
      <trkpt lat="48.45633" lon="7.14674">
        <ele>655</ele>
        <time>2009-05-24T10:55:25Z</time>
      </trkpt>
      <trkpt lat="48.4563" lon="7.14687">
        <ele>655</ele>
        <time>2009-05-24T10:55:33Z</time>
      </trkpt>
      <trkpt lat="48.45625" lon="7.14701">
        <ele>655</ele>
        <time>2009-05-24T10:55:40Z</time>
      </trkpt>
      <trkpt lat="48.45618" lon="7.14711">
        <ele>664</ele>
        <time>2009-05-24T10:56:10Z</time>
      </trkpt>
      <trkpt lat="48.4561" lon="7.14723">
        <ele>664</ele>
        <time>2009-05-24T10:56:19Z</time>
      </trkpt>
      <trkpt lat="48.45603" lon="7.14735">
        <ele>664</ele>
        <time>2009-05-24T10:56:26Z</time>
      </trkpt>
      <trkpt lat="48.45595" lon="7.14744">
        <ele>669</ele>
        <time>2009-05-24T10:56:34Z</time>
      </trkpt>
      <trkpt lat="48.45588" lon="7.14754">
        <ele>669</ele>
        <time>2009-05-24T10:56:41Z</time>
      </trkpt>
      <trkpt lat="48.4558" lon="7.14764">
        <ele>662</ele>
        <time>2009-05-24T10:56:50Z</time>
      </trkpt>
      <trkpt lat="48.45573" lon="7.14776">
        <ele>668</ele>
        <time>2009-05-24T10:57:00Z</time>
      </trkpt>
      <trkpt lat="48.45565" lon="7.14784">
        <ele>668</ele>
        <time>2009-05-24T10:57:08Z</time>
      </trkpt>
      <trkpt lat="48.45558" lon="7.14793">
        <ele>668</ele>
        <time>2009-05-24T10:57:15Z</time>
      </trkpt>
      <trkpt lat="48.45552" lon="7.14803">
        <ele>668</ele>
        <time>2009-05-24T10:57:21Z</time>
      </trkpt>
      <trkpt lat="48.45544" lon="7.14812">
        <ele>660</ele>
        <time>2009-05-24T10:57:27Z</time>
      </trkpt>
      <trkpt lat="48.45537" lon="7.14823">
        <ele>660</ele>
        <time>2009-05-24T10:57:38Z</time>
      </trkpt>
      <trkpt lat="48.45529" lon="7.14831">
        <ele>654</ele>
        <time>2009-05-24T10:57:46Z</time>
      </trkpt>
      <trkpt lat="48.45521" lon="7.14837">
        <ele>654</ele>
        <time>2009-05-24T10:58:03Z</time>
      </trkpt>
      <trkpt lat="48.45512" lon="7.14844">
        <ele>654</ele>
        <time>2009-05-24T10:58:39Z</time>
      </trkpt>
      <trkpt lat="48.45504" lon="7.14852">
        <ele>648</ele>
        <time>2009-05-24T10:58:51Z</time>
      </trkpt>
      <trkpt lat="48.45498" lon="7.1484">
        <ele>648</ele>
        <time>2009-05-24T10:59:48Z</time>
      </trkpt>
      <trkpt lat="48.45489" lon="7.14834">
        <ele>648</ele>
        <time>2009-05-24T11:00:00Z</time>
      </trkpt>
      <trkpt lat="48.4548" lon="7.14828">
        <ele>648</ele>
        <time>2009-05-24T11:00:10Z</time>
      </trkpt>
      <trkpt lat="48.45472" lon="7.14822">
        <ele>643</ele>
        <time>2009-05-24T11:00:19Z</time>
      </trkpt>
      <trkpt lat="48.45464" lon="7.14815">
        <ele>654</ele>
        <time>2009-05-24T11:01:01Z</time>
      </trkpt>
      <trkpt lat="48.45461" lon="7.14801">
        <ele>654</ele>
        <time>2009-05-24T11:01:11Z</time>
      </trkpt>
      <trkpt lat="48.45454" lon="7.14792">
        <ele>647</ele>
        <time>2009-05-24T11:01:18Z</time>
      </trkpt>
      <trkpt lat="48.45445" lon="7.14788">
        <ele>640</ele>
        <time>2009-05-24T11:01:25Z</time>
      </trkpt>
      <trkpt lat="48.45437" lon="7.14778">
        <ele>640</ele>
        <time>2009-05-24T11:01:35Z</time>
      </trkpt>
      <trkpt lat="48.45433" lon="7.14765">
        <ele>640</ele>
        <time>2009-05-24T11:01:43Z</time>
      </trkpt>
      <trkpt lat="48.45426" lon="7.14755">
        <ele>647</ele>
        <time>2009-05-24T11:01:53Z</time>
      </trkpt>
      <trkpt lat="48.45423" lon="7.14742">
        <ele>647</ele>
        <time>2009-05-24T11:02:03Z</time>
      </trkpt>
      <trkpt lat="48.45424" lon="7.14728">
        <ele>647</ele>
        <time>2009-05-24T11:02:11Z</time>
      </trkpt>
      <trkpt lat="48.45421" lon="7.14714">
        <ele>656</ele>
        <time>2009-05-24T11:02:24Z</time>
      </trkpt>
      <trkpt lat="48.45414" lon="7.14703">
        <ele>656</ele>
        <time>2009-05-24T11:02:32Z</time>
      </trkpt>
      <trkpt lat="48.45411" lon="7.1469">
        <ele>650</ele>
        <time>2009-05-24T11:02:40Z</time>
      </trkpt>
      <trkpt lat="48.45403" lon="7.1468">
        <ele>650</ele>
        <time>2009-05-24T11:02:50Z</time>
      </trkpt>
      <trkpt lat="48.45397" lon="7.14668">
        <ele>650</ele>
        <time>2009-05-24T11:02:59Z</time>
      </trkpt>
      <trkpt lat="48.45394" lon="7.14655">
        <ele>655</ele>
        <time>2009-05-24T11:03:09Z</time>
      </trkpt>
      <trkpt lat="48.45387" lon="7.14644">
        <ele>655</ele>
        <time>2009-05-24T11:03:17Z</time>
      </trkpt>
      <trkpt lat="48.45381" lon="7.14632">
        <ele>655</ele>
        <time>2009-05-24T11:03:28Z</time>
      </trkpt>
      <trkpt lat="48.45374" lon="7.14623">
        <ele>655</ele>
        <time>2009-05-24T11:03:40Z</time>
      </trkpt>
      <trkpt lat="48.45383" lon="7.14617">
        <ele>668</ele>
        <time>2009-05-24T11:03:55Z</time>
      </trkpt>
      <trkpt lat="48.45384" lon="7.14602">
        <ele>673</ele>
        <time>2009-05-24T11:04:38Z</time>
      </trkpt>
      <trkpt lat="48.4538" lon="7.14588">
        <ele>673</ele>
        <time>2009-05-24T11:04:50Z</time>
      </trkpt>
      <trkpt lat="48.4538" lon="7.14574">
        <ele>663</ele>
        <time>2009-05-24T11:04:57Z</time>
      </trkpt>
      <trkpt lat="48.45381" lon="7.14559">
        <ele>663</ele>
        <time>2009-05-24T11:05:06Z</time>
      </trkpt>
      <trkpt lat="48.45375" lon="7.14546">
        <ele>663</ele>
        <time>2009-05-24T11:05:15Z</time>
      </trkpt>
      <trkpt lat="48.45371" lon="7.14534">
        <ele>663</ele>
        <time>2009-05-24T11:05:23Z</time>
      </trkpt>
      <trkpt lat="48.45363" lon="7.14525">
        <ele>663</ele>
        <time>2009-05-24T11:05:31Z</time>
      </trkpt>
      <trkpt lat="48.45358" lon="7.14513">
        <ele>663</ele>
        <time>2009-05-24T11:05:45Z</time>
      </trkpt>
      <trkpt lat="48.4535" lon="7.14506">
        <ele>673</ele>
        <time>2009-05-24T11:05:55Z</time>
      </trkpt>
      <trkpt lat="48.45342" lon="7.14497">
        <ele>673</ele>
        <time>2009-05-24T11:06:06Z</time>
      </trkpt>
      <trkpt lat="48.45334" lon="7.14488">
        <ele>679</ele>
        <time>2009-05-24T11:06:18Z</time>
      </trkpt>
      <trkpt lat="48.45333" lon="7.14472">
        <ele>679</ele>
        <time>2009-05-24T11:06:28Z</time>
      </trkpt>
      <trkpt lat="48.45327" lon="7.14462">
        <ele>679</ele>
        <time>2009-05-24T11:06:41Z</time>
      </trkpt>
      <trkpt lat="48.45323" lon="7.14448">
        <ele>686</ele>
        <time>2009-05-24T11:06:50Z</time>
      </trkpt>
      <trkpt lat="48.45317" lon="7.14438">
        <ele>686</ele>
        <time>2009-05-24T11:07:03Z</time>
      </trkpt>
      <trkpt lat="48.45313" lon="7.14425">
        <ele>686</ele>
        <time>2009-05-24T11:07:18Z</time>
      </trkpt>
      <trkpt lat="48.45322" lon="7.1443">
        <ele>703</ele>
        <time>2009-05-24T11:07:46Z</time>
      </trkpt>
      <trkpt lat="48.45331" lon="7.14428">
        <ele>703</ele>
        <time>2009-05-24T11:08:02Z</time>
      </trkpt>
      <trkpt lat="48.45338" lon="7.14419">
        <ele>703</ele>
        <time>2009-05-24T11:08:05Z</time>
      </trkpt>
      <trkpt lat="48.45338" lon="7.14404">
        <ele>692</ele>
        <time>2009-05-24T11:08:21Z</time>
      </trkpt>
      <trkpt lat="48.45332" lon="7.14393">
        <ele>692</ele>
        <time>2009-05-24T11:08:30Z</time>
      </trkpt>
      <trkpt lat="48.45324" lon="7.14384">
        <ele>701</ele>
        <time>2009-05-24T11:08:42Z</time>
      </trkpt>
      <trkpt lat="48.45322" lon="7.14371">
        <ele>701</ele>
        <time>2009-05-24T11:08:56Z</time>
      </trkpt>
      <trkpt lat="48.45315" lon="7.14359">
        <ele>701</ele>
        <time>2009-05-24T11:09:09Z</time>
      </trkpt>
      <trkpt lat="48.45309" lon="7.14348">
        <ele>701</ele>
        <time>2009-05-24T11:09:24Z</time>
      </trkpt>
      <trkpt lat="48.45302" lon="7.14339">
        <ele>701</ele>
        <time>2009-05-24T11:09:33Z</time>
      </trkpt>
      <trkpt lat="48.45296" lon="7.14328">
        <ele>701</ele>
        <time>2009-05-24T11:09:44Z</time>
      </trkpt>
      <trkpt lat="48.45293" lon="7.14314">
        <ele>716</ele>
        <time>2009-05-24T11:09:58Z</time>
      </trkpt>
      <trkpt lat="48.45289" lon="7.143">
        <ele>722</ele>
        <time>2009-05-24T11:10:11Z</time>
      </trkpt>
      <trkpt lat="48.45282" lon="7.14291">
        <ele>722</ele>
        <time>2009-05-24T11:10:21Z</time>
      </trkpt>
      <trkpt lat="48.45275" lon="7.14281">
        <ele>714</ele>
        <time>2009-05-24T11:10:38Z</time>
      </trkpt>
      <trkpt lat="48.45284" lon="7.14286">
        <ele>736</ele>
        <time>2009-05-24T11:11:11Z</time>
      </trkpt>
      <trkpt lat="48.45293" lon="7.14291">
        <ele>736</ele>
        <time>2009-05-24T11:11:22Z</time>
      </trkpt>
      <trkpt lat="48.45302" lon="7.14295">
        <ele>736</ele>
        <time>2009-05-24T11:11:32Z</time>
      </trkpt>
      <trkpt lat="48.45311" lon="7.143">
        <ele>736</ele>
        <time>2009-05-24T11:11:46Z</time>
      </trkpt>
      <trkpt lat="48.45321" lon="7.143">
        <ele>736</ele>
        <time>2009-05-24T11:11:56Z</time>
      </trkpt>
      <trkpt lat="48.45331" lon="7.14301">
        <ele>741</ele>
        <time>2009-05-24T11:12:11Z</time>
      </trkpt>
      <trkpt lat="48.4534" lon="7.143">
        <ele>741</ele>
        <time>2009-05-24T11:12:25Z</time>
      </trkpt>
      <trkpt lat="48.4535" lon="7.14297">
        <ele>748</ele>
        <time>2009-05-24T11:12:39Z</time>
      </trkpt>
      <trkpt lat="48.45358" lon="7.14289">
        <ele>748</ele>
        <time>2009-05-24T11:12:49Z</time>
      </trkpt>
      <trkpt lat="48.45368" lon="7.1428">
        <ele>748</ele>
        <time>2009-05-24T11:13:02Z</time>
      </trkpt>
      <trkpt lat="48.45375" lon="7.14271">
        <ele>748</ele>
        <time>2009-05-24T11:13:12Z</time>
      </trkpt>
      <trkpt lat="48.45382" lon="7.14263">
        <ele>748</ele>
        <time>2009-05-24T11:13:20Z</time>
      </trkpt>
      <trkpt lat="48.45388" lon="7.14251">
        <ele>748</ele>
        <time>2009-05-24T11:13:30Z</time>
      </trkpt>
      <trkpt lat="48.45396" lon="7.14242">
        <ele>755</ele>
        <time>2009-05-24T11:13:42Z</time>
      </trkpt>
      <trkpt lat="48.45403" lon="7.14232">
        <ele>755</ele>
        <time>2009-05-24T11:13:53Z</time>
      </trkpt>
      <trkpt lat="48.45411" lon="7.14224">
        <ele>755</ele>
        <time>2009-05-24T11:14:23Z</time>
      </trkpt>
      <trkpt lat="48.45417" lon="7.14211">
        <ele>755</ele>
        <time>2009-05-24T11:14:37Z</time>
      </trkpt>
      <trkpt lat="48.45414" lon="7.14198">
        <ele>755</ele>
        <time>2009-05-24T11:14:54Z</time>
      </trkpt>
      <trkpt lat="48.45424" lon="7.14198">
        <ele>762</ele>
        <time>2009-05-24T11:15:40Z</time>
      </trkpt>
      <trkpt lat="48.45426" lon="7.14183">
        <ele>762</ele>
        <time>2009-05-24T11:16:22Z</time>
      </trkpt>
      <trkpt lat="48.45427" lon="7.14169">
        <ele>762</ele>
        <time>2009-05-24T11:16:35Z</time>
      </trkpt>
      <trkpt lat="48.45424" lon="7.14155">
        <ele>752</ele>
        <time>2009-05-24T11:16:50Z</time>
      </trkpt>
      <trkpt lat="48.45415" lon="7.14159">
        <ele>760</ele>
        <time>2009-05-24T11:17:16Z</time>
      </trkpt>
      <trkpt lat="48.45406" lon="7.14166">
        <ele>760</ele>
        <time>2009-05-24T11:17:34Z</time>
      </trkpt>
      <trkpt lat="48.45398" lon="7.14173">
        <ele>770</ele>
        <time>2009-05-24T11:17:44Z</time>
      </trkpt>
      <trkpt lat="48.45395" lon="7.14159">
        <ele>770</ele>
        <time>2009-05-24T11:18:15Z</time>
      </trkpt>
      <trkpt lat="48.45394" lon="7.14144">
        <ele>770</ele>
        <time>2009-05-24T11:18:30Z</time>
      </trkpt>
      <trkpt lat="48.45389" lon="7.14132">
        <ele>770</ele>
        <time>2009-05-24T11:19:06Z</time>
      </trkpt>
      <trkpt lat="48.4538" lon="7.14136">
        <ele>781</ele>
        <time>2009-05-24T11:19:31Z</time>
      </trkpt>
      <trkpt lat="48.45376" lon="7.14124">
        <ele>781</ele>
        <time>2009-05-24T11:19:54Z</time>
      </trkpt>
      <trkpt lat="48.45366" lon="7.14127">
        <ele>794</ele>
        <time>2009-05-24T11:21:03Z</time>
      </trkpt>
      <trkpt lat="48.45366" lon="7.14111">
        <ele>794</ele>
        <time>2009-05-24T11:21:20Z</time>
      </trkpt>
      <trkpt lat="48.45357" lon="7.14111">
        <ele>794</ele>
        <time>2009-05-24T11:21:42Z</time>
      </trkpt>
      <trkpt lat="48.45348" lon="7.14106">
        <ele>794</ele>
        <time>2009-05-24T11:21:52Z</time>
      </trkpt>
      <trkpt lat="48.45338" lon="7.14109">
        <ele>804</ele>
        <time>2009-05-24T11:22:10Z</time>
      </trkpt>
      <trkpt lat="48.45347" lon="7.141">
        <ele>810</ele>
        <time>2009-05-24T11:22:24Z</time>
      </trkpt>
      <trkpt lat="48.45341" lon="7.14088">
        <ele>810</ele>
        <time>2009-05-24T11:22:40Z</time>
      </trkpt>
      <trkpt lat="48.45333" lon="7.14079">
        <ele>810</ele>
        <time>2009-05-24T11:23:01Z</time>
      </trkpt>
      <trkpt lat="48.4533" lon="7.14065">
        <ele>810</ele>
        <time>2009-05-24T11:23:33Z</time>
      </trkpt>
      <trkpt lat="48.45339" lon="7.14069">
        <ele>819</ele>
        <time>2009-05-24T11:25:45Z</time>
      </trkpt>
      <trkpt lat="48.45337" lon="7.14056">
        <ele>812</ele>
        <time>2009-05-24T12:29:34Z</time>
      </trkpt>
      <trkpt lat="48.45328" lon="7.14049">
        <ele>812</ele>
        <time>2009-05-24T12:31:07Z</time>
      </trkpt>
      <trkpt lat="48.45322" lon="7.14038">
        <ele>812</ele>
        <time>2009-05-24T12:31:29Z</time>
      </trkpt>
      <trkpt lat="48.45318" lon="7.14024">
        <ele>812</ele>
        <time>2009-05-24T12:32:44Z</time>
      </trkpt>
      <trkpt lat="48.45312" lon="7.14013">
        <ele>812</ele>
        <time>2009-05-24T12:33:08Z</time>
      </trkpt>
      <trkpt lat="48.45309" lon="7.14">
        <ele>803</ele>
        <time>2009-05-24T12:34:17Z</time>
      </trkpt>
      <trkpt lat="48.45302" lon="7.13989">
        <ele>803</ele>
        <time>2009-05-24T12:34:59Z</time>
      </trkpt>
      <trkpt lat="48.45297" lon="7.13977">
        <ele>803</ele>
        <time>2009-05-24T12:35:20Z</time>
      </trkpt>
      <trkpt lat="48.45287" lon="7.13979">
        <ele>803</ele>
        <time>2009-05-24T12:36:00Z</time>
      </trkpt>
      <trkpt lat="48.45292" lon="7.13967">
        <ele>803</ele>
        <time>2009-05-24T12:37:41Z</time>
      </trkpt>
      <trkpt lat="48.45299" lon="7.13976">
        <ele>785</ele>
        <time>2009-05-24T12:41:13Z</time>
      </trkpt>
      <trkpt lat="48.45289" lon="7.13979">
        <ele>806</ele>
        <time>2009-05-24T12:42:38Z</time>
      </trkpt>
      <trkpt lat="48.45299" lon="7.13977">
        <ele>806</ele>
        <time>2009-05-24T12:42:58Z</time>
      </trkpt>
      <trkpt lat="48.45298" lon="7.13962">
        <ele>806</ele>
        <time>2009-05-24T12:43:57Z</time>
      </trkpt>
      <trkpt lat="48.45292" lon="7.13951">
        <ele>806</ele>
        <time>2009-05-24T12:44:18Z</time>
      </trkpt>
      <trkpt lat="48.45283" lon="7.1395">
        <ele>806</ele>
        <time>2009-05-24T12:44:42Z</time>
      </trkpt>
      <trkpt lat="48.45273" lon="7.13947">
        <ele>806</ele>
        <time>2009-05-24T12:44:55Z</time>
      </trkpt>
      <trkpt lat="48.45265" lon="7.13939">
        <ele>813</ele>
        <time>2009-05-24T12:45:11Z</time>
      </trkpt>
      <trkpt lat="48.45258" lon="7.1393">
        <ele>813</ele>
        <time>2009-05-24T12:45:23Z</time>
      </trkpt>
      <trkpt lat="48.45249" lon="7.13924">
        <ele>813</ele>
        <time>2009-05-24T12:45:41Z</time>
      </trkpt>
      <trkpt lat="48.45241" lon="7.13915">
        <ele>813</ele>
        <time>2009-05-24T12:45:56Z</time>
      </trkpt>
      <trkpt lat="48.45234" lon="7.13906">
        <ele>813</ele>
        <time>2009-05-24T12:46:07Z</time>
      </trkpt>
      <trkpt lat="48.45227" lon="7.13895">
        <ele>813</ele>
        <time>2009-05-24T12:46:18Z</time>
      </trkpt>
      <trkpt lat="48.45221" lon="7.13883">
        <ele>813</ele>
        <time>2009-05-24T12:46:32Z</time>
      </trkpt>
      <trkpt lat="48.45213" lon="7.13873">
        <ele>813</ele>
        <time>2009-05-24T12:46:43Z</time>
      </trkpt>
      <trkpt lat="48.45205" lon="7.13866">
        <ele>813</ele>
        <time>2009-05-24T12:46:56Z</time>
      </trkpt>
      <trkpt lat="48.45197" lon="7.13857">
        <ele>813</ele>
        <time>2009-05-24T12:47:10Z</time>
      </trkpt>
      <trkpt lat="48.45188" lon="7.13852">
        <ele>813</ele>
        <time>2009-05-24T12:47:21Z</time>
      </trkpt>
      <trkpt lat="48.45179" lon="7.13845">
        <ele>806</ele>
        <time>2009-05-24T12:47:31Z</time>
      </trkpt>
      <trkpt lat="48.45171" lon="7.13836">
        <ele>806</ele>
        <time>2009-05-24T12:47:43Z</time>
      </trkpt>
      <trkpt lat="48.45163" lon="7.13828">
        <ele>806</ele>
        <time>2009-05-24T12:47:54Z</time>
      </trkpt>
      <trkpt lat="48.45154" lon="7.13823">
        <ele>806</ele>
        <time>2009-05-24T12:48:03Z</time>
      </trkpt>
      <trkpt lat="48.45145" lon="7.13816">
        <ele>806</ele>
        <time>2009-05-24T12:48:16Z</time>
      </trkpt>
      <trkpt lat="48.45142" lon="7.13802">
        <ele>813</ele>
        <time>2009-05-24T12:49:03Z</time>
      </trkpt>
      <trkpt lat="48.45132" lon="7.13798">
        <ele>813</ele>
        <time>2009-05-24T12:50:32Z</time>
      </trkpt>
      <trkpt lat="48.45123" lon="7.1379">
        <ele>805</ele>
        <time>2009-05-24T12:50:46Z</time>
      </trkpt>
      <trkpt lat="48.45114" lon="7.13786">
        <ele>805</ele>
        <time>2009-05-24T12:51:09Z</time>
      </trkpt>
      <trkpt lat="48.45108" lon="7.13776">
        <ele>805</ele>
        <time>2009-05-24T12:51:19Z</time>
      </trkpt>
      <trkpt lat="48.451" lon="7.13766">
        <ele>805</ele>
        <time>2009-05-24T12:51:34Z</time>
      </trkpt>
      <trkpt lat="48.45091" lon="7.1377">
        <ele>805</ele>
        <time>2009-05-24T12:51:47Z</time>
      </trkpt>
      <trkpt lat="48.45081" lon="7.13766">
        <ele>805</ele>
        <time>2009-05-24T12:51:57Z</time>
      </trkpt>
      <trkpt lat="48.45072" lon="7.13761">
        <ele>805</ele>
        <time>2009-05-24T12:52:16Z</time>
      </trkpt>
      <trkpt lat="48.45062" lon="7.13761">
        <ele>805</ele>
        <time>2009-05-24T12:52:27Z</time>
      </trkpt>
      <trkpt lat="48.45053" lon="7.13759">
        <ele>805</ele>
        <time>2009-05-24T12:52:42Z</time>
      </trkpt>
      <trkpt lat="48.45042" lon="7.13759">
        <ele>805</ele>
        <time>2009-05-24T12:52:55Z</time>
      </trkpt>
      <trkpt lat="48.45032" lon="7.1376">
        <ele>805</ele>
        <time>2009-05-24T12:53:04Z</time>
      </trkpt>
      <trkpt lat="48.45022" lon="7.13762">
        <ele>805</ele>
        <time>2009-05-24T12:53:15Z</time>
      </trkpt>
      <trkpt lat="48.45012" lon="7.13765">
        <ele>805</ele>
        <time>2009-05-24T12:53:25Z</time>
      </trkpt>
      <trkpt lat="48.45002" lon="7.13766">
        <ele>805</ele>
        <time>2009-05-24T12:53:41Z</time>
      </trkpt>
      <trkpt lat="48.44992" lon="7.13767">
        <ele>798</ele>
        <time>2009-05-24T12:53:50Z</time>
      </trkpt>
      <trkpt lat="48.44984" lon="7.13774">
        <ele>798</ele>
        <time>2009-05-24T12:54:00Z</time>
      </trkpt>
      <trkpt lat="48.44975" lon="7.13777">
        <ele>798</ele>
        <time>2009-05-24T12:54:11Z</time>
      </trkpt>
      <trkpt lat="48.44966" lon="7.13782">
        <ele>798</ele>
        <time>2009-05-24T12:54:23Z</time>
      </trkpt>
      <trkpt lat="48.44958" lon="7.13789">
        <ele>804</ele>
        <time>2009-05-24T12:54:36Z</time>
      </trkpt>
      <trkpt lat="48.44949" lon="7.13795">
        <ele>809</ele>
        <time>2009-05-24T12:54:57Z</time>
      </trkpt>
      <trkpt lat="48.44939" lon="7.13797">
        <ele>809</ele>
        <time>2009-05-24T12:55:10Z</time>
      </trkpt>
      <trkpt lat="48.4493" lon="7.13798">
        <ele>809</ele>
        <time>2009-05-24T12:55:25Z</time>
      </trkpt>
      <trkpt lat="48.44921" lon="7.13802">
        <ele>809</ele>
        <time>2009-05-24T12:55:34Z</time>
      </trkpt>
      <trkpt lat="48.44912" lon="7.1381">
        <ele>809</ele>
        <time>2009-05-24T12:55:50Z</time>
      </trkpt>
      <trkpt lat="48.44903" lon="7.13814">
        <ele>809</ele>
        <time>2009-05-24T12:56:09Z</time>
      </trkpt>
      <trkpt lat="48.44894" lon="7.13818">
        <ele>809</ele>
        <time>2009-05-24T12:56:30Z</time>
      </trkpt>
      <trkpt lat="48.44885" lon="7.13824">
        <ele>809</ele>
        <time>2009-05-24T12:56:43Z</time>
      </trkpt>
      <trkpt lat="48.44877" lon="7.1383">
        <ele>809</ele>
        <time>2009-05-24T12:56:55Z</time>
      </trkpt>
      <trkpt lat="48.4487" lon="7.1384">
        <ele>809</ele>
        <time>2009-05-24T12:57:12Z</time>
      </trkpt>
      <trkpt lat="48.44866" lon="7.13853">
        <ele>809</ele>
        <time>2009-05-24T12:57:28Z</time>
      </trkpt>
      <trkpt lat="48.4486" lon="7.13863">
        <ele>816</ele>
        <time>2009-05-24T12:57:40Z</time>
      </trkpt>
      <trkpt lat="48.44852" lon="7.13871">
        <ele>810</ele>
        <time>2009-05-24T12:57:53Z</time>
      </trkpt>
      <trkpt lat="48.44849" lon="7.13885">
        <ele>821</ele>
        <time>2009-05-24T12:58:14Z</time>
      </trkpt>
      <trkpt lat="48.44843" lon="7.13896">
        <ele>828</ele>
        <time>2009-05-24T12:58:31Z</time>
      </trkpt>
      <trkpt lat="48.44836" lon="7.13906">
        <ele>828</ele>
        <time>2009-05-24T12:58:46Z</time>
      </trkpt>
      <trkpt lat="48.44827" lon="7.13911">
        <ele>821</ele>
        <time>2009-05-24T12:58:57Z</time>
      </trkpt>
      <trkpt lat="48.44825" lon="7.13925">
        <ele>827</ele>
        <time>2009-05-24T12:59:16Z</time>
      </trkpt>
      <trkpt lat="48.44817" lon="7.13933">
        <ele>827</ele>
        <time>2009-05-24T12:59:29Z</time>
      </trkpt>
      <trkpt lat="48.44818" lon="7.13948">
        <ele>833</ele>
        <time>2009-05-24T12:59:47Z</time>
      </trkpt>
      <trkpt lat="48.4481" lon="7.13958">
        <ele>833</ele>
        <time>2009-05-24T12:59:57Z</time>
      </trkpt>
      <trkpt lat="48.44802" lon="7.13967">
        <ele>826</ele>
        <time>2009-05-24T13:00:06Z</time>
      </trkpt>
      <trkpt lat="48.44795" lon="7.13976">
        <ele>826</ele>
        <time>2009-05-24T13:00:22Z</time>
      </trkpt>
      <trkpt lat="48.44787" lon="7.13985">
        <ele>826</ele>
        <time>2009-05-24T13:00:37Z</time>
      </trkpt>
      <trkpt lat="48.4478" lon="7.13995">
        <ele>826</ele>
        <time>2009-05-24T13:00:49Z</time>
      </trkpt>
      <trkpt lat="48.44774" lon="7.14006">
        <ele>821</ele>
        <time>2009-05-24T13:01:01Z</time>
      </trkpt>
      <trkpt lat="48.44765" lon="7.14014">
        <ele>827</ele>
        <time>2009-05-24T13:01:17Z</time>
      </trkpt>
      <trkpt lat="48.44759" lon="7.14025">
        <ele>833</ele>
        <time>2009-05-24T13:01:37Z</time>
      </trkpt>
      <trkpt lat="48.44751" lon="7.14032">
        <ele>833</ele>
        <time>2009-05-24T13:01:57Z</time>
      </trkpt>
      <trkpt lat="48.44742" lon="7.1404">
        <ele>838</ele>
        <time>2009-05-24T13:02:09Z</time>
      </trkpt>
      <trkpt lat="48.44735" lon="7.14049">
        <ele>838</ele>
        <time>2009-05-24T13:02:22Z</time>
      </trkpt>
      <trkpt lat="48.44726" lon="7.14058">
        <ele>838</ele>
        <time>2009-05-24T13:02:35Z</time>
      </trkpt>
      <trkpt lat="48.44718" lon="7.14065">
        <ele>838</ele>
        <time>2009-05-24T13:02:46Z</time>
      </trkpt>
      <trkpt lat="48.4471" lon="7.14074">
        <ele>847</ele>
        <time>2009-05-24T13:03:00Z</time>
      </trkpt>
      <trkpt lat="48.44702" lon="7.14081">
        <ele>847</ele>
        <time>2009-05-24T13:03:17Z</time>
      </trkpt>
      <trkpt lat="48.44692" lon="7.14082">
        <ele>847</ele>
        <time>2009-05-24T13:03:28Z</time>
      </trkpt>
      <trkpt lat="48.44685" lon="7.14074">
        <ele>847</ele>
        <time>2009-05-24T13:03:41Z</time>
      </trkpt>
      <trkpt lat="48.44682" lon="7.14059">
        <ele>847</ele>
        <time>2009-05-24T13:03:54Z</time>
      </trkpt>
      <trkpt lat="48.44683" lon="7.14044">
        <ele>847</ele>
        <time>2009-05-24T13:04:05Z</time>
      </trkpt>
      <trkpt lat="48.44682" lon="7.1403">
        <ele>847</ele>
        <time>2009-05-24T13:04:15Z</time>
      </trkpt>
      <trkpt lat="48.44681" lon="7.14014">
        <ele>847</ele>
        <time>2009-05-24T13:04:25Z</time>
      </trkpt>
      <trkpt lat="48.44681" lon="7.13999">
        <ele>847</ele>
        <time>2009-05-24T13:04:36Z</time>
      </trkpt>
      <trkpt lat="48.44681" lon="7.13985">
        <ele>847</ele>
        <time>2009-05-24T13:04:48Z</time>
      </trkpt>
      <trkpt lat="48.4468" lon="7.13969">
        <ele>847</ele>
        <time>2009-05-24T13:04:59Z</time>
      </trkpt>
      <trkpt lat="48.4468" lon="7.13955">
        <ele>853</ele>
        <time>2009-05-24T13:05:10Z</time>
      </trkpt>
      <trkpt lat="48.4468" lon="7.13941">
        <ele>853</ele>
        <time>2009-05-24T13:05:19Z</time>
      </trkpt>
      <trkpt lat="48.44677" lon="7.13927">
        <ele>853</ele>
        <time>2009-05-24T13:05:30Z</time>
      </trkpt>
      <trkpt lat="48.44674" lon="7.13914">
        <ele>853</ele>
        <time>2009-05-24T13:05:39Z</time>
      </trkpt>
      <trkpt lat="48.44674" lon="7.13899">
        <ele>853</ele>
        <time>2009-05-24T13:05:47Z</time>
      </trkpt>
      <trkpt lat="48.44671" lon="7.13885">
        <ele>853</ele>
        <time>2009-05-24T13:05:55Z</time>
      </trkpt>
      <trkpt lat="48.44665" lon="7.13873">
        <ele>853</ele>
        <time>2009-05-24T13:06:05Z</time>
      </trkpt>
      <trkpt lat="48.44663" lon="7.1386">
        <ele>853</ele>
        <time>2009-05-24T13:06:14Z</time>
      </trkpt>
      <trkpt lat="48.44661" lon="7.13846">
        <ele>847</ele>
        <time>2009-05-24T13:06:24Z</time>
      </trkpt>
      <trkpt lat="48.44656" lon="7.13834">
        <ele>847</ele>
        <time>2009-05-24T13:06:31Z</time>
      </trkpt>
      <trkpt lat="48.44655" lon="7.13818">
        <ele>847</ele>
        <time>2009-05-24T13:06:40Z</time>
      </trkpt>
      <trkpt lat="48.44652" lon="7.13805">
        <ele>847</ele>
        <time>2009-05-24T13:06:48Z</time>
      </trkpt>
      <trkpt lat="48.44647" lon="7.13792">
        <ele>847</ele>
        <time>2009-05-24T13:06:56Z</time>
      </trkpt>
      <trkpt lat="48.44643" lon="7.1378">
        <ele>847</ele>
        <time>2009-05-24T13:07:08Z</time>
      </trkpt>
      <trkpt lat="48.44637" lon="7.13767">
        <ele>847</ele>
        <time>2009-05-24T13:07:17Z</time>
      </trkpt>
      <trkpt lat="48.44633" lon="7.13755">
        <ele>847</ele>
        <time>2009-05-24T13:07:30Z</time>
      </trkpt>
      <trkpt lat="48.44626" lon="7.13745">
        <ele>847</ele>
        <time>2009-05-24T13:07:44Z</time>
      </trkpt>
      <trkpt lat="48.44621" lon="7.13732">
        <ele>847</ele>
        <time>2009-05-24T13:07:55Z</time>
      </trkpt>
      <trkpt lat="48.44614" lon="7.13723">
        <ele>847</ele>
        <time>2009-05-24T13:08:05Z</time>
      </trkpt>
      <trkpt lat="48.44606" lon="7.13715">
        <ele>841</ele>
        <time>2009-05-24T13:08:16Z</time>
      </trkpt>
      <trkpt lat="48.44598" lon="7.13707">
        <ele>841</ele>
        <time>2009-05-24T13:08:26Z</time>
      </trkpt>
      <trkpt lat="48.44591" lon="7.13697">
        <ele>841</ele>
        <time>2009-05-24T13:08:41Z</time>
      </trkpt>
      <trkpt lat="48.44584" lon="7.13686">
        <ele>841</ele>
        <time>2009-05-24T13:08:53Z</time>
      </trkpt>
      <trkpt lat="48.44578" lon="7.13676">
        <ele>841</ele>
        <time>2009-05-24T13:09:04Z</time>
      </trkpt>
      <trkpt lat="48.44569" lon="7.13668">
        <ele>835</ele>
        <time>2009-05-24T13:09:16Z</time>
      </trkpt>
      <trkpt lat="48.44561" lon="7.13659">
        <ele>835</ele>
        <time>2009-05-24T13:09:22Z</time>
      </trkpt>
      <trkpt lat="48.44558" lon="7.13644">
        <ele>840</ele>
        <time>2009-05-24T13:09:38Z</time>
      </trkpt>
      <trkpt lat="48.44551" lon="7.13634">
        <ele>840</ele>
        <time>2009-05-24T13:09:50Z</time>
      </trkpt>
      <trkpt lat="48.44544" lon="7.13624">
        <ele>840</ele>
        <time>2009-05-24T13:10:01Z</time>
      </trkpt>
      <trkpt lat="48.44544" lon="7.13609">
        <ele>840</ele>
        <time>2009-05-24T13:10:20Z</time>
      </trkpt>
      <trkpt lat="48.44542" lon="7.13596">
        <ele>840</ele>
        <time>2009-05-24T13:10:34Z</time>
      </trkpt>
      <trkpt lat="48.44537" lon="7.13582">
        <ele>847</ele>
        <time>2009-05-24T13:10:47Z</time>
      </trkpt>
      <trkpt lat="48.44539" lon="7.13568">
        <ele>847</ele>
        <time>2009-05-24T13:11:15Z</time>
      </trkpt>
      <trkpt lat="48.44536" lon="7.13553">
        <ele>847</ele>
        <time>2009-05-24T13:11:26Z</time>
      </trkpt>
      <trkpt lat="48.44535" lon="7.13538">
        <ele>847</ele>
        <time>2009-05-24T13:11:36Z</time>
      </trkpt>
      <trkpt lat="48.44532" lon="7.13525">
        <ele>839</ele>
        <time>2009-05-24T13:11:46Z</time>
      </trkpt>
      <trkpt lat="48.44526" lon="7.13511">
        <ele>839</ele>
        <time>2009-05-24T13:11:57Z</time>
      </trkpt>
      <trkpt lat="48.44523" lon="7.13498">
        <ele>839</ele>
        <time>2009-05-24T13:12:09Z</time>
      </trkpt>
      <trkpt lat="48.44519" lon="7.13484">
        <ele>839</ele>
        <time>2009-05-24T13:12:51Z</time>
      </trkpt>
      <trkpt lat="48.4452" lon="7.13469">
        <ele>845</ele>
        <time>2009-05-24T13:13:10Z</time>
      </trkpt>
      <trkpt lat="48.44514" lon="7.13457">
        <ele>845</ele>
        <time>2009-05-24T13:13:21Z</time>
      </trkpt>
      <trkpt lat="48.44509" lon="7.13444">
        <ele>839</ele>
        <time>2009-05-24T13:13:30Z</time>
      </trkpt>
      <trkpt lat="48.44502" lon="7.13434">
        <ele>839</ele>
        <time>2009-05-24T13:13:41Z</time>
      </trkpt>
      <trkpt lat="48.44493" lon="7.13439">
        <ele>839</ele>
        <time>2009-05-24T13:13:52Z</time>
      </trkpt>
      <trkpt lat="48.44484" lon="7.13433">
        <ele>839</ele>
        <time>2009-05-24T13:14:07Z</time>
      </trkpt>
      <trkpt lat="48.44481" lon="7.1342">
        <ele>839</ele>
        <time>2009-05-24T13:14:20Z</time>
      </trkpt>
      <trkpt lat="48.44482" lon="7.13405">
        <ele>839</ele>
        <time>2009-05-24T13:14:40Z</time>
      </trkpt>
      <trkpt lat="48.44477" lon="7.13391">
        <ele>839</ele>
        <time>2009-05-24T13:14:51Z</time>
      </trkpt>
      <trkpt lat="48.44474" lon="7.13376">
        <ele>839</ele>
        <time>2009-05-24T13:15:02Z</time>
      </trkpt>
      <trkpt lat="48.44471" lon="7.13363">
        <ele>839</ele>
        <time>2009-05-24T13:16:24Z</time>
      </trkpt>
      <trkpt lat="48.44464" lon="7.13354">
        <ele>829</ele>
        <time>2009-05-24T13:17:22Z</time>
      </trkpt>
      <trkpt lat="48.44458" lon="7.13343">
        <ele>829</ele>
        <time>2009-05-24T13:17:38Z</time>
      </trkpt>
      <trkpt lat="48.4445" lon="7.13335">
        <ele>829</ele>
        <time>2009-05-24T13:17:52Z</time>
      </trkpt>
      <trkpt lat="48.44441" lon="7.13335">
        <ele>822</ele>
        <time>2009-05-24T13:18:13Z</time>
      </trkpt>
      <trkpt lat="48.44433" lon="7.13326">
        <ele>822</ele>
        <time>2009-05-24T13:18:47Z</time>
      </trkpt>
      <trkpt lat="48.44426" lon="7.13316">
        <ele>828</ele>
        <time>2009-05-24T13:19:01Z</time>
      </trkpt>
      <trkpt lat="48.44419" lon="7.13306">
        <ele>828</ele>
        <time>2009-05-24T13:19:17Z</time>
      </trkpt>
      <trkpt lat="48.44412" lon="7.13297">
        <ele>828</ele>
        <time>2009-05-24T13:19:25Z</time>
      </trkpt>
      <trkpt lat="48.44408" lon="7.13283">
        <ele>828</ele>
        <time>2009-05-24T13:19:35Z</time>
      </trkpt>
      <trkpt lat="48.44402" lon="7.13272">
        <ele>828</ele>
        <time>2009-05-24T13:19:45Z</time>
      </trkpt>
      <trkpt lat="48.44398" lon="7.13259">
        <ele>828</ele>
        <time>2009-05-24T13:19:56Z</time>
      </trkpt>
      <trkpt lat="48.44389" lon="7.1325">
        <ele>828</ele>
        <time>2009-05-24T13:20:05Z</time>
      </trkpt>
      <trkpt lat="48.44383" lon="7.1324">
        <ele>828</ele>
        <time>2009-05-24T13:20:14Z</time>
      </trkpt>
      <trkpt lat="48.44376" lon="7.1323">
        <ele>828</ele>
        <time>2009-05-24T13:20:24Z</time>
      </trkpt>
      <trkpt lat="48.44368" lon="7.13222">
        <ele>833</ele>
        <time>2009-05-24T13:20:32Z</time>
      </trkpt>
      <trkpt lat="48.4436" lon="7.13213">
        <ele>833</ele>
        <time>2009-05-24T13:20:41Z</time>
      </trkpt>
      <trkpt lat="48.44351" lon="7.13208">
        <ele>833</ele>
        <time>2009-05-24T13:20:53Z</time>
      </trkpt>
      <trkpt lat="48.44345" lon="7.13197">
        <ele>833</ele>
        <time>2009-05-24T13:21:18Z</time>
      </trkpt>
      <trkpt lat="48.44337" lon="7.13191">
        <ele>833</ele>
        <time>2009-05-24T13:21:27Z</time>
      </trkpt>
      <trkpt lat="48.44328" lon="7.13186">
        <ele>833</ele>
        <time>2009-05-24T13:21:37Z</time>
      </trkpt>
      <trkpt lat="48.44318" lon="7.13189">
        <ele>840</ele>
        <time>2009-05-24T13:21:49Z</time>
      </trkpt>
      <trkpt lat="48.44308" lon="7.13187">
        <ele>840</ele>
        <time>2009-05-24T13:21:57Z</time>
      </trkpt>
      <trkpt lat="48.44298" lon="7.13186">
        <ele>840</ele>
        <time>2009-05-24T13:22:11Z</time>
      </trkpt>
      <trkpt lat="48.44289" lon="7.1318">
        <ele>847</ele>
        <time>2009-05-24T13:22:33Z</time>
      </trkpt>
      <trkpt lat="48.44281" lon="7.13173">
        <ele>847</ele>
        <time>2009-05-24T13:22:45Z</time>
      </trkpt>
      <trkpt lat="48.44272" lon="7.13179">
        <ele>847</ele>
        <time>2009-05-24T13:23:06Z</time>
      </trkpt>
      <trkpt lat="48.44263" lon="7.13179">
        <ele>847</ele>
        <time>2009-05-24T13:23:43Z</time>
      </trkpt>
      <trkpt lat="48.44261" lon="7.13164">
        <ele>847</ele>
        <time>2009-05-24T13:23:58Z</time>
      </trkpt>
      <trkpt lat="48.44258" lon="7.13151">
        <ele>853</ele>
        <time>2009-05-24T13:24:10Z</time>
      </trkpt>
      <trkpt lat="48.44255" lon="7.13138">
        <ele>860</ele>
        <time>2009-05-24T13:24:22Z</time>
      </trkpt>
      <trkpt lat="48.44246" lon="7.13137">
        <ele>860</ele>
        <time>2009-05-24T13:24:40Z</time>
      </trkpt>
      <trkpt lat="48.44237" lon="7.13143">
        <ele>865</ele>
        <time>2009-05-24T13:24:52Z</time>
      </trkpt>
      <trkpt lat="48.44228" lon="7.13149">
        <ele>865</ele>
        <time>2009-05-24T13:25:05Z</time>
      </trkpt>
      <trkpt lat="48.44219" lon="7.13155">
        <ele>865</ele>
        <time>2009-05-24T13:25:17Z</time>
      </trkpt>
      <trkpt lat="48.44217" lon="7.13141">
        <ele>865</ele>
        <time>2009-05-24T13:25:32Z</time>
      </trkpt>
      <trkpt lat="48.44212" lon="7.13128">
        <ele>865</ele>
        <time>2009-05-24T13:25:46Z</time>
      </trkpt>
      <trkpt lat="48.44212" lon="7.13112">
        <ele>874</ele>
        <time>2009-05-24T13:26:00Z</time>
      </trkpt>
      <trkpt lat="48.44202" lon="7.13111">
        <ele>874</ele>
        <time>2009-05-24T13:26:17Z</time>
      </trkpt>
      <trkpt lat="48.44197" lon="7.13123">
        <ele>884</ele>
        <time>2009-05-24T13:26:34Z</time>
      </trkpt>
      <trkpt lat="48.44188" lon="7.13119">
        <ele>884</ele>
        <time>2009-05-24T13:26:51Z</time>
      </trkpt>
      <trkpt lat="48.44182" lon="7.13107">
        <ele>884</ele>
        <time>2009-05-24T13:27:02Z</time>
      </trkpt>
      <trkpt lat="48.44175" lon="7.13098">
        <ele>884</ele>
        <time>2009-05-24T13:27:15Z</time>
      </trkpt>
      <trkpt lat="48.44166" lon="7.13092">
        <ele>884</ele>
        <time>2009-05-24T13:27:29Z</time>
      </trkpt>
      <trkpt lat="48.44157" lon="7.13099">
        <ele>900</ele>
        <time>2009-05-24T13:27:49Z</time>
      </trkpt>
      <trkpt lat="48.4415" lon="7.13108">
        <ele>900</ele>
        <time>2009-05-24T13:27:58Z</time>
      </trkpt>
      <trkpt lat="48.44143" lon="7.13118">
        <ele>909</ele>
        <time>2009-05-24T13:28:10Z</time>
      </trkpt>
      <trkpt lat="48.44137" lon="7.13129">
        <ele>909</ele>
        <time>2009-05-24T13:28:18Z</time>
      </trkpt>
      <trkpt lat="48.4413" lon="7.13138">
        <ele>909</ele>
        <time>2009-05-24T13:28:26Z</time>
      </trkpt>
      <trkpt lat="48.44123" lon="7.13148">
        <ele>909</ele>
        <time>2009-05-24T13:28:35Z</time>
      </trkpt>
      <trkpt lat="48.44119" lon="7.13161">
        <ele>909</ele>
        <time>2009-05-24T13:28:45Z</time>
      </trkpt>
      <trkpt lat="48.44115" lon="7.13174">
        <ele>909</ele>
        <time>2009-05-24T13:28:55Z</time>
      </trkpt>
      <trkpt lat="48.44109" lon="7.13186">
        <ele>909</ele>
        <time>2009-05-24T13:29:06Z</time>
      </trkpt>
      <trkpt lat="48.44105" lon="7.13199">
        <ele>909</ele>
        <time>2009-05-24T13:29:20Z</time>
      </trkpt>
      <trkpt lat="48.44105" lon="7.13213">
        <ele>909</ele>
        <time>2009-05-24T13:34:31Z</time>
      </trkpt>
      <trkpt lat="48.44111" lon="7.13202">
        <ele>902</ele>
        <time>2009-05-24T13:36:59Z</time>
      </trkpt>
      <trkpt lat="48.44107" lon="7.13189">
        <ele>902</ele>
        <time>2009-05-24T13:37:43Z</time>
      </trkpt>
      <trkpt lat="48.44102" lon="7.13176">
        <ele>902</ele>
        <time>2009-05-24T13:37:54Z</time>
      </trkpt>
      <trkpt lat="48.44096" lon="7.13166">
        <ele>902</ele>
        <time>2009-05-24T13:38:31Z</time>
      </trkpt>
      <trkpt lat="48.44087" lon="7.13161">
        <ele>902</ele>
        <time>2009-05-24T13:39:28Z</time>
      </trkpt>
      <trkpt lat="48.44081" lon="7.13149">
        <ele>902</ele>
        <time>2009-05-24T13:39:44Z</time>
      </trkpt>
      <trkpt lat="48.4408" lon="7.13135">
        <ele>909</ele>
        <time>2009-05-24T13:39:56Z</time>
      </trkpt>
      <trkpt lat="48.4408" lon="7.1312">
        <ele>909</ele>
        <time>2009-05-24T13:40:08Z</time>
      </trkpt>
      <trkpt lat="48.4408" lon="7.13106">
        <ele>914</ele>
        <time>2009-05-24T13:40:19Z</time>
      </trkpt>
      <trkpt lat="48.44079" lon="7.13092">
        <ele>905</ele>
        <time>2009-05-24T13:40:28Z</time>
      </trkpt>
      <trkpt lat="48.44074" lon="7.1308">
        <ele>890</ele>
        <time>2009-05-24T13:40:41Z</time>
      </trkpt>
      <trkpt lat="48.44075" lon="7.13065">
        <ele>890</ele>
        <time>2009-05-24T13:40:47Z</time>
      </trkpt>
      <trkpt lat="48.44072" lon="7.13051">
        <ele>890</ele>
        <time>2009-05-24T13:40:56Z</time>
      </trkpt>
      <trkpt lat="48.44071" lon="7.13036">
        <ele>896</ele>
        <time>2009-05-24T13:41:07Z</time>
      </trkpt>
      <trkpt lat="48.4407" lon="7.13022">
        <ele>896</ele>
        <time>2009-05-24T13:41:19Z</time>
      </trkpt>
      <trkpt lat="48.44068" lon="7.13007">
        <ele>896</ele>
        <time>2009-05-24T13:41:31Z</time>
      </trkpt>
      <trkpt lat="48.4407" lon="7.12992">
        <ele>896</ele>
        <time>2009-05-24T13:41:40Z</time>
      </trkpt>
      <trkpt lat="48.44072" lon="7.12978">
        <ele>896</ele>
        <time>2009-05-24T13:41:48Z</time>
      </trkpt>
      <trkpt lat="48.4407" lon="7.12962">
        <ele>896</ele>
        <time>2009-05-24T13:41:59Z</time>
      </trkpt>
      <trkpt lat="48.44073" lon="7.12948">
        <ele>896</ele>
        <time>2009-05-24T13:42:09Z</time>
      </trkpt>
      <trkpt lat="48.44071" lon="7.12932">
        <ele>896</ele>
        <time>2009-05-24T13:42:21Z</time>
      </trkpt>
      <trkpt lat="48.44068" lon="7.12918">
        <ele>896</ele>
        <time>2009-05-24T13:42:29Z</time>
      </trkpt>
      <trkpt lat="48.44062" lon="7.12906">
        <ele>896</ele>
        <time>2009-05-24T13:42:38Z</time>
      </trkpt>
      <trkpt lat="48.4406" lon="7.12892">
        <ele>881</ele>
        <time>2009-05-24T13:42:48Z</time>
      </trkpt>
      <trkpt lat="48.44053" lon="7.12881">
        <ele>886</ele>
        <time>2009-05-24T13:42:55Z</time>
      </trkpt>
      <trkpt lat="48.44046" lon="7.1287">
        <ele>874</ele>
        <time>2009-05-24T13:43:10Z</time>
      </trkpt>
      <trkpt lat="48.44048" lon="7.12856">
        <ele>874</ele>
        <time>2009-05-24T13:43:17Z</time>
      </trkpt>
      <trkpt lat="48.44046" lon="7.1284">
        <ele>874</ele>
        <time>2009-05-24T13:43:27Z</time>
      </trkpt>
      <trkpt lat="48.44042" lon="7.12826">
        <ele>866</ele>
        <time>2009-05-24T13:43:35Z</time>
      </trkpt>
      <trkpt lat="48.44041" lon="7.12811">
        <ele>866</ele>
        <time>2009-05-24T13:43:45Z</time>
      </trkpt>
      <trkpt lat="48.44037" lon="7.12799">
        <ele>860</ele>
        <time>2009-05-24T13:43:56Z</time>
      </trkpt>
      <trkpt lat="48.44032" lon="7.12784">
        <ele>860</ele>
        <time>2009-05-24T13:44:06Z</time>
      </trkpt>
      <trkpt lat="48.4403" lon="7.1277">
        <ele>860</ele>
        <time>2009-05-24T13:44:15Z</time>
      </trkpt>
      <trkpt lat="48.44028" lon="7.12757">
        <ele>868</ele>
        <time>2009-05-24T13:44:26Z</time>
      </trkpt>
      <trkpt lat="48.4403" lon="7.12743">
        <ele>857</ele>
        <time>2009-05-24T13:44:42Z</time>
      </trkpt>
      <trkpt lat="48.44025" lon="7.12731">
        <ele>851</ele>
        <time>2009-05-24T13:45:00Z</time>
      </trkpt>
      <trkpt lat="48.44019" lon="7.12718">
        <ele>856</ele>
        <time>2009-05-24T13:45:08Z</time>
      </trkpt>
      <trkpt lat="48.44018" lon="7.12703">
        <ele>863</ele>
        <time>2009-05-24T13:45:28Z</time>
      </trkpt>
      <trkpt lat="48.44016" lon="7.12689">
        <ele>863</ele>
        <time>2009-05-24T13:45:37Z</time>
      </trkpt>
      <trkpt lat="48.4401" lon="7.12678">
        <ele>872</ele>
        <time>2009-05-24T13:45:50Z</time>
      </trkpt>
      <trkpt lat="48.44012" lon="7.12664">
        <ele>872</ele>
        <time>2009-05-24T13:45:58Z</time>
      </trkpt>
      <trkpt lat="48.44006" lon="7.12652">
        <ele>878</ele>
        <time>2009-05-24T13:46:07Z</time>
      </trkpt>
      <trkpt lat="48.44007" lon="7.12638">
        <ele>878</ele>
        <time>2009-05-24T13:46:16Z</time>
      </trkpt>
      <trkpt lat="48.44009" lon="7.12625">
        <ele>872</ele>
        <time>2009-05-24T13:46:26Z</time>
      </trkpt>
      <trkpt lat="48.44006" lon="7.12611">
        <ele>865</ele>
        <time>2009-05-24T13:46:34Z</time>
      </trkpt>
      <trkpt lat="48.43997" lon="7.12607">
        <ele>856</ele>
        <time>2009-05-24T13:46:43Z</time>
      </trkpt>
      <trkpt lat="48.43995" lon="7.12593">
        <ele>856</ele>
        <time>2009-05-24T13:46:52Z</time>
      </trkpt>
      <trkpt lat="48.43995" lon="7.12579">
        <ele>856</ele>
        <time>2009-05-24T13:47:01Z</time>
      </trkpt>
      <trkpt lat="48.43988" lon="7.12569">
        <ele>856</ele>
        <time>2009-05-24T13:47:06Z</time>
      </trkpt>
      <trkpt lat="48.43982" lon="7.12558">
        <ele>856</ele>
        <time>2009-05-24T13:47:14Z</time>
      </trkpt>
      <trkpt lat="48.43977" lon="7.12546">
        <ele>851</ele>
        <time>2009-05-24T13:47:25Z</time>
      </trkpt>
      <trkpt lat="48.43974" lon="7.12531">
        <ele>858</ele>
        <time>2009-05-24T13:47:44Z</time>
      </trkpt>
      <trkpt lat="48.43966" lon="7.12524">
        <ele>858</ele>
        <time>2009-05-24T13:47:57Z</time>
      </trkpt>
      <trkpt lat="48.43967" lon="7.1251">
        <ele>865</ele>
        <time>2009-05-24T13:48:10Z</time>
      </trkpt>
      <trkpt lat="48.43968" lon="7.12495">
        <ele>871</ele>
        <time>2009-05-24T13:48:29Z</time>
      </trkpt>
      <trkpt lat="48.43962" lon="7.12482">
        <ele>863</ele>
        <time>2009-05-24T13:48:41Z</time>
      </trkpt>
      <trkpt lat="48.4396" lon="7.12466">
        <ele>845</ele>
        <time>2009-05-24T13:48:53Z</time>
      </trkpt>
      <trkpt lat="48.43954" lon="7.12457">
        <ele>837</ele>
        <time>2009-05-24T13:49:00Z</time>
      </trkpt>
      <trkpt lat="48.43947" lon="7.12446">
        <ele>837</ele>
        <time>2009-05-24T13:49:09Z</time>
      </trkpt>
      <trkpt lat="48.43941" lon="7.12434">
        <ele>828</ele>
        <time>2009-05-24T13:49:20Z</time>
      </trkpt>
      <trkpt lat="48.43932" lon="7.12426">
        <ele>821</ele>
        <time>2009-05-24T13:49:31Z</time>
      </trkpt>
      <trkpt lat="48.43922" lon="7.12418">
        <ele>816</ele>
        <time>2009-05-24T13:49:39Z</time>
      </trkpt>
      <trkpt lat="48.43914" lon="7.12411">
        <ele>816</ele>
        <time>2009-05-24T13:49:47Z</time>
      </trkpt>
      <trkpt lat="48.43906" lon="7.12404">
        <ele>816</ele>
        <time>2009-05-24T13:49:56Z</time>
      </trkpt>
      <trkpt lat="48.43897" lon="7.124">
        <ele>816</ele>
        <time>2009-05-24T13:50:04Z</time>
      </trkpt>
      <trkpt lat="48.43887" lon="7.12403">
        <ele>816</ele>
        <time>2009-05-24T13:50:14Z</time>
      </trkpt>
      <trkpt lat="48.43877" lon="7.12401">
        <ele>809</ele>
        <time>2009-05-24T13:50:21Z</time>
      </trkpt>
      <trkpt lat="48.43867" lon="7.12398">
        <ele>803</ele>
        <time>2009-05-24T13:50:32Z</time>
      </trkpt>
      <trkpt lat="48.4386" lon="7.12389">
        <ele>803</ele>
        <time>2009-05-24T13:50:46Z</time>
      </trkpt>
      <trkpt lat="48.43853" lon="7.1238">
        <ele>803</ele>
        <time>2009-05-24T13:50:54Z</time>
      </trkpt>
      <trkpt lat="48.43849" lon="7.12367">
        <ele>803</ele>
        <time>2009-05-24T13:51:06Z</time>
      </trkpt>
      <trkpt lat="48.43839" lon="7.12361">
        <ele>803</ele>
        <time>2009-05-24T13:51:14Z</time>
      </trkpt>
      <trkpt lat="48.43833" lon="7.12351">
        <ele>808</ele>
        <time>2009-05-24T13:51:24Z</time>
      </trkpt>
      <trkpt lat="48.43824" lon="7.12347">
        <ele>808</ele>
        <time>2009-05-24T13:51:30Z</time>
      </trkpt>
      <trkpt lat="48.4382" lon="7.12334">
        <ele>816</ele>
        <time>2009-05-24T13:51:38Z</time>
      </trkpt>
      <trkpt lat="48.43814" lon="7.1232">
        <ele>816</ele>
        <time>2009-05-24T13:51:48Z</time>
      </trkpt>
      <trkpt lat="48.4381" lon="7.12307">
        <ele>816</ele>
        <time>2009-05-24T13:52:22Z</time>
      </trkpt>
      <trkpt lat="48.43804" lon="7.1232">
        <ele>808</ele>
        <time>2009-05-24T13:53:14Z</time>
      </trkpt>
      <trkpt lat="48.43809" lon="7.12308">
        <ele>815</ele>
        <time>2009-05-24T13:54:23Z</time>
      </trkpt>
      <trkpt lat="48.43815" lon="7.12296">
        <ele>815</ele>
        <time>2009-05-24T13:54:31Z</time>
      </trkpt>
      <trkpt lat="48.43819" lon="7.12282">
        <ele>820</ele>
        <time>2009-05-24T13:54:40Z</time>
      </trkpt>
      <trkpt lat="48.43821" lon="7.12267">
        <ele>820</ele>
        <time>2009-05-24T13:54:48Z</time>
      </trkpt>
      <trkpt lat="48.43815" lon="7.12255">
        <ele>815</ele>
        <time>2009-05-24T13:54:55Z</time>
      </trkpt>
      <trkpt lat="48.43814" lon="7.12241">
        <ele>815</ele>
        <time>2009-05-24T13:55:04Z</time>
      </trkpt>
      <trkpt lat="48.43814" lon="7.12227">
        <ele>822</ele>
        <time>2009-05-24T13:55:11Z</time>
      </trkpt>
      <trkpt lat="48.43811" lon="7.12213">
        <ele>822</ele>
        <time>2009-05-24T13:55:19Z</time>
      </trkpt>
      <trkpt lat="48.43809" lon="7.12199">
        <ele>828</ele>
        <time>2009-05-24T13:55:28Z</time>
      </trkpt>
      <trkpt lat="48.43806" lon="7.12185">
        <ele>828</ele>
        <time>2009-05-24T13:55:37Z</time>
      </trkpt>
      <trkpt lat="48.43808" lon="7.12171">
        <ele>828</ele>
        <time>2009-05-24T13:55:44Z</time>
      </trkpt>
      <trkpt lat="48.43807" lon="7.12157">
        <ele>828</ele>
        <time>2009-05-24T13:55:52Z</time>
      </trkpt>
      <trkpt lat="48.43805" lon="7.12142">
        <ele>828</ele>
        <time>2009-05-24T13:55:59Z</time>
      </trkpt>
      <trkpt lat="48.43807" lon="7.12127">
        <ele>828</ele>
        <time>2009-05-24T13:56:08Z</time>
      </trkpt>
      <trkpt lat="48.43807" lon="7.12113">
        <ele>828</ele>
        <time>2009-05-24T13:56:18Z</time>
      </trkpt>
      <trkpt lat="48.43808" lon="7.12097">
        <ele>828</ele>
        <time>2009-05-24T13:56:27Z</time>
      </trkpt>
      <trkpt lat="48.43811" lon="7.12082">
        <ele>828</ele>
        <time>2009-05-24T13:56:35Z</time>
      </trkpt>
      <trkpt lat="48.43811" lon="7.12068">
        <ele>828</ele>
        <time>2009-05-24T13:56:41Z</time>
      </trkpt>
      <trkpt lat="48.43813" lon="7.12053">
        <ele>836</ele>
        <time>2009-05-24T13:56:50Z</time>
      </trkpt>
      <trkpt lat="48.43815" lon="7.12039">
        <ele>836</ele>
        <time>2009-05-24T13:57:00Z</time>
      </trkpt>
      <trkpt lat="48.43821" lon="7.12026">
        <ele>836</ele>
        <time>2009-05-24T13:57:08Z</time>
      </trkpt>
      <trkpt lat="48.43827" lon="7.12016">
        <ele>845</ele>
        <time>2009-05-24T13:57:16Z</time>
      </trkpt>
      <trkpt lat="48.43831" lon="7.12001">
        <ele>854</ele>
        <time>2009-05-24T13:57:26Z</time>
      </trkpt>
      <trkpt lat="48.43835" lon="7.11988">
        <ele>854</ele>
        <time>2009-05-24T13:57:35Z</time>
      </trkpt>
      <trkpt lat="48.43841" lon="7.11977">
        <ele>854</ele>
        <time>2009-05-24T13:57:43Z</time>
      </trkpt>
      <trkpt lat="48.43844" lon="7.11963">
        <ele>865</ele>
        <time>2009-05-24T13:57:50Z</time>
      </trkpt>
      <trkpt lat="48.4385" lon="7.11949">
        <ele>865</ele>
        <time>2009-05-24T13:58:00Z</time>
      </trkpt>
      <trkpt lat="48.43856" lon="7.11937">
        <ele>865</ele>
        <time>2009-05-24T13:58:08Z</time>
      </trkpt>
      <trkpt lat="48.43859" lon="7.11923">
        <ele>882</ele>
        <time>2009-05-24T13:58:17Z</time>
      </trkpt>
      <trkpt lat="48.43864" lon="7.11909">
        <ele>891</ele>
        <time>2009-05-24T13:58:25Z</time>
      </trkpt>
      <trkpt lat="48.43868" lon="7.11895">
        <ele>902</ele>
        <time>2009-05-24T13:58:32Z</time>
      </trkpt>
      <trkpt lat="48.43872" lon="7.11883">
        <ele>922</ele>
        <time>2009-05-24T13:58:39Z</time>
      </trkpt>
      <trkpt lat="48.43876" lon="7.11868">
        <ele>937</ele>
        <time>2009-05-24T13:58:48Z</time>
      </trkpt>
      <trkpt lat="48.43878" lon="7.11854">
        <ele>953</ele>
        <time>2009-05-24T13:58:57Z</time>
      </trkpt>
      <trkpt lat="48.43881" lon="7.11839">
        <ele>968</ele>
        <time>2009-05-24T13:59:03Z</time>
      </trkpt>
      <trkpt lat="48.43879" lon="7.11825">
        <ele>979</ele>
        <time>2009-05-24T13:59:12Z</time>
      </trkpt>
      <trkpt lat="48.43879" lon="7.1181">
        <ele>996</ele>
        <time>2009-05-24T13:59:19Z</time>
      </trkpt>
      <trkpt lat="48.43877" lon="7.11795">
        <ele>1012</ele>
        <time>2009-05-24T13:59:28Z</time>
      </trkpt>
      <trkpt lat="48.43879" lon="7.11781">
        <ele>1022</ele>
        <time>2009-05-24T13:59:34Z</time>
      </trkpt>
      <trkpt lat="48.43881" lon="7.11767">
        <ele>1031</ele>
        <time>2009-05-24T13:59:43Z</time>
      </trkpt>
      <trkpt lat="48.43887" lon="7.1175">
        <ele>1022</ele>
        <time>2009-05-24T13:59:49Z</time>
      </trkpt>
      <trkpt lat="48.43884" lon="7.11736">
        <ele>1022</ele>
        <time>2009-05-24T13:59:58Z</time>
      </trkpt>
      <trkpt lat="48.43877" lon="7.11724">
        <ele>1005</ele>
        <time>2009-05-24T14:00:06Z</time>
      </trkpt>
      <trkpt lat="48.4387" lon="7.11714">
        <ele>983</ele>
        <time>2009-05-24T14:00:14Z</time>
      </trkpt>
      <trkpt lat="48.43861" lon="7.11708">
        <ele>973</ele>
        <time>2009-05-24T14:00:19Z</time>
      </trkpt>
      <trkpt lat="48.4386" lon="7.11694">
        <ele>962</ele>
        <time>2009-05-24T14:00:25Z</time>
      </trkpt>
      <trkpt lat="48.43851" lon="7.11686">
        <ele>943</ele>
        <time>2009-05-24T14:00:31Z</time>
      </trkpt>
      <trkpt lat="48.43845" lon="7.11675">
        <ele>887</ele>
        <time>2009-05-24T14:00:41Z</time>
      </trkpt>
      <trkpt lat="48.43848" lon="7.11661">
        <ele>862</ele>
        <time>2009-05-24T14:00:50Z</time>
      </trkpt>
      <trkpt lat="48.43849" lon="7.11645">
        <ele>862</ele>
        <time>2009-05-24T14:00:56Z</time>
      </trkpt>
      <trkpt lat="48.43842" lon="7.11636">
        <ele>862</ele>
        <time>2009-05-24T14:01:02Z</time>
      </trkpt>
      <trkpt lat="48.43837" lon="7.11623">
        <ele>857</ele>
        <time>2009-05-24T14:01:09Z</time>
      </trkpt>
      <trkpt lat="48.4383" lon="7.11612">
        <ele>857</ele>
        <time>2009-05-24T14:01:16Z</time>
      </trkpt>
      <trkpt lat="48.43826" lon="7.116">
        <ele>857</ele>
        <time>2009-05-24T14:01:23Z</time>
      </trkpt>
      <trkpt lat="48.4382" lon="7.11589">
        <ele>857</ele>
        <time>2009-05-24T14:01:30Z</time>
      </trkpt>
      <trkpt lat="48.4382" lon="7.11574">
        <ele>857</ele>
        <time>2009-05-24T14:01:36Z</time>
      </trkpt>
      <trkpt lat="48.43821" lon="7.1156">
        <ele>857</ele>
        <time>2009-05-24T14:01:44Z</time>
      </trkpt>
      <trkpt lat="48.43821" lon="7.11546">
        <ele>864</ele>
        <time>2009-05-24T14:01:52Z</time>
      </trkpt>
      <trkpt lat="48.43823" lon="7.1153">
        <ele>864</ele>
        <time>2009-05-24T14:02:00Z</time>
      </trkpt>
      <trkpt lat="48.43826" lon="7.11515">
        <ele>873</ele>
        <time>2009-05-24T14:02:08Z</time>
      </trkpt>
      <trkpt lat="48.4383" lon="7.11502">
        <ele>873</ele>
        <time>2009-05-24T14:02:16Z</time>
      </trkpt>
      <trkpt lat="48.43833" lon="7.11487">
        <ele>867</ele>
        <time>2009-05-24T14:02:24Z</time>
      </trkpt>
      <trkpt lat="48.4384" lon="7.11477">
        <ele>867</ele>
        <time>2009-05-24T14:02:32Z</time>
      </trkpt>
      <trkpt lat="48.43846" lon="7.11464">
        <ele>867</ele>
        <time>2009-05-24T14:02:40Z</time>
      </trkpt>
      <trkpt lat="48.43852" lon="7.11452">
        <ele>874</ele>
        <time>2009-05-24T14:02:49Z</time>
      </trkpt>
      <trkpt lat="48.43859" lon="7.11441">
        <ele>880</ele>
        <time>2009-05-24T14:02:57Z</time>
      </trkpt>
      <trkpt lat="48.43866" lon="7.11432">
        <ele>880</ele>
        <time>2009-05-24T14:03:04Z</time>
      </trkpt>
      <trkpt lat="48.43875" lon="7.11423">
        <ele>880</ele>
        <time>2009-05-24T14:03:11Z</time>
      </trkpt>
      <trkpt lat="48.43884" lon="7.11415">
        <ele>880</ele>
        <time>2009-05-24T14:03:19Z</time>
      </trkpt>
      <trkpt lat="48.43893" lon="7.11408">
        <ele>880</ele>
        <time>2009-05-24T14:03:26Z</time>
      </trkpt>
      <trkpt lat="48.43902" lon="7.11402">
        <ele>880</ele>
        <time>2009-05-24T14:03:34Z</time>
      </trkpt>
      <trkpt lat="48.43911" lon="7.11397">
        <ele>880</ele>
        <time>2009-05-24T14:03:41Z</time>
      </trkpt>
      <trkpt lat="48.43921" lon="7.11393">
        <ele>880</ele>
        <time>2009-05-24T14:03:49Z</time>
      </trkpt>
      <trkpt lat="48.43931" lon="7.1139">
        <ele>880</ele>
        <time>2009-05-24T14:03:58Z</time>
      </trkpt>
      <trkpt lat="48.4394" lon="7.11387">
        <ele>880</ele>
        <time>2009-05-24T14:04:09Z</time>
      </trkpt>
      <trkpt lat="48.43948" lon="7.11377">
        <ele>880</ele>
        <time>2009-05-24T14:04:21Z</time>
      </trkpt>
      <trkpt lat="48.43954" lon="7.11365">
        <ele>873</ele>
        <time>2009-05-24T14:04:31Z</time>
      </trkpt>
      <trkpt lat="48.4396" lon="7.11353">
        <ele>873</ele>
        <time>2009-05-24T14:04:42Z</time>
      </trkpt>
      <trkpt lat="48.43968" lon="7.11345">
        <ele>873</ele>
        <time>2009-05-24T14:04:51Z</time>
      </trkpt>
      <trkpt lat="48.43973" lon="7.11332">
        <ele>873</ele>
        <time>2009-05-24T14:05:02Z</time>
      </trkpt>
      <trkpt lat="48.43975" lon="7.11318">
        <ele>867</ele>
        <time>2009-05-24T14:05:27Z</time>
      </trkpt>
      <trkpt lat="48.43983" lon="7.11309">
        <ele>867</ele>
        <time>2009-05-24T14:05:37Z</time>
      </trkpt>
      <trkpt lat="48.43983" lon="7.11294">
        <ele>867</ele>
        <time>2009-05-24T14:05:48Z</time>
      </trkpt>
      <trkpt lat="48.43974" lon="7.11294">
        <ele>867</ele>
        <time>2009-05-24T14:06:33Z</time>
      </trkpt>
      <trkpt lat="48.43974" lon="7.11279">
        <ele>867</ele>
        <time>2009-05-24T14:06:48Z</time>
      </trkpt>
      <trkpt lat="48.43978" lon="7.11266">
        <ele>873</ele>
        <time>2009-05-24T14:06:57Z</time>
      </trkpt>
      <trkpt lat="48.43974" lon="7.11253">
        <ele>873</ele>
        <time>2009-05-24T14:07:10Z</time>
      </trkpt>
      <trkpt lat="48.43976" lon="7.11238">
        <ele>873</ele>
        <time>2009-05-24T14:08:00Z</time>
      </trkpt>
      <trkpt lat="48.43981" lon="7.11225">
        <ele>873</ele>
        <time>2009-05-24T14:08:08Z</time>
      </trkpt>
      <trkpt lat="48.43981" lon="7.11211">
        <ele>873</ele>
        <time>2009-05-24T14:08:16Z</time>
      </trkpt>
      <trkpt lat="48.43983" lon="7.11195">
        <ele>873</ele>
        <time>2009-05-24T14:08:24Z</time>
      </trkpt>
      <trkpt lat="48.4398" lon="7.11181">
        <ele>873</ele>
        <time>2009-05-24T14:08:32Z</time>
      </trkpt>
      <trkpt lat="48.4398" lon="7.11167">
        <ele>879</ele>
        <time>2009-05-24T14:08:40Z</time>
      </trkpt>
      <trkpt lat="48.4398" lon="7.11151">
        <ele>879</ele>
        <time>2009-05-24T14:08:48Z</time>
      </trkpt>
      <trkpt lat="48.43981" lon="7.11137">
        <ele>879</ele>
        <time>2009-05-24T14:08:56Z</time>
      </trkpt>
      <trkpt lat="48.43982" lon="7.11123">
        <ele>879</ele>
        <time>2009-05-24T14:09:05Z</time>
      </trkpt>
      <trkpt lat="48.43982" lon="7.11108">
        <ele>879</ele>
        <time>2009-05-24T14:09:12Z</time>
      </trkpt>
      <trkpt lat="48.43983" lon="7.11093">
        <ele>879</ele>
        <time>2009-05-24T14:09:20Z</time>
      </trkpt>
      <trkpt lat="48.43985" lon="7.11079">
        <ele>879</ele>
        <time>2009-05-24T14:09:27Z</time>
      </trkpt>
      <trkpt lat="48.43985" lon="7.11065">
        <ele>874</ele>
        <time>2009-05-24T14:09:35Z</time>
      </trkpt>
      <trkpt lat="48.43988" lon="7.11052">
        <ele>874</ele>
        <time>2009-05-24T14:09:42Z</time>
      </trkpt>
      <trkpt lat="48.43986" lon="7.11036">
        <ele>874</ele>
        <time>2009-05-24T14:09:50Z</time>
      </trkpt>
      <trkpt lat="48.43984" lon="7.11022">
        <ele>874</ele>
        <time>2009-05-24T14:10:01Z</time>
      </trkpt>
      <trkpt lat="48.43983" lon="7.11008">
        <ele>874</ele>
        <time>2009-05-24T14:10:10Z</time>
      </trkpt>
      <trkpt lat="48.4398" lon="7.10994">
        <ele>874</ele>
        <time>2009-05-24T14:11:19Z</time>
      </trkpt>
      <trkpt lat="48.43984" lon="7.10981">
        <ele>874</ele>
        <time>2009-05-24T14:13:24Z</time>
      </trkpt>
      <trkpt lat="48.43976" lon="7.10987">
        <ele>867</ele>
        <time>2009-05-24T14:13:49Z</time>
      </trkpt>
      <trkpt lat="48.43978" lon="7.10973">
        <ele>873</ele>
        <time>2009-05-24T14:25:22Z</time>
      </trkpt>
      <trkpt lat="48.43983" lon="7.10962">
        <ele>873</ele>
        <time>2009-05-24T14:25:56Z</time>
      </trkpt>
      <trkpt lat="48.43988" lon="7.10948">
        <ele>879</ele>
        <time>2009-05-24T14:26:07Z</time>
      </trkpt>
      <trkpt lat="48.4399" lon="7.10935">
        <ele>879</ele>
        <time>2009-05-24T14:26:18Z</time>
      </trkpt>
      <trkpt lat="48.43992" lon="7.10921">
        <ele>879</ele>
        <time>2009-05-24T14:26:28Z</time>
      </trkpt>
      <trkpt lat="48.43995" lon="7.10908">
        <ele>884</ele>
        <time>2009-05-24T14:26:37Z</time>
      </trkpt>
      <trkpt lat="48.43994" lon="7.10893">
        <ele>884</ele>
        <time>2009-05-24T14:26:47Z</time>
      </trkpt>
      <trkpt lat="48.43993" lon="7.10878">
        <ele>884</ele>
        <time>2009-05-24T14:26:57Z</time>
      </trkpt>
      <trkpt lat="48.43999" lon="7.10867">
        <ele>884</ele>
        <time>2009-05-24T14:27:05Z</time>
      </trkpt>
      <trkpt lat="48.44004" lon="7.10853">
        <ele>884</ele>
        <time>2009-05-24T14:27:12Z</time>
      </trkpt>
      <trkpt lat="48.43998" lon="7.10841">
        <ele>884</ele>
        <time>2009-05-24T14:27:24Z</time>
      </trkpt>
      <trkpt lat="48.43997" lon="7.10826">
        <ele>884</ele>
        <time>2009-05-24T14:27:34Z</time>
      </trkpt>
      <trkpt lat="48.43995" lon="7.10811">
        <ele>884</ele>
        <time>2009-05-24T14:27:44Z</time>
      </trkpt>
      <trkpt lat="48.44003" lon="7.10801">
        <ele>884</ele>
        <time>2009-05-24T14:27:50Z</time>
      </trkpt>
      <trkpt lat="48.44004" lon="7.10786">
        <ele>884</ele>
        <time>2009-05-24T14:28:00Z</time>
      </trkpt>
      <trkpt lat="48.44006" lon="7.10771">
        <ele>884</ele>
        <time>2009-05-24T14:28:09Z</time>
      </trkpt>
      <trkpt lat="48.44006" lon="7.10757">
        <ele>884</ele>
        <time>2009-05-24T14:28:18Z</time>
      </trkpt>
      <trkpt lat="48.43997" lon="7.10756">
        <ele>872</ele>
        <time>2009-05-24T14:28:49Z</time>
      </trkpt>
      <trkpt lat="48.44003" lon="7.10744">
        <ele>878</ele>
        <time>2009-05-24T14:29:40Z</time>
      </trkpt>
      <trkpt lat="48.44006" lon="7.10731">
        <ele>878</ele>
        <time>2009-05-24T14:29:49Z</time>
      </trkpt>
      <trkpt lat="48.44009" lon="7.10717">
        <ele>878</ele>
        <time>2009-05-24T14:29:59Z</time>
      </trkpt>
      <trkpt lat="48.44012" lon="7.10702">
        <ele>878</ele>
        <time>2009-05-24T14:30:08Z</time>
      </trkpt>
      <trkpt lat="48.44017" lon="7.1069">
        <ele>878</ele>
        <time>2009-05-24T14:30:17Z</time>
      </trkpt>
      <trkpt lat="48.44022" lon="7.10678">
        <ele>873</ele>
        <time>2009-05-24T14:30:25Z</time>
      </trkpt>
      <trkpt lat="48.44029" lon="7.10668">
        <ele>873</ele>
        <time>2009-05-24T14:30:33Z</time>
      </trkpt>
      <trkpt lat="48.44037" lon="7.10659">
        <ele>873</ele>
        <time>2009-05-24T14:30:41Z</time>
      </trkpt>
      <trkpt lat="48.44043" lon="7.10648">
        <ele>873</ele>
        <time>2009-05-24T14:30:51Z</time>
      </trkpt>
      <trkpt lat="48.4405" lon="7.10638">
        <ele>873</ele>
        <time>2009-05-24T14:30:59Z</time>
      </trkpt>
      <trkpt lat="48.44058" lon="7.10629">
        <ele>873</ele>
        <time>2009-05-24T14:31:08Z</time>
      </trkpt>
      <trkpt lat="48.44066" lon="7.1062">
        <ele>873</ele>
        <time>2009-05-24T14:31:17Z</time>
      </trkpt>
      <trkpt lat="48.44074" lon="7.10614">
        <ele>873</ele>
        <time>2009-05-24T14:31:29Z</time>
      </trkpt>
      <trkpt lat="48.44083" lon="7.1061">
        <ele>873</ele>
        <time>2009-05-24T14:31:50Z</time>
      </trkpt>
      <trkpt lat="48.44092" lon="7.10603">
        <ele>873</ele>
        <time>2009-05-24T14:32:00Z</time>
      </trkpt>
      <trkpt lat="48.44101" lon="7.10598">
        <ele>873</ele>
        <time>2009-05-24T14:32:09Z</time>
      </trkpt>
      <trkpt lat="48.4411" lon="7.10592">
        <ele>873</ele>
        <time>2009-05-24T14:32:19Z</time>
      </trkpt>
      <trkpt lat="48.44119" lon="7.10585">
        <ele>873</ele>
        <time>2009-05-24T14:32:29Z</time>
      </trkpt>
      <trkpt lat="48.44128" lon="7.10579">
        <ele>873</ele>
        <time>2009-05-24T14:32:38Z</time>
      </trkpt>
      <trkpt lat="48.44138" lon="7.10573">
        <ele>873</ele>
        <time>2009-05-24T14:32:47Z</time>
      </trkpt>
      <trkpt lat="48.44147" lon="7.10568">
        <ele>879</ele>
        <time>2009-05-24T14:32:55Z</time>
      </trkpt>
      <trkpt lat="48.44157" lon="7.10567">
        <ele>879</ele>
        <time>2009-05-24T14:33:05Z</time>
      </trkpt>
      <trkpt lat="48.44166" lon="7.1057">
        <ele>879</ele>
        <time>2009-05-24T14:33:16Z</time>
      </trkpt>
      <trkpt lat="48.44174" lon="7.10579">
        <ele>879</ele>
        <time>2009-05-24T14:33:26Z</time>
      </trkpt>
      <trkpt lat="48.44181" lon="7.10589">
        <ele>885</ele>
        <time>2009-05-24T14:33:36Z</time>
      </trkpt>
      <trkpt lat="48.4419" lon="7.10596">
        <ele>885</ele>
        <time>2009-05-24T14:33:45Z</time>
      </trkpt>
      <trkpt lat="48.44198" lon="7.10603">
        <ele>885</ele>
        <time>2009-05-24T14:33:54Z</time>
      </trkpt>
      <trkpt lat="48.44206" lon="7.10611">
        <ele>885</ele>
        <time>2009-05-24T14:34:03Z</time>
      </trkpt>
      <trkpt lat="48.44215" lon="7.10616">
        <ele>885</ele>
        <time>2009-05-24T14:34:11Z</time>
      </trkpt>
      <trkpt lat="48.44225" lon="7.10621">
        <ele>885</ele>
        <time>2009-05-24T14:34:20Z</time>
      </trkpt>
      <trkpt lat="48.44234" lon="7.10625">
        <ele>885</ele>
        <time>2009-05-24T14:34:28Z</time>
      </trkpt>
      <trkpt lat="48.44243" lon="7.10627">
        <ele>885</ele>
        <time>2009-05-24T14:34:36Z</time>
      </trkpt>
      <trkpt lat="48.44253" lon="7.10629">
        <ele>885</ele>
        <time>2009-05-24T14:34:44Z</time>
      </trkpt>
      <trkpt lat="48.44264" lon="7.1063">
        <ele>892</ele>
        <time>2009-05-24T14:34:54Z</time>
      </trkpt>
      <trkpt lat="48.44273" lon="7.10634">
        <ele>892</ele>
        <time>2009-05-24T14:35:02Z</time>
      </trkpt>
      <trkpt lat="48.44282" lon="7.10638">
        <ele>892</ele>
        <time>2009-05-24T14:35:14Z</time>
      </trkpt>
      <trkpt lat="48.44291" lon="7.10645">
        <ele>899</ele>
        <time>2009-05-24T14:35:24Z</time>
      </trkpt>
      <trkpt lat="48.44301" lon="7.1065">
        <ele>899</ele>
        <time>2009-05-24T14:35:31Z</time>
      </trkpt>
      <trkpt lat="48.4431" lon="7.10658">
        <ele>899</ele>
        <time>2009-05-24T14:35:44Z</time>
      </trkpt>
      <trkpt lat="48.44319" lon="7.10664">
        <ele>905</ele>
        <time>2009-05-24T14:35:51Z</time>
      </trkpt>
      <trkpt lat="48.44329" lon="7.10666">
        <ele>905</ele>
        <time>2009-05-24T14:35:59Z</time>
      </trkpt>
      <trkpt lat="48.44339" lon="7.10667">
        <ele>905</ele>
        <time>2009-05-24T14:36:09Z</time>
      </trkpt>
      <trkpt lat="48.44349" lon="7.10669">
        <ele>912</ele>
        <time>2009-05-24T14:36:21Z</time>
      </trkpt>
      <trkpt lat="48.44359" lon="7.10667">
        <ele>912</ele>
        <time>2009-05-24T14:36:29Z</time>
      </trkpt>
      <trkpt lat="48.44368" lon="7.10667">
        <ele>919</ele>
        <time>2009-05-24T14:36:40Z</time>
      </trkpt>
      <trkpt lat="48.44379" lon="7.10665">
        <ele>919</ele>
        <time>2009-05-24T14:36:47Z</time>
      </trkpt>
      <trkpt lat="48.44389" lon="7.1066">
        <ele>919</ele>
        <time>2009-05-24T14:36:54Z</time>
      </trkpt>
      <trkpt lat="48.44396" lon="7.10651">
        <ele>913</ele>
        <time>2009-05-24T14:37:02Z</time>
      </trkpt>
      <trkpt lat="48.44402" lon="7.1064">
        <ele>913</ele>
        <time>2009-05-24T14:37:11Z</time>
      </trkpt>
      <trkpt lat="48.44408" lon="7.10629">
        <ele>913</ele>
        <time>2009-05-24T14:37:19Z</time>
      </trkpt>
      <trkpt lat="48.44415" lon="7.1062">
        <ele>913</ele>
        <time>2009-05-24T14:37:27Z</time>
      </trkpt>
      <trkpt lat="48.44422" lon="7.10609">
        <ele>913</ele>
        <time>2009-05-24T14:37:35Z</time>
      </trkpt>
      <trkpt lat="48.44428" lon="7.10597">
        <ele>913</ele>
        <time>2009-05-24T14:37:43Z</time>
      </trkpt>
      <trkpt lat="48.44432" lon="7.10584">
        <ele>913</ele>
        <time>2009-05-24T14:37:52Z</time>
      </trkpt>
      <trkpt lat="48.44436" lon="7.10571">
        <ele>913</ele>
        <time>2009-05-24T14:38:00Z</time>
      </trkpt>
      <trkpt lat="48.44439" lon="7.10557">
        <ele>913</ele>
        <time>2009-05-24T14:38:08Z</time>
      </trkpt>
      <trkpt lat="48.44444" lon="7.10542">
        <ele>913</ele>
        <time>2009-05-24T14:38:17Z</time>
      </trkpt>
      <trkpt lat="48.44449" lon="7.10529">
        <ele>913</ele>
        <time>2009-05-24T14:38:25Z</time>
      </trkpt>
      <trkpt lat="48.44453" lon="7.10515">
        <ele>913</ele>
        <time>2009-05-24T14:38:33Z</time>
      </trkpt>
      <trkpt lat="48.44458" lon="7.10504">
        <ele>913</ele>
        <time>2009-05-24T14:38:41Z</time>
      </trkpt>
      <trkpt lat="48.44462" lon="7.1049">
        <ele>913</ele>
        <time>2009-05-24T14:38:49Z</time>
      </trkpt>
      <trkpt lat="48.44466" lon="7.10476">
        <ele>913</ele>
        <time>2009-05-24T14:38:58Z</time>
      </trkpt>
      <trkpt lat="48.4447" lon="7.10461">
        <ele>913</ele>
        <time>2009-05-24T14:39:07Z</time>
      </trkpt>
      <trkpt lat="48.44474" lon="7.10448">
        <ele>913</ele>
        <time>2009-05-24T14:39:16Z</time>
      </trkpt>
      <trkpt lat="48.4448" lon="7.10435">
        <ele>913</ele>
        <time>2009-05-24T14:39:24Z</time>
      </trkpt>
      <trkpt lat="48.44485" lon="7.10423">
        <ele>913</ele>
        <time>2009-05-24T14:39:32Z</time>
      </trkpt>
      <trkpt lat="48.44491" lon="7.1041">
        <ele>913</ele>
        <time>2009-05-24T14:39:41Z</time>
      </trkpt>
      <trkpt lat="48.44497" lon="7.10399">
        <ele>913</ele>
        <time>2009-05-24T14:39:50Z</time>
      </trkpt>
      <trkpt lat="48.44505" lon="7.10389">
        <ele>913</ele>
        <time>2009-05-24T14:39:58Z</time>
      </trkpt>
      <trkpt lat="48.44512" lon="7.10381">
        <ele>913</ele>
        <time>2009-05-24T14:40:13Z</time>
      </trkpt>
      <trkpt lat="48.44518" lon="7.10369">
        <ele>913</ele>
        <time>2009-05-24T14:40:22Z</time>
      </trkpt>
      <trkpt lat="48.44524" lon="7.10356">
        <ele>913</ele>
        <time>2009-05-24T14:40:31Z</time>
      </trkpt>
      <trkpt lat="48.44528" lon="7.10344">
        <ele>913</ele>
        <time>2009-05-24T14:40:38Z</time>
      </trkpt>
      <trkpt lat="48.44536" lon="7.10335">
        <ele>913</ele>
        <time>2009-05-24T14:40:46Z</time>
      </trkpt>
      <trkpt lat="48.44542" lon="7.10325">
        <ele>918</ele>
        <time>2009-05-24T14:40:56Z</time>
      </trkpt>
      <trkpt lat="48.44552" lon="7.10321">
        <ele>928</ele>
        <time>2009-05-24T14:41:58Z</time>
      </trkpt>
      <trkpt lat="48.44562" lon="7.10314">
        <ele>928</ele>
        <time>2009-05-24T14:42:06Z</time>
      </trkpt>
      <trkpt lat="48.44571" lon="7.10308">
        <ele>928</ele>
        <time>2009-05-24T14:42:13Z</time>
      </trkpt>
      <trkpt lat="48.44579" lon="7.10297">
        <ele>928</ele>
        <time>2009-05-24T14:42:21Z</time>
      </trkpt>
      <trkpt lat="48.44586" lon="7.10289">
        <ele>928</ele>
        <time>2009-05-24T14:42:30Z</time>
      </trkpt>
      <trkpt lat="48.44595" lon="7.10284">
        <ele>920</ele>
        <time>2009-05-24T14:42:37Z</time>
      </trkpt>
      <trkpt lat="48.44604" lon="7.10277">
        <ele>920</ele>
        <time>2009-05-24T14:42:43Z</time>
      </trkpt>
      <trkpt lat="48.4461" lon="7.10288">
        <ele>896</ele>
        <time>2009-05-24T14:43:39Z</time>
      </trkpt>
      <trkpt lat="48.44618" lon="7.1028">
        <ele>904</ele>
        <time>2009-05-24T14:44:07Z</time>
      </trkpt>
      <trkpt lat="48.44627" lon="7.10284">
        <ele>914</ele>
        <time>2009-05-24T14:44:31Z</time>
      </trkpt>
      <trkpt lat="48.44637" lon="7.10282">
        <ele>914</ele>
        <time>2009-05-24T14:44:38Z</time>
      </trkpt>
      <trkpt lat="48.44646" lon="7.10275">
        <ele>914</ele>
        <time>2009-05-24T14:44:46Z</time>
      </trkpt>
      <trkpt lat="48.44655" lon="7.10268">
        <ele>914</ele>
        <time>2009-05-24T14:44:54Z</time>
      </trkpt>
      <trkpt lat="48.44662" lon="7.10259">
        <ele>907</ele>
        <time>2009-05-24T14:45:04Z</time>
      </trkpt>
      <trkpt lat="48.4467" lon="7.1025">
        <ele>907</ele>
        <time>2009-05-24T14:45:13Z</time>
      </trkpt>
      <trkpt lat="48.44679" lon="7.10242">
        <ele>907</ele>
        <time>2009-05-24T14:45:22Z</time>
      </trkpt>
      <trkpt lat="48.44686" lon="7.10234">
        <ele>907</ele>
        <time>2009-05-24T14:45:30Z</time>
      </trkpt>
      <trkpt lat="48.44695" lon="7.10225">
        <ele>907</ele>
        <time>2009-05-24T14:45:38Z</time>
      </trkpt>
      <trkpt lat="48.44702" lon="7.10216">
        <ele>907</ele>
        <time>2009-05-24T14:45:46Z</time>
      </trkpt>
      <trkpt lat="48.44708" lon="7.10206">
        <ele>907</ele>
        <time>2009-05-24T14:45:55Z</time>
      </trkpt>
      <trkpt lat="48.44716" lon="7.10196">
        <ele>902</ele>
        <time>2009-05-24T14:46:04Z</time>
      </trkpt>
      <trkpt lat="48.44724" lon="7.1019">
        <ele>902</ele>
        <time>2009-05-24T14:46:12Z</time>
      </trkpt>
      <trkpt lat="48.44729" lon="7.10178">
        <ele>902</ele>
        <time>2009-05-24T14:46:32Z</time>
      </trkpt>
      <trkpt lat="48.44736" lon="7.10169">
        <ele>902</ele>
        <time>2009-05-24T14:46:59Z</time>
      </trkpt>
      <trkpt lat="48.44745" lon="7.10162">
        <ele>902</ele>
        <time>2009-05-24T14:47:13Z</time>
      </trkpt>
      <trkpt lat="48.44751" lon="7.10152">
        <ele>902</ele>
        <time>2009-05-24T14:47:23Z</time>
      </trkpt>
      <trkpt lat="48.44759" lon="7.10143">
        <ele>896</ele>
        <time>2009-05-24T14:47:32Z</time>
      </trkpt>
      <trkpt lat="48.44768" lon="7.10139">
        <ele>896</ele>
        <time>2009-05-24T14:47:44Z</time>
      </trkpt>
      <trkpt lat="48.44777" lon="7.10133">
        <ele>896</ele>
        <time>2009-05-24T14:47:57Z</time>
      </trkpt>
      <trkpt lat="48.44786" lon="7.10128">
        <ele>896</ele>
        <time>2009-05-24T14:48:05Z</time>
      </trkpt>
      <trkpt lat="48.44794" lon="7.10124">
        <ele>896</ele>
        <time>2009-05-24T14:48:14Z</time>
      </trkpt>
      <trkpt lat="48.44804" lon="7.10118">
        <ele>896</ele>
        <time>2009-05-24T14:48:24Z</time>
      </trkpt>
      <trkpt lat="48.44813" lon="7.10114">
        <ele>896</ele>
        <time>2009-05-24T14:48:32Z</time>
      </trkpt>
      <trkpt lat="48.44823" lon="7.10108">
        <ele>896</ele>
        <time>2009-05-24T14:48:41Z</time>
      </trkpt>
      <trkpt lat="48.44832" lon="7.10104">
        <ele>896</ele>
        <time>2009-05-24T14:48:49Z</time>
      </trkpt>
      <trkpt lat="48.4484" lon="7.101">
        <ele>896</ele>
        <time>2009-05-24T14:48:57Z</time>
      </trkpt>
      <trkpt lat="48.44851" lon="7.10097">
        <ele>896</ele>
        <time>2009-05-24T14:49:06Z</time>
      </trkpt>
      <trkpt lat="48.44861" lon="7.10094">
        <ele>896</ele>
        <time>2009-05-24T14:49:15Z</time>
      </trkpt>
      <trkpt lat="48.44871" lon="7.10093">
        <ele>896</ele>
        <time>2009-05-24T14:49:24Z</time>
      </trkpt>
      <trkpt lat="48.44881" lon="7.1009">
        <ele>896</ele>
        <time>2009-05-24T14:49:33Z</time>
      </trkpt>
      <trkpt lat="48.4489" lon="7.10088">
        <ele>896</ele>
        <time>2009-05-24T14:49:42Z</time>
      </trkpt>
      <trkpt lat="48.449" lon="7.10085">
        <ele>896</ele>
        <time>2009-05-24T14:49:51Z</time>
      </trkpt>
      <trkpt lat="48.4491" lon="7.10082">
        <ele>896</ele>
        <time>2009-05-24T14:50:01Z</time>
      </trkpt>
      <trkpt lat="48.4492" lon="7.1008">
        <ele>896</ele>
        <time>2009-05-24T14:50:09Z</time>
      </trkpt>
      <trkpt lat="48.4493" lon="7.10078">
        <ele>896</ele>
        <time>2009-05-24T14:50:19Z</time>
      </trkpt>
      <trkpt lat="48.4494" lon="7.10074">
        <ele>896</ele>
        <time>2009-05-24T14:50:29Z</time>
      </trkpt>
      <trkpt lat="48.4495" lon="7.10073">
        <ele>896</ele>
        <time>2009-05-24T14:50:38Z</time>
      </trkpt>
      <trkpt lat="48.44959" lon="7.10072">
        <ele>896</ele>
        <time>2009-05-24T14:50:47Z</time>
      </trkpt>
      <trkpt lat="48.44969" lon="7.10071">
        <ele>896</ele>
        <time>2009-05-24T14:50:56Z</time>
      </trkpt>
      <trkpt lat="48.44979" lon="7.1007">
        <ele>896</ele>
        <time>2009-05-24T14:51:05Z</time>
      </trkpt>
      <trkpt lat="48.44988" lon="7.10069">
        <ele>896</ele>
        <time>2009-05-24T14:51:14Z</time>
      </trkpt>
      <trkpt lat="48.44998" lon="7.1007">
        <ele>896</ele>
        <time>2009-05-24T14:51:22Z</time>
      </trkpt>
      <trkpt lat="48.45008" lon="7.10073">
        <ele>896</ele>
        <time>2009-05-24T14:51:33Z</time>
      </trkpt>
      <trkpt lat="48.45017" lon="7.10078">
        <ele>896</ele>
        <time>2009-05-24T14:51:42Z</time>
      </trkpt>
      <trkpt lat="48.45026" lon="7.10081">
        <ele>896</ele>
        <time>2009-05-24T14:51:51Z</time>
      </trkpt>
      <trkpt lat="48.45035" lon="7.10086">
        <ele>896</ele>
        <time>2009-05-24T14:52:01Z</time>
      </trkpt>
      <trkpt lat="48.45045" lon="7.1009">
        <ele>896</ele>
        <time>2009-05-24T14:52:11Z</time>
      </trkpt>
      <trkpt lat="48.45054" lon="7.10093">
        <ele>896</ele>
        <time>2009-05-24T14:52:22Z</time>
      </trkpt>
      <trkpt lat="48.45065" lon="7.10096">
        <ele>896</ele>
        <time>2009-05-24T14:52:32Z</time>
      </trkpt>
      <trkpt lat="48.45074" lon="7.10099">
        <ele>896</ele>
        <time>2009-05-24T14:52:40Z</time>
      </trkpt>
      <trkpt lat="48.45083" lon="7.10099">
        <ele>896</ele>
        <time>2009-05-24T14:52:49Z</time>
      </trkpt>
      <trkpt lat="48.45093" lon="7.10101">
        <ele>896</ele>
        <time>2009-05-24T14:52:58Z</time>
      </trkpt>
      <trkpt lat="48.45103" lon="7.10104">
        <ele>896</ele>
        <time>2009-05-24T14:53:07Z</time>
      </trkpt>
      <trkpt lat="48.45113" lon="7.10105">
        <ele>896</ele>
        <time>2009-05-24T14:53:16Z</time>
      </trkpt>
      <trkpt lat="48.45122" lon="7.1011">
        <ele>896</ele>
        <time>2009-05-24T14:53:24Z</time>
      </trkpt>
      <trkpt lat="48.45132" lon="7.10113">
        <ele>896</ele>
        <time>2009-05-24T14:53:33Z</time>
      </trkpt>
      <trkpt lat="48.45142" lon="7.10114">
        <ele>896</ele>
        <time>2009-05-24T14:53:44Z</time>
      </trkpt>
      <trkpt lat="48.45151" lon="7.10116">
        <ele>896</ele>
        <time>2009-05-24T14:53:53Z</time>
      </trkpt>
      <trkpt lat="48.45161" lon="7.10118">
        <ele>896</ele>
        <time>2009-05-24T14:54:01Z</time>
      </trkpt>
      <trkpt lat="48.4517" lon="7.1012">
        <ele>896</ele>
        <time>2009-05-24T14:54:10Z</time>
      </trkpt>
      <trkpt lat="48.45179" lon="7.10124">
        <ele>896</ele>
        <time>2009-05-24T14:54:18Z</time>
      </trkpt>
      <trkpt lat="48.45188" lon="7.1013">
        <ele>896</ele>
        <time>2009-05-24T14:54:27Z</time>
      </trkpt>
      <trkpt lat="48.45198" lon="7.10135">
        <ele>902</ele>
        <time>2009-05-24T14:54:37Z</time>
      </trkpt>
      <trkpt lat="48.45206" lon="7.10142">
        <ele>902</ele>
        <time>2009-05-24T14:54:45Z</time>
      </trkpt>
      <trkpt lat="48.45215" lon="7.10147">
        <ele>902</ele>
        <time>2009-05-24T14:54:54Z</time>
      </trkpt>
      <trkpt lat="48.45225" lon="7.10152">
        <ele>902</ele>
        <time>2009-05-24T14:55:03Z</time>
      </trkpt>
      <trkpt lat="48.45233" lon="7.10161">
        <ele>902</ele>
        <time>2009-05-24T14:55:11Z</time>
      </trkpt>
      <trkpt lat="48.45241" lon="7.10167">
        <ele>902</ele>
        <time>2009-05-24T14:55:20Z</time>
      </trkpt>
      <trkpt lat="48.4525" lon="7.10175">
        <ele>902</ele>
        <time>2009-05-24T14:55:29Z</time>
      </trkpt>
      <trkpt lat="48.45259" lon="7.10182">
        <ele>902</ele>
        <time>2009-05-24T14:55:38Z</time>
      </trkpt>
      <trkpt lat="48.45269" lon="7.10186">
        <ele>902</ele>
        <time>2009-05-24T14:55:47Z</time>
      </trkpt>
      <trkpt lat="48.45277" lon="7.10194">
        <ele>902</ele>
        <time>2009-05-24T14:55:55Z</time>
      </trkpt>
      <trkpt lat="48.45285" lon="7.10201">
        <ele>902</ele>
        <time>2009-05-24T14:56:03Z</time>
      </trkpt>
      <trkpt lat="48.45293" lon="7.10209">
        <ele>902</ele>
        <time>2009-05-24T14:56:12Z</time>
      </trkpt>
      <trkpt lat="48.45302" lon="7.10218">
        <ele>902</ele>
        <time>2009-05-24T14:56:21Z</time>
      </trkpt>
      <trkpt lat="48.45311" lon="7.10226">
        <ele>902</ele>
        <time>2009-05-24T14:56:32Z</time>
      </trkpt>
      <trkpt lat="48.45319" lon="7.10233">
        <ele>902</ele>
        <time>2009-05-24T14:56:41Z</time>
      </trkpt>
      <trkpt lat="48.45327" lon="7.10241">
        <ele>902</ele>
        <time>2009-05-24T14:56:50Z</time>
      </trkpt>
      <trkpt lat="48.45335" lon="7.1025">
        <ele>902</ele>
        <time>2009-05-24T14:57:02Z</time>
      </trkpt>
      <trkpt lat="48.45342" lon="7.10259">
        <ele>902</ele>
        <time>2009-05-24T14:57:14Z</time>
      </trkpt>
      <trkpt lat="48.4535" lon="7.10269">
        <ele>902</ele>
        <time>2009-05-24T14:57:24Z</time>
      </trkpt>
      <trkpt lat="48.45357" lon="7.10278">
        <ele>902</ele>
        <time>2009-05-24T14:57:33Z</time>
      </trkpt>
      <trkpt lat="48.45365" lon="7.10288">
        <ele>902</ele>
        <time>2009-05-24T14:58:23Z</time>
      </trkpt>
      <trkpt lat="48.45373" lon="7.10296">
        <ele>902</ele>
        <time>2009-05-24T14:58:54Z</time>
      </trkpt>
      <trkpt lat="48.4538" lon="7.10307">
        <ele>902</ele>
        <time>2009-05-24T14:59:04Z</time>
      </trkpt>
      <trkpt lat="48.45388" lon="7.10317">
        <ele>902</ele>
        <time>2009-05-24T14:59:14Z</time>
      </trkpt>
      <trkpt lat="48.45397" lon="7.10324">
        <ele>902</ele>
        <time>2009-05-24T14:59:23Z</time>
      </trkpt>
      <trkpt lat="48.45406" lon="7.10329">
        <ele>902</ele>
        <time>2009-05-24T14:59:33Z</time>
      </trkpt>
      <trkpt lat="48.45416" lon="7.10335">
        <ele>908</ele>
        <time>2009-05-24T14:59:43Z</time>
      </trkpt>
      <trkpt lat="48.45426" lon="7.10338">
        <ele>908</ele>
        <time>2009-05-24T14:59:52Z</time>
      </trkpt>
      <trkpt lat="48.45433" lon="7.10346">
        <ele>908</ele>
        <time>2009-05-24T15:00:03Z</time>
      </trkpt>
      <trkpt lat="48.4544" lon="7.10357">
        <ele>908</ele>
        <time>2009-05-24T15:00:15Z</time>
      </trkpt>
      <trkpt lat="48.45446" lon="7.10367">
        <ele>908</ele>
        <time>2009-05-24T15:00:23Z</time>
      </trkpt>
      <trkpt lat="48.45453" lon="7.10377">
        <ele>908</ele>
        <time>2009-05-24T15:00:31Z</time>
      </trkpt>
      <trkpt lat="48.4546" lon="7.10386">
        <ele>908</ele>
        <time>2009-05-24T15:00:40Z</time>
      </trkpt>
      <trkpt lat="48.45467" lon="7.10395">
        <ele>908</ele>
        <time>2009-05-24T15:00:51Z</time>
      </trkpt>
      <trkpt lat="48.45475" lon="7.10405">
        <ele>908</ele>
        <time>2009-05-24T15:01:02Z</time>
      </trkpt>
      <trkpt lat="48.45483" lon="7.10413">
        <ele>908</ele>
        <time>2009-05-24T15:01:11Z</time>
      </trkpt>
      <trkpt lat="48.45492" lon="7.10419">
        <ele>908</ele>
        <time>2009-05-24T15:01:19Z</time>
      </trkpt>
      <trkpt lat="48.45501" lon="7.10426">
        <ele>908</ele>
        <time>2009-05-24T15:01:28Z</time>
      </trkpt>
      <trkpt lat="48.45509" lon="7.10433">
        <ele>908</ele>
        <time>2009-05-24T15:01:36Z</time>
      </trkpt>
      <trkpt lat="48.45517" lon="7.10441">
        <ele>908</ele>
        <time>2009-05-24T15:01:46Z</time>
      </trkpt>
      <trkpt lat="48.45525" lon="7.1045">
        <ele>908</ele>
        <time>2009-05-24T15:01:56Z</time>
      </trkpt>
      <trkpt lat="48.45533" lon="7.10458">
        <ele>908</ele>
        <time>2009-05-24T15:02:05Z</time>
      </trkpt>
      <trkpt lat="48.45541" lon="7.10467">
        <ele>908</ele>
        <time>2009-05-24T15:02:17Z</time>
      </trkpt>
      <trkpt lat="48.4555" lon="7.10472">
        <ele>908</ele>
        <time>2009-05-24T15:02:25Z</time>
      </trkpt>
      <trkpt lat="48.45558" lon="7.10479">
        <ele>908</ele>
        <time>2009-05-24T15:02:34Z</time>
      </trkpt>
      <trkpt lat="48.45568" lon="7.10485">
        <ele>908</ele>
        <time>2009-05-24T15:02:44Z</time>
      </trkpt>
      <trkpt lat="48.45577" lon="7.1049">
        <ele>908</ele>
        <time>2009-05-24T15:02:53Z</time>
      </trkpt>
      <trkpt lat="48.45587" lon="7.10493">
        <ele>908</ele>
        <time>2009-05-24T15:03:03Z</time>
      </trkpt>
      <trkpt lat="48.45596" lon="7.10492">
        <ele>908</ele>
        <time>2009-05-24T15:03:41Z</time>
      </trkpt>
      <trkpt lat="48.45605" lon="7.10499">
        <ele>908</ele>
        <time>2009-05-24T15:04:01Z</time>
      </trkpt>
      <trkpt lat="48.45614" lon="7.10504">
        <ele>908</ele>
        <time>2009-05-24T15:04:10Z</time>
      </trkpt>
      <trkpt lat="48.45624" lon="7.10509">
        <ele>908</ele>
        <time>2009-05-24T15:04:21Z</time>
      </trkpt>
      <trkpt lat="48.45634" lon="7.10512">
        <ele>908</ele>
        <time>2009-05-24T15:04:31Z</time>
      </trkpt>
      <trkpt lat="48.45643" lon="7.10516">
        <ele>908</ele>
        <time>2009-05-24T15:04:40Z</time>
      </trkpt>
      <trkpt lat="48.45652" lon="7.10521">
        <ele>908</ele>
        <time>2009-05-24T15:04:48Z</time>
      </trkpt>
      <trkpt lat="48.45662" lon="7.10525">
        <ele>908</ele>
        <time>2009-05-24T15:04:57Z</time>
      </trkpt>
      <trkpt lat="48.45671" lon="7.1053">
        <ele>908</ele>
        <time>2009-05-24T15:05:08Z</time>
      </trkpt>
      <trkpt lat="48.45681" lon="7.10536">
        <ele>908</ele>
        <time>2009-05-24T15:05:20Z</time>
      </trkpt>
      <trkpt lat="48.4569" lon="7.1054">
        <ele>908</ele>
        <time>2009-05-24T15:05:28Z</time>
      </trkpt>
      <trkpt lat="48.45699" lon="7.10545">
        <ele>908</ele>
        <time>2009-05-24T15:05:36Z</time>
      </trkpt>
      <trkpt lat="48.45709" lon="7.10549">
        <ele>908</ele>
        <time>2009-05-24T15:05:44Z</time>
      </trkpt>
      <trkpt lat="48.45718" lon="7.10554">
        <ele>908</ele>
        <time>2009-05-24T15:05:52Z</time>
      </trkpt>
      <trkpt lat="48.45728" lon="7.10558">
        <ele>908</ele>
        <time>2009-05-24T15:06:01Z</time>
      </trkpt>
      <trkpt lat="48.45737" lon="7.10562">
        <ele>908</ele>
        <time>2009-05-24T15:06:09Z</time>
      </trkpt>
      <trkpt lat="48.45747" lon="7.10566">
        <ele>903</ele>
        <time>2009-05-24T15:06:19Z</time>
      </trkpt>
      <trkpt lat="48.45755" lon="7.10572">
        <ele>903</ele>
        <time>2009-05-24T15:06:28Z</time>
      </trkpt>
      <trkpt lat="48.45764" lon="7.10579">
        <ele>903</ele>
        <time>2009-05-24T15:06:37Z</time>
      </trkpt>
      <trkpt lat="48.45772" lon="7.10587">
        <ele>903</ele>
        <time>2009-05-24T15:06:45Z</time>
      </trkpt>
      <trkpt lat="48.4578" lon="7.10595">
        <ele>903</ele>
        <time>2009-05-24T15:06:55Z</time>
      </trkpt>
      <trkpt lat="48.45789" lon="7.10602">
        <ele>903</ele>
        <time>2009-05-24T15:07:03Z</time>
      </trkpt>
      <trkpt lat="48.45797" lon="7.1061">
        <ele>897</ele>
        <time>2009-05-24T15:07:13Z</time>
      </trkpt>
      <trkpt lat="48.45806" lon="7.10618">
        <ele>897</ele>
        <time>2009-05-24T15:07:23Z</time>
      </trkpt>
      <trkpt lat="48.45815" lon="7.10625">
        <ele>897</ele>
        <time>2009-05-24T15:07:32Z</time>
      </trkpt>
      <trkpt lat="48.45823" lon="7.1063">
        <ele>897</ele>
        <time>2009-05-24T15:07:40Z</time>
      </trkpt>
      <trkpt lat="48.45832" lon="7.10637">
        <ele>897</ele>
        <time>2009-05-24T15:07:50Z</time>
      </trkpt>
      <trkpt lat="48.45843" lon="7.10639">
        <ele>897</ele>
        <time>2009-05-24T15:07:58Z</time>
      </trkpt>
      <trkpt lat="48.45852" lon="7.10643">
        <ele>897</ele>
        <time>2009-05-24T15:08:07Z</time>
      </trkpt>
      <trkpt lat="48.45861" lon="7.10649">
        <ele>897</ele>
        <time>2009-05-24T15:08:15Z</time>
      </trkpt>
      <trkpt lat="48.45869" lon="7.10656">
        <ele>897</ele>
        <time>2009-05-24T15:08:24Z</time>
      </trkpt>
      <trkpt lat="48.45877" lon="7.10666">
        <ele>897</ele>
        <time>2009-05-24T15:08:35Z</time>
      </trkpt>
      <trkpt lat="48.45885" lon="7.10675">
        <ele>897</ele>
        <time>2009-05-24T15:08:43Z</time>
      </trkpt>
      <trkpt lat="48.45894" lon="7.10683">
        <ele>897</ele>
        <time>2009-05-24T15:08:52Z</time>
      </trkpt>
      <trkpt lat="48.45901" lon="7.10692">
        <ele>897</ele>
        <time>2009-05-24T15:09:00Z</time>
      </trkpt>
      <trkpt lat="48.4591" lon="7.10699">
        <ele>897</ele>
        <time>2009-05-24T15:09:08Z</time>
      </trkpt>
      <trkpt lat="48.45917" lon="7.1071">
        <ele>897</ele>
        <time>2009-05-24T15:09:18Z</time>
      </trkpt>
      <trkpt lat="48.45923" lon="7.10721">
        <ele>897</ele>
        <time>2009-05-24T15:09:26Z</time>
      </trkpt>
      <trkpt lat="48.4593" lon="7.10731">
        <ele>897</ele>
        <time>2009-05-24T15:09:34Z</time>
      </trkpt>
      <trkpt lat="48.45936" lon="7.10741">
        <ele>897</ele>
        <time>2009-05-24T15:09:43Z</time>
      </trkpt>
      <trkpt lat="48.45944" lon="7.10752">
        <ele>897</ele>
        <time>2009-05-24T15:09:51Z</time>
      </trkpt>
      <trkpt lat="48.45952" lon="7.10761">
        <ele>897</ele>
        <time>2009-05-24T15:09:59Z</time>
      </trkpt>
      <trkpt lat="48.45958" lon="7.1077">
        <ele>897</ele>
        <time>2009-05-24T15:10:06Z</time>
      </trkpt>
      <trkpt lat="48.45965" lon="7.10782">
        <ele>897</ele>
        <time>2009-05-24T15:10:15Z</time>
      </trkpt>
      <trkpt lat="48.45973" lon="7.10793">
        <ele>897</ele>
        <time>2009-05-24T15:10:24Z</time>
      </trkpt>
      <trkpt lat="48.45981" lon="7.10801">
        <ele>897</ele>
        <time>2009-05-24T15:10:32Z</time>
      </trkpt>
      <trkpt lat="48.45988" lon="7.1081">
        <ele>897</ele>
        <time>2009-05-24T15:10:41Z</time>
      </trkpt>
      <trkpt lat="48.45996" lon="7.10821">
        <ele>897</ele>
        <time>2009-05-24T15:10:50Z</time>
      </trkpt>
      <trkpt lat="48.46003" lon="7.10831">
        <ele>897</ele>
        <time>2009-05-24T15:10:58Z</time>
      </trkpt>
      <trkpt lat="48.4601" lon="7.10841">
        <ele>897</ele>
        <time>2009-05-24T15:11:06Z</time>
      </trkpt>
      <trkpt lat="48.46016" lon="7.10852">
        <ele>897</ele>
        <time>2009-05-24T15:11:15Z</time>
      </trkpt>
      <trkpt lat="48.46024" lon="7.10863">
        <ele>897</ele>
        <time>2009-05-24T15:11:24Z</time>
      </trkpt>
      <trkpt lat="48.46032" lon="7.1087">
        <ele>897</ele>
        <time>2009-05-24T15:11:32Z</time>
      </trkpt>
      <trkpt lat="48.46041" lon="7.10879">
        <ele>897</ele>
        <time>2009-05-24T15:11:44Z</time>
      </trkpt>
      <trkpt lat="48.4605" lon="7.10887">
        <ele>904</ele>
        <time>2009-05-24T15:11:55Z</time>
      </trkpt>
      <trkpt lat="48.46058" lon="7.10897">
        <ele>904</ele>
        <time>2009-05-24T15:12:05Z</time>
      </trkpt>
      <trkpt lat="48.46065" lon="7.10906">
        <ele>904</ele>
        <time>2009-05-24T15:12:14Z</time>
      </trkpt>
      <trkpt lat="48.46073" lon="7.10914">
        <ele>904</ele>
        <time>2009-05-24T15:12:26Z</time>
      </trkpt>
      <trkpt lat="48.46082" lon="7.10923">
        <ele>904</ele>
        <time>2009-05-24T15:12:34Z</time>
      </trkpt>
      <trkpt lat="48.46091" lon="7.10929">
        <ele>904</ele>
        <time>2009-05-24T15:12:42Z</time>
      </trkpt>
      <trkpt lat="48.46099" lon="7.10936">
        <ele>904</ele>
        <time>2009-05-24T15:12:50Z</time>
      </trkpt>
      <trkpt lat="48.46107" lon="7.10944">
        <ele>904</ele>
        <time>2009-05-24T15:12:58Z</time>
      </trkpt>
      <trkpt lat="48.46116" lon="7.10954">
        <ele>911</ele>
        <time>2009-05-24T15:13:07Z</time>
      </trkpt>
      <trkpt lat="48.46125" lon="7.10958">
        <ele>911</ele>
        <time>2009-05-24T15:13:15Z</time>
      </trkpt>
      <trkpt lat="48.46134" lon="7.10964">
        <ele>911</ele>
        <time>2009-05-24T15:13:24Z</time>
      </trkpt>
      <trkpt lat="48.46143" lon="7.10971">
        <ele>911</ele>
        <time>2009-05-24T15:13:32Z</time>
      </trkpt>
      <trkpt lat="48.46153" lon="7.10973">
        <ele>905</ele>
        <time>2009-05-24T15:13:49Z</time>
      </trkpt>
      <trkpt lat="48.46161" lon="7.10981">
        <ele>900</ele>
        <time>2009-05-24T15:14:13Z</time>
      </trkpt>
      <trkpt lat="48.4617" lon="7.10989">
        <ele>900</ele>
        <time>2009-05-24T15:14:21Z</time>
      </trkpt>
      <trkpt lat="48.46179" lon="7.10996">
        <ele>900</ele>
        <time>2009-05-24T15:14:31Z</time>
      </trkpt>
      <trkpt lat="48.46189" lon="7.11003">
        <ele>900</ele>
        <time>2009-05-24T15:14:38Z</time>
      </trkpt>
      <trkpt lat="48.46199" lon="7.11009">
        <ele>905</ele>
        <time>2009-05-24T15:14:49Z</time>
      </trkpt>
      <trkpt lat="48.46208" lon="7.11012">
        <ele>905</ele>
        <time>2009-05-24T15:14:54Z</time>
      </trkpt>
      <trkpt lat="48.46219" lon="7.11017">
        <ele>905</ele>
        <time>2009-05-24T15:15:01Z</time>
      </trkpt>
      <trkpt lat="48.46228" lon="7.11021">
        <ele>905</ele>
        <time>2009-05-24T15:15:10Z</time>
      </trkpt>
      <trkpt lat="48.46236" lon="7.11028">
        <ele>905</ele>
        <time>2009-05-24T15:15:21Z</time>
      </trkpt>
      <trkpt lat="48.46246" lon="7.1103">
        <ele>905</ele>
        <time>2009-05-24T15:15:27Z</time>
      </trkpt>
      <trkpt lat="48.46254" lon="7.11039">
        <ele>905</ele>
        <time>2009-05-24T15:15:39Z</time>
      </trkpt>
      <trkpt lat="48.46264" lon="7.11045">
        <ele>905</ele>
        <time>2009-05-24T15:15:47Z</time>
      </trkpt>
      <trkpt lat="48.46275" lon="7.11046">
        <ele>905</ele>
        <time>2009-05-24T15:15:57Z</time>
      </trkpt>
      <trkpt lat="48.46284" lon="7.11051">
        <ele>905</ele>
        <time>2009-05-24T15:16:04Z</time>
      </trkpt>
      <trkpt lat="48.46294" lon="7.11055">
        <ele>905</ele>
        <time>2009-05-24T15:16:12Z</time>
      </trkpt>
      <trkpt lat="48.46301" lon="7.11063">
        <ele>911</ele>
        <time>2009-05-24T15:16:20Z</time>
      </trkpt>
      <trkpt lat="48.46312" lon="7.11067">
        <ele>911</ele>
        <time>2009-05-24T15:16:28Z</time>
      </trkpt>
      <trkpt lat="48.46322" lon="7.11068">
        <ele>911</ele>
        <time>2009-05-24T15:16:39Z</time>
      </trkpt>
      <trkpt lat="48.46332" lon="7.1107">
        <ele>906</ele>
        <time>2009-05-24T15:16:49Z</time>
      </trkpt>
      <trkpt lat="48.46343" lon="7.1107">
        <ele>906</ele>
        <time>2009-05-24T15:16:57Z</time>
      </trkpt>
      <trkpt lat="48.46353" lon="7.11074">
        <ele>906</ele>
        <time>2009-05-24T15:17:04Z</time>
      </trkpt>
      <trkpt lat="48.46362" lon="7.11071">
        <ele>906</ele>
        <time>2009-05-24T15:17:13Z</time>
      </trkpt>
      <trkpt lat="48.46372" lon="7.11072">
        <ele>906</ele>
        <time>2009-05-24T15:17:22Z</time>
      </trkpt>
      <trkpt lat="48.46382" lon="7.11071">
        <ele>906</ele>
        <time>2009-05-24T15:17:34Z</time>
      </trkpt>
      <trkpt lat="48.46392" lon="7.11072">
        <ele>906</ele>
        <time>2009-05-24T15:17:43Z</time>
      </trkpt>
      <trkpt lat="48.46402" lon="7.11073">
        <ele>906</ele>
        <time>2009-05-24T15:17:51Z</time>
      </trkpt>
      <trkpt lat="48.46413" lon="7.11072">
        <ele>906</ele>
        <time>2009-05-24T15:18:00Z</time>
      </trkpt>
      <trkpt lat="48.46423" lon="7.11072">
        <ele>906</ele>
        <time>2009-05-24T15:18:09Z</time>
      </trkpt>
      <trkpt lat="48.46433" lon="7.11071">
        <ele>906</ele>
        <time>2009-05-24T15:18:15Z</time>
      </trkpt>
      <trkpt lat="48.46442" lon="7.1107">
        <ele>906</ele>
        <time>2009-05-24T15:18:21Z</time>
      </trkpt>
      <trkpt lat="48.46453" lon="7.11069">
        <ele>906</ele>
        <time>2009-05-24T15:18:32Z</time>
      </trkpt>
      <trkpt lat="48.46462" lon="7.11065">
        <ele>906</ele>
        <time>2009-05-24T15:18:42Z</time>
      </trkpt>
      <trkpt lat="48.46471" lon="7.11062">
        <ele>906</ele>
        <time>2009-05-24T15:18:49Z</time>
      </trkpt>
      <trkpt lat="48.46479" lon="7.11055">
        <ele>906</ele>
        <time>2009-05-24T15:18:57Z</time>
      </trkpt>
      <trkpt lat="48.46487" lon="7.11046">
        <ele>898</ele>
        <time>2009-05-24T15:19:05Z</time>
      </trkpt>
      <trkpt lat="48.46496" lon="7.11039">
        <ele>898</ele>
        <time>2009-05-24T15:19:13Z</time>
      </trkpt>
      <trkpt lat="48.46504" lon="7.11032">
        <ele>898</ele>
        <time>2009-05-24T15:19:21Z</time>
      </trkpt>
      <trkpt lat="48.46511" lon="7.11023">
        <ele>898</ele>
        <time>2009-05-24T15:19:32Z</time>
      </trkpt>
      <trkpt lat="48.4652" lon="7.11019">
        <ele>898</ele>
        <time>2009-05-24T15:19:43Z</time>
      </trkpt>
      <trkpt lat="48.46528" lon="7.11012">
        <ele>898</ele>
        <time>2009-05-24T15:20:07Z</time>
      </trkpt>
      <trkpt lat="48.46537" lon="7.11009">
        <ele>904</ele>
        <time>2009-05-24T15:20:17Z</time>
      </trkpt>
      <trkpt lat="48.46546" lon="7.10998">
        <ele>904</ele>
        <time>2009-05-24T15:20:25Z</time>
      </trkpt>
      <trkpt lat="48.46552" lon="7.10988">
        <ele>895</ele>
        <time>2009-05-24T15:20:35Z</time>
      </trkpt>
      <trkpt lat="48.46561" lon="7.10981">
        <ele>895</ele>
        <time>2009-05-24T15:20:45Z</time>
      </trkpt>
      <trkpt lat="48.46569" lon="7.10973">
        <ele>895</ele>
        <time>2009-05-24T15:20:53Z</time>
      </trkpt>
      <trkpt lat="48.46574" lon="7.10961">
        <ele>888</ele>
        <time>2009-05-24T15:21:04Z</time>
      </trkpt>
      <trkpt lat="48.46583" lon="7.10954">
        <ele>888</ele>
        <time>2009-05-24T15:21:12Z</time>
      </trkpt>
      <trkpt lat="48.46592" lon="7.10947">
        <ele>888</ele>
        <time>2009-05-24T15:21:21Z</time>
      </trkpt>
      <trkpt lat="48.46601" lon="7.10939">
        <ele>888</ele>
        <time>2009-05-24T15:21:32Z</time>
      </trkpt>
      <trkpt lat="48.4661" lon="7.10932">
        <ele>888</ele>
        <time>2009-05-24T15:21:41Z</time>
      </trkpt>
      <trkpt lat="48.46619" lon="7.10928">
        <ele>888</ele>
        <time>2009-05-24T15:21:47Z</time>
      </trkpt>
      <trkpt lat="48.46628" lon="7.10921">
        <ele>888</ele>
        <time>2009-05-24T15:21:56Z</time>
      </trkpt>
      <trkpt lat="48.46637" lon="7.10921">
        <ele>888</ele>
        <time>2009-05-24T15:22:08Z</time>
      </trkpt>
      <trkpt lat="48.46647" lon="7.10922">
        <ele>888</ele>
        <time>2009-05-24T15:22:17Z</time>
      </trkpt>
      <trkpt lat="48.46656" lon="7.1092">
        <ele>888</ele>
        <time>2009-05-24T15:22:26Z</time>
      </trkpt>
      <trkpt lat="48.46666" lon="7.1092">
        <ele>881</ele>
        <time>2009-05-24T15:22:35Z</time>
      </trkpt>
      <trkpt lat="48.46675" lon="7.10923">
        <ele>881</ele>
        <time>2009-05-24T15:22:43Z</time>
      </trkpt>
      <trkpt lat="48.46685" lon="7.10924">
        <ele>887</ele>
        <time>2009-05-24T15:22:53Z</time>
      </trkpt>
      <trkpt lat="48.46695" lon="7.10927">
        <ele>887</ele>
        <time>2009-05-24T15:23:00Z</time>
      </trkpt>
      <trkpt lat="48.46705" lon="7.10928">
        <ele>887</ele>
        <time>2009-05-24T15:23:12Z</time>
      </trkpt>
      <trkpt lat="48.46714" lon="7.10928">
        <ele>887</ele>
        <time>2009-05-24T15:23:17Z</time>
      </trkpt>
      <trkpt lat="48.46724" lon="7.10925">
        <ele>887</ele>
        <time>2009-05-24T15:23:24Z</time>
      </trkpt>
      <trkpt lat="48.46732" lon="7.10919">
        <ele>879</ele>
        <time>2009-05-24T15:23:30Z</time>
      </trkpt>
      <trkpt lat="48.46739" lon="7.10909">
        <ele>874</ele>
        <time>2009-05-24T15:23:37Z</time>
      </trkpt>
      <trkpt lat="48.46746" lon="7.10899">
        <ele>874</ele>
        <time>2009-05-24T15:23:47Z</time>
      </trkpt>
      <trkpt lat="48.46755" lon="7.10893">
        <ele>874</ele>
        <time>2009-05-24T15:23:55Z</time>
      </trkpt>
      <trkpt lat="48.46764" lon="7.10887">
        <ele>874</ele>
        <time>2009-05-24T15:24:04Z</time>
      </trkpt>
      <trkpt lat="48.46771" lon="7.10877">
        <ele>874</ele>
        <time>2009-05-24T15:24:13Z</time>
      </trkpt>
      <trkpt lat="48.46779" lon="7.10869">
        <ele>874</ele>
        <time>2009-05-24T15:24:23Z</time>
      </trkpt>
      <trkpt lat="48.46788" lon="7.10864">
        <ele>874</ele>
        <time>2009-05-24T15:24:33Z</time>
      </trkpt>
      <trkpt lat="48.46797" lon="7.10856">
        <ele>874</ele>
        <time>2009-05-24T15:24:43Z</time>
      </trkpt>
      <trkpt lat="48.46805" lon="7.1085">
        <ele>868</ele>
        <time>2009-05-24T15:24:52Z</time>
      </trkpt>
      <trkpt lat="48.46814" lon="7.10843">
        <ele>868</ele>
        <time>2009-05-24T15:25:02Z</time>
      </trkpt>
      <trkpt lat="48.46823" lon="7.10839">
        <ele>868</ele>
        <time>2009-05-24T15:25:10Z</time>
      </trkpt>
      <trkpt lat="48.46833" lon="7.10839">
        <ele>868</ele>
        <time>2009-05-24T15:25:21Z</time>
      </trkpt>
      <trkpt lat="48.46843" lon="7.10839">
        <ele>868</ele>
        <time>2009-05-24T15:25:30Z</time>
      </trkpt>
      <trkpt lat="48.46853" lon="7.10841">
        <ele>860</ele>
        <time>2009-05-24T15:25:47Z</time>
      </trkpt>
      <trkpt lat="48.4686" lon="7.1085">
        <ele>860</ele>
        <time>2009-05-24T15:25:57Z</time>
      </trkpt>
      <trkpt lat="48.46868" lon="7.10858">
        <ele>860</ele>
        <time>2009-05-24T15:26:12Z</time>
      </trkpt>
      <trkpt lat="48.46878" lon="7.10861">
        <ele>860</ele>
        <time>2009-05-24T15:28:08Z</time>
      </trkpt>
      <trkpt lat="48.46887" lon="7.10861">
        <ele>860</ele>
        <time>2009-05-24T15:29:30Z</time>
      </trkpt>
      <trkpt lat="48.46896" lon="7.10866">
        <ele>860</ele>
        <time>2009-05-24T15:29:38Z</time>
      </trkpt>
      <trkpt lat="48.46906" lon="7.10868">
        <ele>860</ele>
        <time>2009-05-24T15:29:46Z</time>
      </trkpt>
      <trkpt lat="48.46915" lon="7.10873">
        <ele>860</ele>
        <time>2009-05-24T15:29:53Z</time>
      </trkpt>
      <trkpt lat="48.46924" lon="7.10877">
        <ele>860</ele>
        <time>2009-05-24T15:30:00Z</time>
      </trkpt>
      <trkpt lat="48.46932" lon="7.10885">
        <ele>860</ele>
        <time>2009-05-24T15:30:08Z</time>
      </trkpt>
      <trkpt lat="48.46942" lon="7.1089">
        <ele>860</ele>
        <time>2009-05-24T15:30:16Z</time>
      </trkpt>
      <trkpt lat="48.46951" lon="7.10895">
        <ele>860</ele>
        <time>2009-05-24T15:30:23Z</time>
      </trkpt>
      <trkpt lat="48.4696" lon="7.109">
        <ele>860</ele>
        <time>2009-05-24T15:30:30Z</time>
      </trkpt>
      <trkpt lat="48.4697" lon="7.10903">
        <ele>860</ele>
        <time>2009-05-24T15:30:38Z</time>
      </trkpt>
      <trkpt lat="48.46979" lon="7.10906">
        <ele>860</ele>
        <time>2009-05-24T15:30:45Z</time>
      </trkpt>
      <trkpt lat="48.46988" lon="7.10911">
        <ele>860</ele>
        <time>2009-05-24T15:30:52Z</time>
      </trkpt>
      <trkpt lat="48.46997" lon="7.10913">
        <ele>860</ele>
        <time>2009-05-24T15:31:00Z</time>
      </trkpt>
      <trkpt lat="48.47006" lon="7.10917">
        <ele>860</ele>
        <time>2009-05-24T15:31:07Z</time>
      </trkpt>
      <trkpt lat="48.47017" lon="7.10919">
        <ele>860</ele>
        <time>2009-05-24T15:31:16Z</time>
      </trkpt>
      <trkpt lat="48.47025" lon="7.10922">
        <ele>860</ele>
        <time>2009-05-24T15:31:24Z</time>
      </trkpt>
      <trkpt lat="48.47035" lon="7.10923">
        <ele>866</ele>
        <time>2009-05-24T15:31:32Z</time>
      </trkpt>
      <trkpt lat="48.47045" lon="7.10924">
        <ele>866</ele>
        <time>2009-05-24T15:31:41Z</time>
      </trkpt>
      <trkpt lat="48.47055" lon="7.10922">
        <ele>866</ele>
        <time>2009-05-24T15:31:49Z</time>
      </trkpt>
      <trkpt lat="48.47064" lon="7.10919">
        <ele>866</ele>
        <time>2009-05-24T15:31:57Z</time>
      </trkpt>
      <trkpt lat="48.47074" lon="7.10916">
        <ele>866</ele>
        <time>2009-05-24T15:32:06Z</time>
      </trkpt>
      <trkpt lat="48.47084" lon="7.10913">
        <ele>866</ele>
        <time>2009-05-24T15:32:15Z</time>
      </trkpt>
      <trkpt lat="48.47094" lon="7.10911">
        <ele>866</ele>
        <time>2009-05-24T15:32:23Z</time>
      </trkpt>
      <trkpt lat="48.47104" lon="7.10911">
        <ele>873</ele>
        <time>2009-05-24T15:32:31Z</time>
      </trkpt>
      <trkpt lat="48.47114" lon="7.10909">
        <ele>873</ele>
        <time>2009-05-24T15:32:39Z</time>
      </trkpt>
      <trkpt lat="48.47124" lon="7.10905">
        <ele>873</ele>
        <time>2009-05-24T15:32:48Z</time>
      </trkpt>
      <trkpt lat="48.47134" lon="7.10898">
        <ele>879</ele>
        <time>2009-05-24T15:32:58Z</time>
      </trkpt>
      <trkpt lat="48.47143" lon="7.10896">
        <ele>879</ele>
        <time>2009-05-24T15:33:06Z</time>
      </trkpt>
      <trkpt lat="48.47153" lon="7.10894">
        <ele>884</ele>
        <time>2009-05-24T15:33:13Z</time>
      </trkpt>
      <trkpt lat="48.47162" lon="7.10891">
        <ele>884</ele>
        <time>2009-05-24T15:33:21Z</time>
      </trkpt>
      <trkpt lat="48.47172" lon="7.10887">
        <ele>878</ele>
        <time>2009-05-24T15:33:30Z</time>
      </trkpt>
      <trkpt lat="48.47182" lon="7.10885">
        <ele>878</ele>
        <time>2009-05-24T15:33:38Z</time>
      </trkpt>
      <trkpt lat="48.47191" lon="7.10881">
        <ele>878</ele>
        <time>2009-05-24T15:33:46Z</time>
      </trkpt>
      <trkpt lat="48.47201" lon="7.10879">
        <ele>878</ele>
        <time>2009-05-24T15:33:54Z</time>
      </trkpt>
      <trkpt lat="48.47211" lon="7.10876">
        <ele>878</ele>
        <time>2009-05-24T15:34:02Z</time>
      </trkpt>
      <trkpt lat="48.47221" lon="7.10876">
        <ele>878</ele>
        <time>2009-05-24T15:34:10Z</time>
      </trkpt>
      <trkpt lat="48.4723" lon="7.10877">
        <ele>878</ele>
        <time>2009-05-24T15:34:18Z</time>
      </trkpt>
      <trkpt lat="48.4724" lon="7.1088">
        <ele>878</ele>
        <time>2009-05-24T15:34:26Z</time>
      </trkpt>
      <trkpt lat="48.47249" lon="7.10884">
        <ele>878</ele>
        <time>2009-05-24T15:34:35Z</time>
      </trkpt>
      <trkpt lat="48.47257" lon="7.10891">
        <ele>884</ele>
        <time>2009-05-24T15:34:43Z</time>
      </trkpt>
      <trkpt lat="48.47266" lon="7.10898">
        <ele>884</ele>
        <time>2009-05-24T15:34:51Z</time>
      </trkpt>
      <trkpt lat="48.47274" lon="7.10904">
        <ele>884</ele>
        <time>2009-05-24T15:34:58Z</time>
      </trkpt>
      <trkpt lat="48.47281" lon="7.10913">
        <ele>884</ele>
        <time>2009-05-24T15:35:06Z</time>
      </trkpt>
      <trkpt lat="48.47289" lon="7.10923">
        <ele>884</ele>
        <time>2009-05-24T15:35:14Z</time>
      </trkpt>
      <trkpt lat="48.47295" lon="7.10936">
        <ele>884</ele>
        <time>2009-05-24T15:35:24Z</time>
      </trkpt>
      <trkpt lat="48.47302" lon="7.10946">
        <ele>884</ele>
        <time>2009-05-24T15:35:31Z</time>
      </trkpt>
      <trkpt lat="48.47306" lon="7.10959">
        <ele>884</ele>
        <time>2009-05-24T15:35:42Z</time>
      </trkpt>
      <trkpt lat="48.47313" lon="7.10971">
        <ele>884</ele>
        <time>2009-05-24T15:35:50Z</time>
      </trkpt>
      <trkpt lat="48.47318" lon="7.10985">
        <ele>884</ele>
        <time>2009-05-24T15:35:59Z</time>
      </trkpt>
      <trkpt lat="48.47325" lon="7.10996">
        <ele>889</ele>
        <time>2009-05-24T15:36:08Z</time>
      </trkpt>
      <trkpt lat="48.4733" lon="7.11009">
        <ele>889</ele>
        <time>2009-05-24T15:36:16Z</time>
      </trkpt>
      <trkpt lat="48.47334" lon="7.11021">
        <ele>889</ele>
        <time>2009-05-24T15:36:25Z</time>
      </trkpt>
      <trkpt lat="48.47341" lon="7.11032">
        <ele>889</ele>
        <time>2009-05-24T15:36:32Z</time>
      </trkpt>
      <trkpt lat="48.47345" lon="7.11044">
        <ele>889</ele>
        <time>2009-05-24T15:36:40Z</time>
      </trkpt>
      <trkpt lat="48.4735" lon="7.11059">
        <ele>889</ele>
        <time>2009-05-24T15:36:48Z</time>
      </trkpt>
      <trkpt lat="48.47355" lon="7.11072">
        <ele>889</ele>
        <time>2009-05-24T15:36:57Z</time>
      </trkpt>
      <trkpt lat="48.47363" lon="7.11081">
        <ele>889</ele>
        <time>2009-05-24T15:37:04Z</time>
      </trkpt>
      <trkpt lat="48.4737" lon="7.11091">
        <ele>884</ele>
        <time>2009-05-24T15:37:12Z</time>
      </trkpt>
      <trkpt lat="48.47376" lon="7.11102">
        <ele>884</ele>
        <time>2009-05-24T15:37:21Z</time>
      </trkpt>
      <trkpt lat="48.47385" lon="7.11106">
        <ele>884</ele>
        <time>2009-05-24T15:37:27Z</time>
      </trkpt>
      <trkpt lat="48.47395" lon="7.11107">
        <ele>877</ele>
        <time>2009-05-24T15:37:36Z</time>
      </trkpt>
      <trkpt lat="48.47406" lon="7.11106">
        <ele>877</ele>
        <time>2009-05-24T15:37:46Z</time>
      </trkpt>
      <trkpt lat="48.47416" lon="7.11106">
        <ele>877</ele>
        <time>2009-05-24T15:37:55Z</time>
      </trkpt>
      <trkpt lat="48.47426" lon="7.11103">
        <ele>877</ele>
        <time>2009-05-24T15:38:04Z</time>
      </trkpt>
      <trkpt lat="48.47436" lon="7.11099">
        <ele>871</ele>
        <time>2009-05-24T15:38:12Z</time>
      </trkpt>
      <trkpt lat="48.47447" lon="7.11097">
        <ele>871</ele>
        <time>2009-05-24T15:38:20Z</time>
      </trkpt>
      <trkpt lat="48.47456" lon="7.11094">
        <ele>871</ele>
        <time>2009-05-24T15:38:28Z</time>
      </trkpt>
      <trkpt lat="48.47466" lon="7.1109">
        <ele>864</ele>
        <time>2009-05-24T15:38:37Z</time>
      </trkpt>
      <trkpt lat="48.47476" lon="7.11088">
        <ele>864</ele>
        <time>2009-05-24T15:38:44Z</time>
      </trkpt>
      <trkpt lat="48.47486" lon="7.11086">
        <ele>864</ele>
        <time>2009-05-24T15:38:53Z</time>
      </trkpt>
      <trkpt lat="48.47496" lon="7.11089">
        <ele>864</ele>
        <time>2009-05-24T15:39:02Z</time>
      </trkpt>
      <trkpt lat="48.47505" lon="7.11094">
        <ele>864</ele>
        <time>2009-05-24T15:39:11Z</time>
      </trkpt>
      <trkpt lat="48.47513" lon="7.111">
        <ele>864</ele>
        <time>2009-05-24T15:39:21Z</time>
      </trkpt>
      <trkpt lat="48.47521" lon="7.11108">
        <ele>864</ele>
        <time>2009-05-24T15:39:31Z</time>
      </trkpt>
      <trkpt lat="48.4753" lon="7.11117">
        <ele>858</ele>
        <time>2009-05-24T15:39:42Z</time>
      </trkpt>
      <trkpt lat="48.47537" lon="7.11126">
        <ele>858</ele>
        <time>2009-05-24T15:39:50Z</time>
      </trkpt>
      <trkpt lat="48.47543" lon="7.11136">
        <ele>858</ele>
        <time>2009-05-24T15:39:57Z</time>
      </trkpt>
      <trkpt lat="48.47551" lon="7.11145">
        <ele>858</ele>
        <time>2009-05-24T15:40:03Z</time>
      </trkpt>
      <trkpt lat="48.47556" lon="7.11158">
        <ele>858</ele>
        <time>2009-05-24T15:40:12Z</time>
      </trkpt>
      <trkpt lat="48.47561" lon="7.11169">
        <ele>858</ele>
        <time>2009-05-24T15:40:19Z</time>
      </trkpt>
      <trkpt lat="48.47561" lon="7.11184">
        <ele>858</ele>
        <time>2009-05-24T15:40:27Z</time>
      </trkpt>
      <trkpt lat="48.47566" lon="7.11197">
        <ele>858</ele>
        <time>2009-05-24T15:40:36Z</time>
      </trkpt>
      <trkpt lat="48.47572" lon="7.1121">
        <ele>858</ele>
        <time>2009-05-24T15:40:43Z</time>
      </trkpt>
      <trkpt lat="48.47579" lon="7.11221">
        <ele>858</ele>
        <time>2009-05-24T15:40:50Z</time>
      </trkpt>
      <trkpt lat="48.47585" lon="7.11232">
        <ele>858</ele>
        <time>2009-05-24T15:40:58Z</time>
      </trkpt>
      <trkpt lat="48.47591" lon="7.11246">
        <ele>858</ele>
        <time>2009-05-24T15:41:08Z</time>
      </trkpt>
      <trkpt lat="48.47595" lon="7.11259">
        <ele>852</ele>
        <time>2009-05-24T15:41:16Z</time>
      </trkpt>
      <trkpt lat="48.476" lon="7.11272">
        <ele>852</ele>
        <time>2009-05-24T15:41:24Z</time>
      </trkpt>
      <trkpt lat="48.47601" lon="7.11286">
        <ele>846</ele>
        <time>2009-05-24T15:41:32Z</time>
      </trkpt>
      <trkpt lat="48.47607" lon="7.11299">
        <ele>846</ele>
        <time>2009-05-24T15:41:41Z</time>
      </trkpt>
      <trkpt lat="48.4761" lon="7.11312">
        <ele>846</ele>
        <time>2009-05-24T15:41:49Z</time>
      </trkpt>
      <trkpt lat="48.47615" lon="7.11325">
        <ele>846</ele>
        <time>2009-05-24T15:41:56Z</time>
      </trkpt>
      <trkpt lat="48.47619" lon="7.11339">
        <ele>840</ele>
        <time>2009-05-24T15:42:05Z</time>
      </trkpt>
      <trkpt lat="48.47623" lon="7.11353">
        <ele>840</ele>
        <time>2009-05-24T15:42:13Z</time>
      </trkpt>
      <trkpt lat="48.47626" lon="7.11368">
        <ele>840</ele>
        <time>2009-05-24T15:42:20Z</time>
      </trkpt>
      <trkpt lat="48.47627" lon="7.11383">
        <ele>834</ele>
        <time>2009-05-24T15:42:29Z</time>
      </trkpt>
      <trkpt lat="48.47628" lon="7.11398">
        <ele>834</ele>
        <time>2009-05-24T15:42:38Z</time>
      </trkpt>
      <trkpt lat="48.47631" lon="7.11412">
        <ele>834</ele>
        <time>2009-05-24T15:42:46Z</time>
      </trkpt>
      <trkpt lat="48.47631" lon="7.11426">
        <ele>834</ele>
        <time>2009-05-24T15:42:54Z</time>
      </trkpt>
      <trkpt lat="48.47628" lon="7.11441">
        <ele>834</ele>
        <time>2009-05-24T15:43:02Z</time>
      </trkpt>
      <trkpt lat="48.47623" lon="7.11453">
        <ele>826</ele>
        <time>2009-05-24T15:43:11Z</time>
      </trkpt>
      <trkpt lat="48.47617" lon="7.11465">
        <ele>826</ele>
        <time>2009-05-24T15:43:19Z</time>
      </trkpt>
      <trkpt lat="48.47613" lon="7.11477">
        <ele>826</ele>
        <time>2009-05-24T15:43:27Z</time>
      </trkpt>
      <trkpt lat="48.47613" lon="7.11492">
        <ele>826</ele>
        <time>2009-05-24T15:43:35Z</time>
      </trkpt>
      <trkpt lat="48.47615" lon="7.11506">
        <ele>826</ele>
        <time>2009-05-24T15:43:44Z</time>
      </trkpt>
      <trkpt lat="48.47622" lon="7.11516">
        <ele>831</ele>
        <time>2009-05-24T15:43:51Z</time>
      </trkpt>
      <trkpt lat="48.47631" lon="7.11524">
        <ele>831</ele>
        <time>2009-05-24T15:43:58Z</time>
      </trkpt>
      <trkpt lat="48.4764" lon="7.11533">
        <ele>831</ele>
        <time>2009-05-24T15:44:06Z</time>
      </trkpt>
      <trkpt lat="48.47646" lon="7.11545">
        <ele>831</ele>
        <time>2009-05-24T15:44:15Z</time>
      </trkpt>
      <trkpt lat="48.47653" lon="7.11554">
        <ele>831</ele>
        <time>2009-05-24T15:44:22Z</time>
      </trkpt>
      <trkpt lat="48.4766" lon="7.11565">
        <ele>831</ele>
        <time>2009-05-24T15:44:29Z</time>
      </trkpt>
      <trkpt lat="48.4767" lon="7.11572">
        <ele>831</ele>
        <time>2009-05-24T15:44:35Z</time>
      </trkpt>
      <trkpt lat="48.47678" lon="7.11582">
        <ele>831</ele>
        <time>2009-05-24T15:44:43Z</time>
      </trkpt>
      <trkpt lat="48.47687" lon="7.1159">
        <ele>831</ele>
        <time>2009-05-24T15:44:50Z</time>
      </trkpt>
      <trkpt lat="48.47693" lon="7.11601">
        <ele>825</ele>
        <time>2009-05-24T15:45:01Z</time>
      </trkpt>
      <trkpt lat="48.47702" lon="7.11608">
        <ele>825</ele>
        <time>2009-05-24T15:45:08Z</time>
      </trkpt>
      <trkpt lat="48.47708" lon="7.11618">
        <ele>816</ele>
        <time>2009-05-24T15:45:17Z</time>
      </trkpt>
      <trkpt lat="48.47715" lon="7.11629">
        <ele>816</ele>
        <time>2009-05-24T15:45:26Z</time>
      </trkpt>
      <trkpt lat="48.47722" lon="7.1164">
        <ele>816</ele>
        <time>2009-05-24T15:45:34Z</time>
      </trkpt>
      <trkpt lat="48.47729" lon="7.11649">
        <ele>816</ele>
        <time>2009-05-24T15:45:41Z</time>
      </trkpt>
      <trkpt lat="48.47736" lon="7.1166">
        <ele>816</ele>
        <time>2009-05-24T15:45:48Z</time>
      </trkpt>
      <trkpt lat="48.47743" lon="7.11671">
        <ele>816</ele>
        <time>2009-05-24T15:45:56Z</time>
      </trkpt>
      <trkpt lat="48.4775" lon="7.11681">
        <ele>808</ele>
        <time>2009-05-24T15:46:04Z</time>
      </trkpt>
      <trkpt lat="48.47756" lon="7.11693">
        <ele>808</ele>
        <time>2009-05-24T15:46:12Z</time>
      </trkpt>
      <trkpt lat="48.47764" lon="7.11701">
        <ele>808</ele>
        <time>2009-05-24T15:46:18Z</time>
      </trkpt>
      <trkpt lat="48.47773" lon="7.11709">
        <ele>814</ele>
        <time>2009-05-24T15:46:25Z</time>
      </trkpt>
      <trkpt lat="48.47782" lon="7.11717">
        <ele>803</ele>
        <time>2009-05-24T15:46:36Z</time>
      </trkpt>
      <trkpt lat="48.47791" lon="7.11723">
        <ele>803</ele>
        <time>2009-05-24T15:46:42Z</time>
      </trkpt>
      <trkpt lat="48.478" lon="7.11726">
        <ele>803</ele>
        <time>2009-05-24T15:46:48Z</time>
      </trkpt>
      <trkpt lat="48.4781" lon="7.11726">
        <ele>803</ele>
        <time>2009-05-24T15:46:56Z</time>
      </trkpt>
      <trkpt lat="48.4782" lon="7.11725">
        <ele>808</ele>
        <time>2009-05-24T15:47:03Z</time>
      </trkpt>
      <trkpt lat="48.47829" lon="7.11724">
        <ele>808</ele>
        <time>2009-05-24T15:47:11Z</time>
      </trkpt>
      <trkpt lat="48.47838" lon="7.11717">
        <ele>808</ele>
        <time>2009-05-24T15:47:19Z</time>
      </trkpt>
      <trkpt lat="48.47845" lon="7.11708">
        <ele>797</ele>
        <time>2009-05-24T15:47:29Z</time>
      </trkpt>
      <trkpt lat="48.47841" lon="7.11701">
        <ele>789</ele>
        <time>2009-05-24T15:48:31Z</time>
      </trkpt>
    </trkseg>
  </trk>
</gpx>